Darstellungsparameter: Aktuell verwendete Einstellungen:
Skalierung der Graphiken ... ?
xyx+y,   Skalierungsfaktor:      Skalierung: Modus: x, Faktor: 1
Darstellungszeitraum ... ?
Vom - - bis: - -   Zeitraum: 31.05.2008 - 29.11.2008
Min/Max/Avg-Anzeige ... ?
Zeige MMA aktuell
Zeige MMA Monat
Zeige MMA alles
Zeige --A aktuell
Zeige --A Monat
Zeige --A alles
Keine MMA-Anzeige
MMA:
Keine MMA-Graphiken
MMA-Basis: 31.05.2008 - 29.11.2008
Quicknavigation für Darstellung... ?
Tage:      1T, 2T, 3T, 5T -1T -2T -3T -5T +1T +2T +3T +5T
Wochen: 1W, 2W, 3W -1W -2W -3W +1W +2W +3W
Monate: 1M, 3M, 6M -1M -3M -6M +1M +3M +6M
Jahre:    1J, 3J, 5J, 10J -1J -3J -5J -10J +1J +3J +5J +10J
Nutze für die Darstellung ... ?
Originaldaten oder Mittelwerte auf ...
Stundenbasis Tagesbasis Wochenbasis
Monatsbasis Jahresbasis      Datenbasis: Original-Daten
Darstellen als:
Statistik (Auto) Statistik J:M      Darstellung:
Zur Graphik,    zurück zur Übersicht aller Sensoren.
 
Tabellarische Datenbersicht: ?
 
Sensor: Nr:Datum:Temp:Abs-Feuchte:Windchill:Wind:
Aussen-T/F 1 31-05-2008 00:05:04 17.4 C 13.49 g/m*3 17.4 C 0 km/h
2 31-05-2008 00:17:04 17.4 C 13.34 g/m*3 17.4 C 0 km/h
3 31-05-2008 00:29:04 17.5 C 13.27 g/m*3 17.5 C 0 km/h
4 31-05-2008 00:41:04 17.5 C 13.27 g/m*3 17.5 C 0 km/h
5 31-05-2008 00:53:04 17.3 C 12.96 g/m*3 17.3 C 0 km/h
6 31-05-2008 01:05:04 17.3 C 12.82 g/m*3 17.3 C 0 km/h
7 31-05-2008 01:17:04 17.1 C 12.52 g/m*3 17.1 C 0 km/h
8 31-05-2008 01:29:04 17 C 12.44 g/m*3 17 C 0 km/h
9 31-05-2008 01:41:04 17 C 12.44 g/m*3 17 C 0 km/h
10 31-05-2008 01:53:04 16.9 C 12.51 g/m*3 16.9 C 0 km/h
11 31-05-2008 02:05:04 16.8 C 12.58 g/m*3 16.8 C 0 km/h
12 31-05-2008 02:17:04 16.8 C 12.58 g/m*3 16.8 C 0 km/h
13 31-05-2008 02:29:04 16.8 C 12.58 g/m*3 16.8 C 0 km/h
14 31-05-2008 02:41:04 16.8 C 12.44 g/m*3 16.8 C 0 km/h
15 31-05-2008 02:53:04 16.7 C 12.36 g/m*3 16.7 C 0 km/h
16 31-05-2008 03:05:05 16.6 C 12.29 g/m*3 16.6 C 0 km/h
17 31-05-2008 03:17:05 16.7 C 12.51 g/m*3 16.7 C 0 km/h
18 31-05-2008 03:29:05 16.6 C 12.29 g/m*3 16.6 C 0 km/h
19 31-05-2008 03:41:05 16.7 C 12.22 g/m*3 16.7 C 0 km/h
20 31-05-2008 03:53:05 16.7 C 12.22 g/m*3 16.7 C 0 km/h
21 31-05-2008 04:05:05 16.8 C 12.3 g/m*3 16.8 C 0 km/h
22 31-05-2008 04:17:05 16.7 C 12.22 g/m*3 16.7 C 0 km/h
23 31-05-2008 04:29:05 16.6 C 12.15 g/m*3 16.6 C 0 km/h
24 31-05-2008 04:41:05 16.6 C 12.15 g/m*3 16.6 C 0 km/h
25 31-05-2008 04:53:05 16.6 C 12.15 g/m*3 16.6 C 0 km/h
Sensor: Nr:Datum:Temp:Abs-Feuchte:Windchill:Wind:
Aussen-T/F 26 31-05-2008 05:05:05 16.5 C 11.94 g/m*3 16.5 C 0 km/h
27 31-05-2008 05:17:05 16.4 C 11.86 g/m*3 16.4 C 0 km/h
28 31-05-2008 05:29:05 16.4 C 11.86 g/m*3 16.4 C 0 km/h
29 31-05-2008 05:41:05 16.3 C 11.79 g/m*3 16.3 C 0 km/h
30 31-05-2008 05:53:05 16.1 C 11.65 g/m*3 16.1 C 0 km/h
31 31-05-2008 06:05:05 16.1 C 11.79 g/m*3 16.1 C 0 km/h
32 31-05-2008 06:17:05 16.1 C 11.79 g/m*3 16.1 C 0 km/h
33 31-05-2008 06:29:05 16.2 C 11.86 g/m*3 16.2 C 0 km/h
34 31-05-2008 06:41:05 16.3 C 11.93 g/m*3 16.3 C 0 km/h
35 31-05-2008 06:53:05 16.4 C 11.86 g/m*3 16.4 C 0 km/h
36 31-05-2008 07:05:05 16.1 C 11.65 g/m*3 16.1 C 0 km/h
37 31-05-2008 07:17:06 16.2 C 11.72 g/m*3 16.2 C 0 km/h
38 31-05-2008 07:29:06 16.2 C 11.72 g/m*3 16.2 C 0 km/h
39 31-05-2008 07:41:03 16.2 C 11.58 g/m*3 16.2 C 0 km/h
40 31-05-2008 07:53:02 16.3 C 11.52 g/m*3 16.3 C 0 km/h
41 31-05-2008 08:05:02 16.2 C 11.45 g/m*3 16.2 C 0 km/h
42 31-05-2008 08:17:02 16 C 11.31 g/m*3 16 C 0 km/h
43 31-05-2008 08:29:02 16 C 11.31 g/m*3 16 C 0 km/h
44 31-05-2008 08:41:02 15.9 C 11.38 g/m*3 15.9 C 0 km/h
45 31-05-2008 08:53:02 15.9 C 11.38 g/m*3 15.9 C 0 km/h
46 31-05-2008 09:05:02 16.1 C 11.38 g/m*3 16.1 C 0 km/h
47 31-05-2008 09:17:03 16.1 C 11.24 g/m*3 16.1 C 0 km/h
48 31-05-2008 09:29:03 16.2 C 11.31 g/m*3 16.2 C 0 km/h
49 31-05-2008 09:41:02 16.2 C 11.17 g/m*3 16.2 C 0 km/h
50 31-05-2008 09:53:02 16.2 C 11.31 g/m*3 16.2 C 0 km/h
Sensor: Nr:Datum:Temp:Abs-Feuchte:Windchill:Wind:
Aussen-T/F 51 31-05-2008 10:05:02 16.1 C 11.1 g/m*3 16.1 C 0 km/h
52 31-05-2008 10:17:02 16.3 C 11.24 g/m*3 16.3 C 0 km/h
53 31-05-2008 10:29:02 16.4 C 11.17 g/m*3 16.4 C 0 km/h
54 31-05-2008 10:41:02 16.4 C 11.31 g/m*3 16.4 C 0 km/h
55 31-05-2008 10:53:02 16.6 C 11.16 g/m*3 16.6 C 0 km/h
56 31-05-2008 11:05:02 16.9 C 11.22 g/m*3 16.9 C 0 km/h
57 31-05-2008 11:17:01 16.8 C 11.15 g/m*3 16.8 C 0 km/h
58 31-05-2008 11:29:01 17 C 11.14 g/m*3 17 C 0 km/h
59 31-05-2008 11:41:02 17.6 C 11.25 g/m*3 17.6 C 0 km/h
60 31-05-2008 11:53:02 17.6 C 10.8 g/m*3 17.6 C 0 km/h
61 31-05-2008 12:05:02 17.9 C 10.99 g/m*3 17.9 C 0 km/h
62 31-05-2008 12:17:01 17.8 C 10.93 g/m*3 17.8 C 0 km/h
63 31-05-2008 12:29:01 17.6 C 10.95 g/m*3 17.6 C 0 km/h
64 31-05-2008 12:41:01 17.7 C 11.16 g/m*3 17.7 C 0 km/h
65 31-05-2008 12:53:01 17.9 C 10.99 g/m*3 17.9 C 0 km/h
66 31-05-2008 13:05:02 17.5 C 11.18 g/m*3 17.5 C 0 km/h
67 31-05-2008 13:17:01 17.1 C 11.5 g/m*3 17.1 C 0 km/h
68 31-05-2008 13:29:01 16.7 C 11.51 g/m*3 16.7 C 0 km/h
69 31-05-2008 13:41:01 16.6 C 11.72 g/m*3 16.6 C 0 km/h
70 31-05-2008 13:53:01 16.3 C 11.65 g/m*3 16.3 C 0 km/h
71 31-05-2008 14:05:02 16.2 C 11.86 g/m*3 16.2 C 0 km/h
72 31-05-2008 14:17:01 15.9 C 11.92 g/m*3 15.9 C 0 km/h
73 31-05-2008 14:29:02 15.7 C 11.91 g/m*3 15.7 C 0 km/h
74 31-05-2008 14:41:01 15.7 C 12.18 g/m*3 15.7 C 0 km/h
75 31-05-2008 14:53:01 15.7 C 12.18 g/m*3 15.7 C 0 km/h
Sensor: Nr:Datum:Temp:Abs-Feuchte:Windchill:Wind:
Aussen-T/F 76 31-05-2008 15:05:01 16.4 C 12.7 g/m*3 16.4 C 0 km/h
77 31-05-2008 15:17:01 17 C 13.17 g/m*3 17 C 0 km/h
78 31-05-2008 15:29:01 18.3 C 13.76 g/m*3 18.3 C 0 km/h
79 31-05-2008 15:41:02 18.7 C 13.77 g/m*3 18.7 C 0 km/h
80 31-05-2008 15:53:01 19.1 C 12.95 g/m*3 19.1 C 0 km/h
81 31-05-2008 16:05:02 19.1 C 12.62 g/m*3 19.1 C 0 km/h
82 31-05-2008 16:17:02 19.5 C 12.75 g/m*3 19.5 C 0 km/h
83 31-05-2008 16:29:03 20 C 12.79 g/m*3 20 C 0 km/h
84 31-05-2008 16:41:01 20 C 12.96 g/m*3 20 C 0 km/h
85 31-05-2008 16:53:01 20.4 C 13.09 g/m*3 20.4 C 0 km/h
86 31-05-2008 17:05:01 21 C 11.91 g/m*3 21 C 0 km/h
87 31-05-2008 17:17:02 20.7 C 11.7 g/m*3 20.7 C 0 km/h
88 31-05-2008 17:29:02 21.4 C 11.81 g/m*3 21.4 C 0 km/h
89 31-05-2008 17:41:02 21.5 C 12.07 g/m*3 21.5 C 0 km/h
90 31-05-2008 17:53:02 21.4 C 11.44 g/m*3 21.4 C 0 km/h
91 31-05-2008 18:05:02 21.5 C 11.13 g/m*3 21.5 C 0 km/h
92 31-05-2008 18:17:03 22 C 11.26 g/m*3 22 C 0 km/h
93 31-05-2008 18:29:03 22.5 C 11.78 g/m*3 22.5 C 0 km/h
94 31-05-2008 18:41:02 23.7 C 11.12 g/m*3 23.7 C 0 km/h
95 31-05-2008 18:53:02 21.9 C 11.19 g/m*3 21.9 C 0 km/h
96 31-05-2008 19:05:02 22 C 11.45 g/m*3 22 C 0 km/h
97 31-05-2008 19:17:02 22.1 C 11.52 g/m*3 22.1 C 0 km/h
98 31-05-2008 19:29:02 22.1 C 11.32 g/m*3 22.1 C 0 km/h
99 31-05-2008 19:41:02 21.5 C 11.69 g/m*3 21.5 C 0 km/h
100 31-05-2008 19:53:02 21.1 C 11.79 g/m*3 21.1 C 0 km/h
Sensor: Nr:Datum:Temp:Abs-Feuchte:Windchill:Wind:
Aussen-T/F 101 31-05-2008 20:05:02 20.9 C 12.2 g/m*3 20.9 C 0 km/h
102 31-05-2008 20:17:02 20.6 C 12.35 g/m*3 20.6 C 0 km/h
103 31-05-2008 20:29:02 20.2 C 12.41 g/m*3 20.2 C 0 km/h
104 31-05-2008 20:41:02 20.4 C 12.74 g/m*3 20.4 C 0 km/h
105 31-05-2008 20:53:01 19.9 C 12.37 g/m*3 19.9 C 0 km/h
106 31-05-2008 21:05:01 19.5 C 12.59 g/m*3 19.5 C 0 km/h
107 31-05-2008 21:17:02 19.1 C 12.46 g/m*3 19.1 C 0 km/h
108 31-05-2008 21:29:02 18.6 C 12.57 g/m*3 18.6 C 0 km/h
109 31-05-2008 21:41:01 18.2 C 12.43 g/m*3 18.2 C 0 km/h
110 31-05-2008 21:53:01 17.7 C 12.37 g/m*3 17.7 C 0 km/h
111 31-05-2008 22:05:02 17.5 C 12.37 g/m*3 17.5 C 0 km/h
112 31-05-2008 22:17:02 17.2 C 12.3 g/m*3 17.2 C 0 km/h
113 31-05-2008 22:29:02 16.9 C 12.51 g/m*3 16.9 C 0 km/h
114 31-05-2008 22:41:01 16.6 C 12.43 g/m*3 16.6 C 0 km/h
115 31-05-2008 22:54:02 16.6 C 12.43 g/m*3 16.6 C 0 km/h
116 31-05-2008 23:06:02 16.5 C 12.22 g/m*3 16.5 C 0 km/h
117 31-05-2008 23:18:02 16.2 C 11.72 g/m*3 16.2 C 0 km/h
118 31-05-2008 23:30:02 16 C 11.44 g/m*3 16 C 0 km/h
119 31-05-2008 23:42:02 15.9 C 11.51 g/m*3 15.9 C 0 km/h
120 31-05-2008 23:54:02 15.8 C 11.44 g/m*3 15.8 C 0 km/h
121 01-06-2008 00:06:02 15.6 C 11.3 g/m*3 15.6 C 0 km/h
122 01-06-2008 00:18:03 15.5 C 11.37 g/m*3 15.5 C 0 km/h
123 01-06-2008 00:30:03 15.3 C 11.1 g/m*3 15.3 C 0 km/h
124 01-06-2008 00:42:03 15 C 11.03 g/m*3 15 C 0 km/h
125 01-06-2008 00:54:03 14.8 C 11.02 g/m*3 14.8 C 0 km/h
Sensor: Nr:Datum:Temp:Abs-Feuchte:Windchill:Wind:
Aussen-T/F 126 01-06-2008 01:06:03 14.7 C 11.08 g/m*3 14.7 C 0 km/h
127 01-06-2008 01:18:03 14.6 C 11.01 g/m*3 14.6 C 0 km/h
128 01-06-2008 01:30:03 14.5 C 10.94 g/m*3 14.5 C 0 km/h
129 01-06-2008 01:42:03 14.7 C 11.21 g/m*3 14.7 C 0 km/h
130 01-06-2008 01:54:03 14.6 C 11.14 g/m*3 14.6 C 0 km/h
131 01-06-2008 02:06:03 14.6 C 11.14 g/m*3 14.6 C 0 km/h
132 01-06-2008 02:18:03 14.9 C 11.34 g/m*3 14.9 C 0 km/h
133 01-06-2008 02:30:03 15.1 C 11.35 g/m*3 15.1 C 0 km/h
134 01-06-2008 02:42:03 15.3 C 11.49 g/m*3 15.3 C 0 km/h
135 01-06-2008 02:54:03 15.4 C 11.56 g/m*3 15.4 C 0 km/h
136 01-06-2008 03:06:03 15.4 C 11.56 g/m*3 15.4 C 0 km/h
137 01-06-2008 03:18:03 15.5 C 11.5 g/m*3 15.5 C 0 km/h
138 01-06-2008 03:30:03 15.6 C 11.57 g/m*3 15.6 C 0 km/h
139 01-06-2008 03:42:03 15.5 C 11.5 g/m*3 15.5 C 0 km/h
140 01-06-2008 03:54:03 15.5 C 11.5 g/m*3 15.5 C 0 km/h
141 01-06-2008 04:06:04 15 C 11.16 g/m*3 15 C 0 km/h
142 01-06-2008 04:18:04 14.7 C 11.08 g/m*3 14.7 C 0 km/h
143 01-06-2008 04:30:04 14.6 C 11.14 g/m*3 14.6 C 0 km/h
144 01-06-2008 04:42:04 14.6 C 11.14 g/m*3 14.6 C 0 km/h
145 01-06-2008 04:54:04 14.2 C 10.87 g/m*3 14.2 C 0 km/h
146 01-06-2008 05:06:04 14.1 C 10.92 g/m*3 14.1 C 0 km/h
147 01-06-2008 05:18:04 14.7 C 11.46 g/m*3 14.7 C 0 km/h
148 01-06-2008 05:30:04 14.8 C 11.53 g/m*3 14.8 C 0 km/h
149 01-06-2008 05:42:04 14.5 C 11.32 g/m*3 14.5 C 0 km/h
150 01-06-2008 05:54:04 14.4 C 11.13 g/m*3 14.4 C 0 km/h
Sensor: Nr:Datum:Temp:Abs-Feuchte:Windchill:Wind:
Aussen-T/F 151 01-06-2008 06:06:04 14.2 C 10.99 g/m*3 14.2 C 0 km/h
152 01-06-2008 06:18:04 14.6 C 11.39 g/m*3 14.6 C 0 km/h
153 01-06-2008 06:30:04 14.8 C 11.53 g/m*3 14.8 C 0 km/h
154 01-06-2008 06:42:04 15.2 C 11.81 g/m*3 15.2 C 0 km/h
155 01-06-2008 06:54:04 15.5 C 12.03 g/m*3 15.5 C 0 km/h
156 01-06-2008 07:06:04 15.9 C 12.32 g/m*3 15.9 C 0 km/h
157 01-06-2008 07:18:04 15.9 C 11.92 g/m*3 15.9 C 0 km/h
158 01-06-2008 07:30:04 16.2 C 11.86 g/m*3 16.2 C 0 km/h
159 01-06-2008 07:42:04 16.7 C 11.94 g/m*3 16.7 C 0 km/h
160 01-06-2008 07:54:04 16.8 C 11.72 g/m*3 16.8 C 0 km/h
161 01-06-2008 08:06:05 17.1 C 11.5 g/m*3 17.1 C 0 km/h
162 01-06-2008 08:18:05 17.4 C 11.26 g/m*3 17.4 C 0 km/h
163 01-06-2008 08:30:05 17.4 C 11.12 g/m*3 17.4 C 0 km/h
164 01-06-2008 08:42:03 17.5 C 11.33 g/m*3 17.5 C 0 km/h
165 01-06-2008 08:54:03 17.9 C 10.99 g/m*3 17.9 C 0 km/h
166 01-06-2008 09:06:02 18.2 C 11.04 g/m*3 18.2 C 0 km/h
167 01-06-2008 09:18:02 18.5 C 10.76 g/m*3 18.5 C 0 km/h
168 01-06-2008 09:30:02 19 C 10.92 g/m*3 19 C 0 km/h
169 01-06-2008 09:42:03 19.2 C 10.88 g/m*3 19.2 C 0 km/h
170 01-06-2008 09:54:03 19.6 C 10.8 g/m*3 19.6 C 0 km/h
171 01-06-2008 10:06:02 20.3 C 10.55 g/m*3 20.3 C 0 km/h
172 01-06-2008 10:18:02 20.5 C 10.32 g/m*3 20.5 C 0 km/h
173 01-06-2008 10:30:02 20.8 C 10.5 g/m*3 20.8 C 0 km/h
174 01-06-2008 10:42:03 20.8 C 10.32 g/m*3 20.8 C 0 km/h
175 01-06-2008 10:54:02 21.3 C 10.81 g/m*3 21.3 C 0 km/h
Sensor: Nr:Datum:Temp:Abs-Feuchte:Windchill:Wind:
Aussen-T/F 176 01-06-2008 11:06:02 22 C 10.48 g/m*3 22 C 0 km/h
177 01-06-2008 11:18:02 22.5 C 10.59 g/m*3 22.5 C 0 km/h
178 01-06-2008 11:30:02 23.6 C 10.63 g/m*3 23.6 C 0 km/h
179 01-06-2008 11:42:02 23.6 C 10.42 g/m*3 23.6 C 0 km/h
180 01-06-2008 11:54:01 23.8 C 10.33 g/m*3 23.8 C 0 km/h
181 01-06-2008 12:06:01 25.4 C 9.89 g/m*3 25.4 C 0 km/h
182 01-06-2008 12:18:02 26 C 9.25 g/m*3 26 C 0 km/h
183 01-06-2008 12:30:02 26 C 9.25 g/m*3 26 C 0 km/h
184 01-06-2008 12:42:02 26.7 C 9.62 g/m*3 26.7 C 0 km/h
185 01-06-2008 12:54:02 26.4 C 8.96 g/m*3 26.4 C 0 km/h
186 01-06-2008 13:06:02 27.5 C 9.26 g/m*3 27.5 C 0 km/h
187 01-06-2008 13:18:02 27.2 C 8.59 g/m*3 27.2 C 0 km/h
188 01-06-2008 13:30:02 28 C 8.43 g/m*3 28 C 0 km/h
189 01-06-2008 13:42:02 27.9 C 8.65 g/m*3 27.9 C 0 km/h
190 01-06-2008 13:54:02 28.6 C 8.43 g/m*3 28.6 C 0 km/h
191 01-06-2008 14:06:02 28 C 8.7 g/m*3 28 C 0 km/h
192 01-06-2008 14:18:02 27.3 C 9.16 g/m*3 27.3 C 0 km/h
193 01-06-2008 14:30:02 28.3 C 9.4 g/m*3 28.3 C 0 km/h
194 01-06-2008 14:42:01 28.4 C 9.17 g/m*3 28.4 C 0 km/h
195 01-06-2008 14:54:01 29 C 8.9 g/m*3 29 C 0 km/h
196 01-06-2008 15:06:02 28 C 8.7 g/m*3 28 C 0 km/h
197 01-06-2008 15:18:02 29.3 C 9.63 g/m*3 29.3 C 0 km/h
198 01-06-2008 15:30:02 29.3 C 9.05 g/m*3 29.3 C 0 km/h
199 01-06-2008 15:42:02 30.1 C 9.15 g/m*3 30.1 C 0 km/h
200 01-06-2008 15:54:02 29.2 C 9.29 g/m*3 29.2 C 0 km/h
Sensor: Nr:Datum:Temp:Abs-Feuchte:Windchill:Wind:
Aussen-T/F 201 01-06-2008 16:06:02 28.9 C 9.43 g/m*3 28.9 C 0 km/h
202 01-06-2008 16:18:02 28.8 C 9.38 g/m*3 28.8 C 0 km/h
203 01-06-2008 16:30:02 29.3 C 9.05 g/m*3 29.3 C 0 km/h
204 01-06-2008 16:42:02 30.1 C 9.15 g/m*3 30.1 C 0 km/h
205 01-06-2008 16:54:02 29.6 C 9.2 g/m*3 29.6 C 0 km/h
206 01-06-2008 17:06:02 28.7 C 9.32 g/m*3 28.7 C 0 km/h
207 01-06-2008 17:18:03 28.4 C 10.01 g/m*3 28.4 C 0 km/h
208 01-06-2008 17:30:03 28.7 C 11.3 g/m*3 28.7 C 0 km/h
209 01-06-2008 17:42:03 28.6 C 10.68 g/m*3 28.6 C 0 km/h
210 01-06-2008 17:54:02 28.4 C 11.12 g/m*3 28.4 C 0 km/h
211 01-06-2008 18:06:03 28.4 C 11.4 g/m*3 28.4 C 0 km/h
212 01-06-2008 18:18:03 28 C 11.42 g/m*3 28 C 0 km/h
213 01-06-2008 18:30:03 27.6 C 10.91 g/m*3 27.6 C 0 km/h
214 01-06-2008 18:42:02 26.8 C 11.45 g/m*3 26.8 C 0 km/h
215 01-06-2008 18:54:02 26.4 C 11.7 g/m*3 26.4 C 0 km/h
216 01-06-2008 19:06:02 25.8 C 12.04 g/m*3 25.8 C 0 km/h
217 01-06-2008 19:18:02 26.4 C 11.7 g/m*3 26.4 C 0 km/h
218 01-06-2008 19:30:02 26.2 C 12.06 g/m*3 26.2 C 0 km/h
219 01-06-2008 19:42:01 25.7 C 11.73 g/m*3 25.7 C 0 km/h
220 01-06-2008 19:54:02 25.5 C 11.36 g/m*3 25.5 C 0 km/h
221 01-06-2008 20:06:02 25 C 10.82 g/m*3 25 C 0 km/h
222 01-06-2008 20:18:02 24.7 C 11.32 g/m*3 24.7 C 0 km/h
223 01-06-2008 20:30:02 24.2 C 11.22 g/m*3 24.2 C 0 km/h
224 01-06-2008 20:42:02 23.7 C 11.12 g/m*3 23.7 C 0 km/h
225 01-06-2008 20:54:02 23.5 C 11.21 g/m*3 23.5 C 0 km/h
Sensor: Nr:Datum:Temp:Abs-Feuchte:Windchill:Wind:
Aussen-T/F 226 01-06-2008 21:06:02 23.2 C 11.23 g/m*3 23.2 C 0 km/h
227 01-06-2008 21:18:01 22.9 C 11.44 g/m*3 22.9 C 0 km/h
228 01-06-2008 21:30:01 22.7 C 11.72 g/m*3 22.7 C 0 km/h
229 01-06-2008 21:42:02 22.5 C 11.98 g/m*3 22.5 C 0 km/h
230 01-06-2008 21:54:02 22.3 C 12.05 g/m*3 22.3 C 0 km/h
231 01-06-2008 22:06:01 21.9 C 12.16 g/m*3 21.9 C 0 km/h
232 01-06-2008 22:18:01 21.7 C 12.21 g/m*3 21.7 C 0 km/h
233 01-06-2008 22:30:01 21.7 C 12.21 g/m*3 21.7 C 0 km/h
234 01-06-2008 22:43:02 21.6 C 12.14 g/m*3 21.6 C 0 km/h
235 01-06-2008 22:55:02 21.5 C 12.07 g/m*3 21.5 C 0 km/h
236 01-06-2008 23:07:02 21.4 C 12.19 g/m*3 21.4 C 0 km/h
237 01-06-2008 23:19:02 21.3 C 11.93 g/m*3 21.3 C 0 km/h
238 01-06-2008 23:31:02 21.2 C 12.05 g/m*3 21.2 C 0 km/h
239 01-06-2008 23:43:02 21.2 C 12.05 g/m*3 21.2 C 0 km/h
240 01-06-2008 23:55:02 21.1 C 11.79 g/m*3 21.1 C 0 km/h
241 02-06-2008 00:07:02 20.9 C 11.66 g/m*3 20.9 C 0 km/h
242 02-06-2008 00:19:02 20.8 C 11.77 g/m*3 20.8 C 0 km/h
243 02-06-2008 00:31:02 20.6 C 11.63 g/m*3 20.6 C 0 km/h
244 02-06-2008 00:43:02 20.6 C 11.81 g/m*3 20.6 C 0 km/h
245 02-06-2008 00:55:02 20.5 C 11.74 g/m*3 20.5 C 0 km/h
246 02-06-2008 01:07:02 20.4 C 11.85 g/m*3 20.4 C 0 km/h
247 02-06-2008 01:19:02 20.2 C 11.89 g/m*3 20.2 C 0 km/h
248 02-06-2008 01:31:02 20.1 C 11.99 g/m*3 20.1 C 0 km/h
249 02-06-2008 01:43:02 19.9 C 12.37 g/m*3 19.9 C 0 km/h
250 02-06-2008 01:55:03 19.8 C 12.3 g/m*3 19.8 C 0 km/h
Sensor: Nr:Datum:Temp:Abs-Feuchte:Windchill:Wind:
Aussen-T/F 251 02-06-2008 02:07:03 19.7 C 12.23 g/m*3 19.7 C 0 km/h
252 02-06-2008 02:19:03 19.6 C 12.15 g/m*3 19.6 C 0 km/h
253 02-06-2008 02:31:03 19.7 C 12.4 g/m*3 19.7 C 0 km/h
254 02-06-2008 02:43:03 19.5 C 12.25 g/m*3 19.5 C 0 km/h
255 02-06-2008 02:55:03 19.4 C 12.35 g/m*3 19.4 C 0 km/h
256 02-06-2008 03:07:03 19.2 C 12.2 g/m*3 19.2 C 0 km/h
257 02-06-2008 03:19:03 19.1 C 12.13 g/m*3 19.1 C 0 km/h
258 02-06-2008 03:31:03 19.1 C 12.13 g/m*3 19.1 C 0 km/h
259 02-06-2008 03:43:03 18.9 C 12.15 g/m*3 18.9 C 0 km/h
260 02-06-2008 03:55:03 18.6 C 12.1 g/m*3 18.6 C 0 km/h
261 02-06-2008 04:07:03 18.3 C 11.88 g/m*3 18.3 C 0 km/h
262 02-06-2008 04:19:03 18.1 C 12.05 g/m*3 18.1 C 0 km/h
263 02-06-2008 04:31:03 18 C 12.13 g/m*3 18 C 0 km/h
264 02-06-2008 04:43:03 17.8 C 12.14 g/m*3 17.8 C 0 km/h
265 02-06-2008 04:55:03 17.7 C 12.22 g/m*3 17.7 C 0 km/h
266 02-06-2008 05:07:03 17.6 C 12.15 g/m*3 17.6 C 0 km/h
267 02-06-2008 05:19:03 17.5 C 12.23 g/m*3 17.5 C 0 km/h
268 02-06-2008 05:31:03 17.5 C 12.37 g/m*3 17.5 C 0 km/h
269 02-06-2008 05:43:04 17.4 C 12.3 g/m*3 17.4 C 0 km/h
270 02-06-2008 05:55:04 17.4 C 12.3 g/m*3 17.4 C 0 km/h
271 02-06-2008 06:07:04 17.4 C 12.3 g/m*3 17.4 C 0 km/h
272 02-06-2008 06:19:04 17.5 C 12.37 g/m*3 17.5 C 0 km/h
273 02-06-2008 06:31:04 17.6 C 12.45 g/m*3 17.6 C 0 km/h
274 02-06-2008 06:43:04 17.7 C 12.52 g/m*3 17.7 C 0 km/h
275 02-06-2008 06:55:04 17.7 C 12.37 g/m*3 17.7 C 0 km/h
Sensor: Nr:Datum:Temp:Abs-Feuchte:Windchill:Wind:
Aussen-T/F 276 02-06-2008 07:07:02 17.6 C 12.3 g/m*3 17.6 C 0 km/h
277 02-06-2008 07:19:01 17.7 C 12.37 g/m*3 17.7 C 0 km/h
278 02-06-2008 07:31:02 18 C 12.44 g/m*3 18 C 0 km/h
279 02-06-2008 07:43:02 18.3 C 12.66 g/m*3 18.3 C 0 km/h
280 02-06-2008 07:55:02 18.6 C 12.89 g/m*3 18.6 C 0 km/h
281 02-06-2008 08:07:02 18.9 C 12.96 g/m*3 18.9 C 0 km/h
282 02-06-2008 08:19:01 19.3 C 12.77 g/m*3 19.3 C 0 km/h
283 02-06-2008 08:31:02 19.6 C 12.83 g/m*3 19.6 C 0 km/h
284 02-06-2008 08:43:02 19.8 C 12.81 g/m*3 19.8 C 0 km/h
285 02-06-2008 08:55:02 20.3 C 12.84 g/m*3 20.3 C 0 km/h
286 02-06-2008 09:07:02 20.8 C 13.04 g/m*3 20.8 C 0 km/h
287 02-06-2008 09:19:02 21.3 C 12.86 g/m*3 21.3 C 0 km/h
288 02-06-2008 09:31:02 22 C 13 g/m*3 22 C 0 km/h
289 02-06-2008 09:43:02 22.3 C 12.83 g/m*3 22.3 C 0 km/h
290 02-06-2008 09:55:01 22.8 C 12.8 g/m*3 22.8 C 0 km/h
291 02-06-2008 10:07:02 23.4 C 11.78 g/m*3 23.4 C 0 km/h
292 02-06-2008 10:19:02 24 C 12.18 g/m*3 24 C 0 km/h
293 02-06-2008 10:31:01 24.5 C 11.64 g/m*3 24.5 C 0 km/h
294 02-06-2008 10:43:01 24.5 C 11.19 g/m*3 24.5 C 0 km/h
295 02-06-2008 10:55:01 25.4 C 11.06 g/m*3 25.4 C 0 km/h
296 02-06-2008 11:07:02 26.1 C 11.02 g/m*3 26.1 C 0 km/h
297 02-06-2008 11:19:01 26.3 C 10.89 g/m*3 26.3 C 0 km/h
298 02-06-2008 11:31:01 26.8 C 11.2 g/m*3 26.8 C 0 km/h
299 02-06-2008 11:43:01 27.7 C 10.97 g/m*3 27.7 C 0 km/h
300 02-06-2008 11:55:01 28.8 C 11.36 g/m*3 28.8 C 0 km/h
Sensor: Nr:Datum:Temp:Abs-Feuchte:Windchill:Wind:
Aussen-T/F 301 02-06-2008 12:07:02 29.3 C 10.8 g/m*3 29.3 C 0 km/h
302 02-06-2008 12:19:01 30 C 10.92 g/m*3 30 C 0 km/h
303 02-06-2008 12:31:02 30.4 C 10.85 g/m*3 30.4 C 0 km/h
304 02-06-2008 12:43:02 30.9 C 10.5 g/m*3 30.9 C 0 km/h
305 02-06-2008 12:55:03 31.5 C 9.53 g/m*3 31.5 C 0 km/h
306 02-06-2008 13:07:02 31.4 C 9.81 g/m*3 31.4 C 0 km/h
307 02-06-2008 13:19:02 31.5 C 9.86 g/m*3 31.5 C 0 km/h
308 02-06-2008 13:31:03 31.8 C 9.35 g/m*3 31.8 C 0 km/h
309 02-06-2008 13:43:03 32.4 C 8.62 g/m*3 32.4 C 0 km/h
310 02-06-2008 13:55:02 32.5 C 8.32 g/m*3 32.5 C 0 km/h
311 02-06-2008 14:07:02 32.2 C 8.87 g/m*3 32.2 C 0 km/h
312 02-06-2008 14:19:02 31.9 C 8.73 g/m*3 31.9 C 0 km/h
313 02-06-2008 14:31:02 31.6 C 9.58 g/m*3 31.6 C 0 km/h
314 02-06-2008 14:43:02 32.1 C 8.15 g/m*3 32.1 C 0 km/h
315 02-06-2008 14:55:02 32.4 C 7.93 g/m*3 32.4 C 0 km/h
316 02-06-2008 15:07:02 32.5 C 8.32 g/m*3 32.5 C 0 km/h
317 02-06-2008 15:19:02 32.3 C 8.23 g/m*3 32.3 C 0 km/h
318 02-06-2008 15:31:01 32.2 C 8.53 g/m*3 32.2 C 0 km/h
319 02-06-2008 15:43:01 32.7 C 7.71 g/m*3 32.7 C 0 km/h
320 02-06-2008 15:55:01 32.5 C 7.63 g/m*3 32.5 C 0 km/h
321 02-06-2008 16:07:02 32.1 C 7.81 g/m*3 32.1 C 0 km/h
322 02-06-2008 16:19:02 31.2 C 9.7 g/m*3 31.2 C 0 km/h
323 02-06-2008 16:31:01 30.4 C 10.85 g/m*3 30.4 C 0 km/h
324 02-06-2008 16:43:01 29.9 C 11.16 g/m*3 29.9 C 0 km/h
325 02-06-2008 16:55:02 29 C 11.78 g/m*3 29 C 0 km/h
Sensor: Nr:Datum:Temp:Abs-Feuchte:Windchill:Wind:
Aussen-T/F 326 02-06-2008 17:07:02 28.7 C 11.87 g/m*3 28.7 C 0 km/h
327 02-06-2008 17:19:02 28.7 C 12.43 g/m*3 28.7 C 0 km/h
328 02-06-2008 17:31:01 28.4 C 12.23 g/m*3 28.4 C 0 km/h
329 02-06-2008 17:43:01 28.7 C 12.72 g/m*3 28.7 C 0 km/h
330 02-06-2008 17:55:02 28.7 C 12.43 g/m*3 28.7 C 0 km/h
331 02-06-2008 18:07:02 28.6 C 12.65 g/m*3 28.6 C 0 km/h
332 02-06-2008 18:19:02 28.3 C 12.44 g/m*3 28.3 C 0 km/h
333 02-06-2008 18:31:02 28 C 11.97 g/m*3 28 C 0 km/h
334 02-06-2008 18:43:02 28 C 11.15 g/m*3 28 C 0 km/h
335 02-06-2008 18:55:02 27.7 C 11.23 g/m*3 27.7 C 0 km/h
336 02-06-2008 19:07:02 27.1 C 11.13 g/m*3 27.1 C 0 km/h
337 02-06-2008 19:19:02 26.5 C 11.01 g/m*3 26.5 C 0 km/h
338 02-06-2008 19:31:02 26.3 C 11.14 g/m*3 26.3 C 0 km/h
339 02-06-2008 19:43:02 25.9 C 11.86 g/m*3 25.9 C 0 km/h
340 02-06-2008 19:55:02 23.7 C 13.48 g/m*3 23.7 C 0 km/h
341 02-06-2008 20:07:03 22.7 C 14.55 g/m*3 22.7 C 0 km/h
342 02-06-2008 20:19:02 22.1 C 14.84 g/m*3 22.1 C 0 km/h
343 02-06-2008 20:31:02 21.7 C 14.31 g/m*3 21.7 C 0 km/h
344 02-06-2008 20:43:02 21.3 C 14.73 g/m*3 21.3 C 0 km/h
345 02-06-2008 20:55:02 21.5 C 14.52 g/m*3 21.5 C 0 km/h
346 02-06-2008 21:07:03 21.7 C 14.12 g/m*3 21.7 C 0 km/h
347 02-06-2008 21:19:03 21.5 C 13.77 g/m*3 21.5 C 0 km/h
348 02-06-2008 21:31:03 21.5 C 13.95 g/m*3 21.5 C 0 km/h
349 02-06-2008 21:43:03 21.4 C 14.06 g/m*3 21.4 C 0 km/h
350 02-06-2008 21:55:02 21.1 C 14.19 g/m*3 21.1 C 0 km/h
Sensor: Nr:Datum:Temp:Abs-Feuchte:Windchill:Wind:
Aussen-T/F 351 02-06-2008 22:07:02 21.2 C 14.08 g/m*3 21.2 C 0 km/h
352 02-06-2008 22:20:02 21.2 C 13.9 g/m*3 21.2 C 0 km/h
353 02-06-2008 22:32:02 21.3 C 13.79 g/m*3 21.3 C 0 km/h
354 02-06-2008 22:44:02 21.4 C 13.5 g/m*3 21.4 C 0 km/h
355 02-06-2008 22:56:02 21.4 C 13.31 g/m*3 21.4 C 0 km/h
356 02-06-2008 23:08:02 21 C 13.37 g/m*3 21 C 0 km/h
357 02-06-2008 23:20:02 20.4 C 13.8 g/m*3 20.4 C 0 km/h
358 02-06-2008 23:32:02 19.8 C 14.01 g/m*3 19.8 C 0 km/h
359 02-06-2008 23:44:02 19.7 C 14.09 g/m*3 19.7 C 0 km/h
360 02-06-2008 23:56:02 19.7 C 14.09 g/m*3 19.7 C 0 km/h
361 03-06-2008 00:08:02 19.7 C 13.75 g/m*3 19.7 C 0 km/h
362 03-06-2008 00:20:02 19.3 C 13.44 g/m*3 19.3 C 0 km/h
363 03-06-2008 00:32:02 18.9 C 13.77 g/m*3 18.9 C 0 km/h
364 03-06-2008 00:44:03 18.3 C 13.45 g/m*3 18.3 C 0 km/h
365 03-06-2008 00:56:03 18.4 C 13.84 g/m*3 18.4 C 0 km/h
366 03-06-2008 01:08:03 18.2 C 13.83 g/m*3 18.2 C 0 km/h
367 03-06-2008 01:20:03 18.1 C 13.75 g/m*3 18.1 C 0 km/h
368 03-06-2008 01:32:03 18 C 13.67 g/m*3 18 C 0 km/h
369 03-06-2008 01:44:03 18 C 13.82 g/m*3 18 C 0 km/h
370 03-06-2008 01:56:03 17.9 C 14.05 g/m*3 17.9 C 0 km/h
371 03-06-2008 02:08:03 17.9 C 14.05 g/m*3 17.9 C 0 km/h
372 03-06-2008 02:20:03 18 C 14.13 g/m*3 18 C 0 km/h
373 03-06-2008 02:32:03 18 C 14.13 g/m*3 18 C 0 km/h
374 03-06-2008 02:44:03 17.9 C 14.2 g/m*3 17.9 C 0 km/h
375 03-06-2008 02:56:03 17.8 C 14.27 g/m*3 17.8 C 0 km/h
Sensor: Nr:Datum:Temp:Abs-Feuchte:Windchill:Wind:
Aussen-T/F 376 03-06-2008 03:08:03 17.7 C 14.18 g/m*3 17.7 C 0 km/h
377 03-06-2008 03:20:03 17.4 C 13.93 g/m*3 17.4 C 0 km/h
378 03-06-2008 03:32:03 17.2 C 13.77 g/m*3 17.2 C 0 km/h
379 03-06-2008 03:44:03 17 C 13.6 g/m*3 17 C 0 km/h
380 03-06-2008 03:56:03 16.9 C 13.52 g/m*3 16.9 C 0 km/h
381 03-06-2008 04:08:03 16.8 C 13.3 g/m*3 16.8 C 0 km/h
382 03-06-2008 04:20:03 16.6 C 13.14 g/m*3 16.6 C 0 km/h
383 03-06-2008 04:32:04 16.6 C 13 g/m*3 16.6 C 0 km/h
384 03-06-2008 04:44:04 16.7 C 13.07 g/m*3 16.7 C 0 km/h
385 03-06-2008 04:56:04 16.8 C 13.01 g/m*3 16.8 C 0 km/h
386 03-06-2008 05:08:04 16.8 C 12.87 g/m*3 16.8 C 0 km/h
387 03-06-2008 05:20:04 16.8 C 12.72 g/m*3 16.8 C 0 km/h
388 03-06-2008 05:32:04 16.8 C 12.58 g/m*3 16.8 C 0 km/h
389 03-06-2008 05:44:04 16.8 C 12.58 g/m*3 16.8 C 0 km/h
390 03-06-2008 05:56:04 16.8 C 12.58 g/m*3 16.8 C 0 km/h
391 03-06-2008 06:08:04 16.8 C 12.72 g/m*3 16.8 C 0 km/h
392 03-06-2008 06:20:04 16.9 C 12.94 g/m*3 16.9 C 0 km/h
393 03-06-2008 06:32:04 16.9 C 12.8 g/m*3 16.9 C 0 km/h
394 03-06-2008 06:44:04 17 C 12.59 g/m*3 17 C 0 km/h
395 03-06-2008 06:56:04 17 C 12.44 g/m*3 17 C 0 km/h
396 03-06-2008 07:08:03 17.1 C 12.37 g/m*3 17.1 C 0 km/h
397 03-06-2008 07:20:03 17.9 C 12.98 g/m*3 17.9 C 0 km/h
398 03-06-2008 07:32:03 17.6 C 12.9 g/m*3 17.6 C 0 km/h
399 03-06-2008 07:44:03 17.5 C 12.67 g/m*3 17.5 C 0 km/h
400 03-06-2008 07:56:02 17.8 C 12.6 g/m*3 17.8 C 0 km/h
Sensor: Nr:Datum:Temp:Abs-Feuchte:Windchill:Wind:
Aussen-T/F 401 03-06-2008 08:08:01 18 C 12.13 g/m*3 18 C 0 km/h
402 03-06-2008 08:20:02 18.1 C 12.21 g/m*3 18.1 C 0 km/h
403 03-06-2008 08:32:02 18.2 C 12.12 g/m*3 18.2 C 0 km/h
404 03-06-2008 08:44:02 18.2 C 11.5 g/m*3 18.2 C 0 km/h
405 03-06-2008 08:56:02 18.6 C 11.46 g/m*3 18.6 C 0 km/h
406 03-06-2008 09:08:02 18.6 C 11.14 g/m*3 18.6 C 0 km/h
407 03-06-2008 09:20:01 18.7 C 11.37 g/m*3 18.7 C 0 km/h
408 03-06-2008 09:32:02 18.5 C 11.39 g/m*3 18.5 C 0 km/h
409 03-06-2008 09:44:02 18.6 C 11.14 g/m*3 18.6 C 0 km/h
410 03-06-2008 09:56:01 19.2 C 11.05 g/m*3 19.2 C 0 km/h
411 03-06-2008 10:08:02 19.6 C 10.97 g/m*3 19.6 C 0 km/h
412 03-06-2008 10:20:01 20.3 C 10.73 g/m*3 20.3 C 0 km/h
413 03-06-2008 10:32:01 20.8 C 10.32 g/m*3 20.8 C 0 km/h
414 03-06-2008 10:44:01 20.5 C 9.96 g/m*3 20.5 C 0 km/h
415 03-06-2008 10:56:02 20.9 C 10.02 g/m*3 20.9 C 0 km/h
416 03-06-2008 11:08:03 21 C 9.53 g/m*3 21 C 0 km/h
417 03-06-2008 11:20:02 21.6 C 9.67 g/m*3 21.6 C 0 km/h
418 03-06-2008 11:32:02 21.7 C 9.73 g/m*3 21.7 C 0 km/h
419 03-06-2008 11:44:02 22.2 C 9.42 g/m*3 22.2 C 0 km/h
420 03-06-2008 11:56:01 21.8 C 9.98 g/m*3 21.8 C 0 km/h
421 03-06-2008 12:08:02 22.1 C 9.37 g/m*3 22.1 C 0 km/h
422 03-06-2008 12:20:01 22.5 C 9.39 g/m*3 22.5 C 0 km/h
423 03-06-2008 12:32:01 23.2 C 9.15 g/m*3 23.2 C 0 km/h
424 03-06-2008 12:44:01 23.8 C 8.82 g/m*3 23.8 C 0 km/h
425 03-06-2008 12:56:01 23.5 C 8.88 g/m*3 23.5 C 0 km/h
Sensor: Nr:Datum:Temp:Abs-Feuchte:Windchill:Wind:
Aussen-T/F 426 03-06-2008 13:08:01 24.2 C 9.02 g/m*3 24.2 C 0 km/h
427 03-06-2008 13:20:02 24.1 C 8.75 g/m*3 24.1 C 0 km/h
428 03-06-2008 13:32:01 24 C 8.7 g/m*3 24 C 0 km/h
429 03-06-2008 13:44:01 24.1 C 8.31 g/m*3 24.1 C 0 km/h
430 03-06-2008 13:56:02 25.1 C 8.57 g/m*3 25.1 C 0 km/h
431 03-06-2008 14:08:02 24.5 C 8.95 g/m*3 24.5 C 0 km/h
432 03-06-2008 14:20:01 24.4 C 8.9 g/m*3 24.4 C 0 km/h
433 03-06-2008 14:32:02 25 C 8.52 g/m*3 25 C 0 km/h
434 03-06-2008 14:44:02 25.8 C 8.19 g/m*3 25.8 C 0 km/h
435 03-06-2008 14:56:02 25.9 C 7.99 g/m*3 25.9 C 0 km/h
436 03-06-2008 15:08:01 25.9 C 7.99 g/m*3 25.9 C 0 km/h
437 03-06-2008 15:20:01 26.6 C 7.8 g/m*3 26.6 C 0 km/h
438 03-06-2008 15:32:02 26.5 C 7.76 g/m*3 26.5 C 0 km/h
439 03-06-2008 15:44:02 26.6 C 7.8 g/m*3 26.6 C 0 km/h
440 03-06-2008 15:56:02 26.1 C 7.83 g/m*3 26.1 C 0 km/h
441 03-06-2008 16:08:02 26.7 C 7.85 g/m*3 26.7 C 0 km/h
442 03-06-2008 16:20:02 26.8 C 7.38 g/m*3 26.8 C 0 km/h
443 03-06-2008 16:32:02 26.8 C 7.38 g/m*3 26.8 C 0 km/h
444 03-06-2008 16:44:02 27.5 C 7.14 g/m*3 27.5 C 0 km/h
445 03-06-2008 16:56:01 27.6 C 6.92 g/m*3 27.6 C 0 km/h
446 03-06-2008 17:08:02 26.9 C 6.91 g/m*3 26.9 C 0 km/h
447 03-06-2008 17:20:01 27.2 C 6.77 g/m*3 27.2 C 0 km/h
448 03-06-2008 17:32:01 26.8 C 7.13 g/m*3 26.8 C 0 km/h
449 03-06-2008 17:44:01 27.2 C 6.77 g/m*3 27.2 C 0 km/h
450 03-06-2008 17:56:01 27 C 6.69 g/m*3 27 C 0 km/h
Sensor: Nr:Datum:Temp:Abs-Feuchte:Windchill:Wind:
Aussen-T/F 451 03-06-2008 18:08:02 26.6 C 6.54 g/m*3 26.6 C 0 km/h
452 03-06-2008 18:20:02 26.4 C 7.47 g/m*3 26.4 C 0 km/h
453 03-06-2008 18:32:01 26.1 C 7.34 g/m*3 26.1 C 0 km/h
454 03-06-2008 18:44:01 26.6 C 7.3 g/m*3 26.6 C 0 km/h
455 03-06-2008 18:56:01 27 C 7.21 g/m*3 27 C 0 km/h
456 03-06-2008 19:08:01 27.6 C 7.18 g/m*3 27.6 C 0 km/h
457 03-06-2008 19:20:02 26.6 C 7.3 g/m*3 26.6 C 0 km/h
458 03-06-2008 19:32:02 26.4 C 7.72 g/m*3 26.4 C 0 km/h
459 03-06-2008 19:44:02 25.8 C 7.7 g/m*3 25.8 C 0 km/h
460 03-06-2008 19:56:02 25.2 C 7.45 g/m*3 25.2 C 0 km/h
461 03-06-2008 20:08:02 25.2 C 7.45 g/m*3 25.2 C 0 km/h
462 03-06-2008 20:20:01 25.1 C 8.1 g/m*3 25.1 C 0 km/h
463 03-06-2008 20:32:02 24.6 C 8.33 g/m*3 24.6 C 0 km/h
464 03-06-2008 20:44:02 23.8 C 8.39 g/m*3 23.8 C 0 km/h
465 03-06-2008 20:56:02 23.1 C 8.27 g/m*3 23.1 C 0 km/h
466 03-06-2008 21:08:01 22.8 C 8.74 g/m*3 22.8 C 0 km/h
467 03-06-2008 21:20:02 22.4 C 8.94 g/m*3 22.4 C 0 km/h
468 03-06-2008 21:32:01 22 C 8.93 g/m*3 22 C 0 km/h
469 03-06-2008 21:44:01 21.6 C 9.1 g/m*3 21.6 C 0 km/h
470 03-06-2008 21:56:02 21.3 C 9.13 g/m*3 21.3 C 0 km/h
471 03-06-2008 22:08:02 21 C 9.16 g/m*3 21 C 0 km/h
472 03-06-2008 22:20:02 20.7 C 9.36 g/m*3 20.7 C 0 km/h
473 03-06-2008 22:33:02 20.3 C 9.32 g/m*3 20.3 C 0 km/h
474 03-06-2008 22:45:02 20.1 C 9.39 g/m*3 20.1 C 0 km/h
475 03-06-2008 22:57:03 19.7 C 9.34 g/m*3 19.7 C 0 km/h
Sensor: Nr:Datum:Temp:Abs-Feuchte:Windchill:Wind:
Aussen-T/F 476 03-06-2008 23:09:03 19.7 C 9.34 g/m*3 19.7 C 0 km/h
477 03-06-2008 23:21:03 19.2 C 9.56 g/m*3 19.2 C 0 km/h
478 03-06-2008 23:33:03 19.2 C 9.56 g/m*3 19.2 C 0 km/h
479 03-06-2008 23:45:03 19.2 C 9.56 g/m*3 19.2 C 0 km/h
480 03-06-2008 23:57:03 18.5 C 9.81 g/m*3 18.5 C 0 km/h
481 04-06-2008 00:09:03 18.5 C 9.81 g/m*3 18.5 C 0 km/h
482 04-06-2008 00:21:03 18.5 C 9.81 g/m*3 18.5 C 0 km/h
483 04-06-2008 00:33:03 18.5 C 9.81 g/m*3 18.5 C 0 km/h
484 04-06-2008 00:45:03 18.5 C 9.81 g/m*3 18.5 C 0 km/h
485 04-06-2008 00:57:03 18.5 C 9.81 g/m*3 18.5 C 0 km/h
486 04-06-2008 01:09:03 18.5 C 9.81 g/m*3 18.5 C 0 km/h
487 04-06-2008 01:21:03 18.5 C 9.81 g/m*3 18.5 C 0 km/h
488 04-06-2008 01:33:03 17 C 10.27 g/m*3 17 C 0 km/h
489 04-06-2008 01:45:03 17 C 10.27 g/m*3 17 C 0 km/h
490 04-06-2008 01:57:03 16.3 C 10.41 g/m*3 16.3 C 0 km/h
491 04-06-2008 02:09:03 16.2 C 10.48 g/m*3 16.2 C 0 km/h
492 04-06-2008 02:21:03 15.9 C 10.56 g/m*3 15.9 C 0 km/h
493 04-06-2008 02:33:03 15.8 C 10.5 g/m*3 15.8 C 0 km/h
494 04-06-2008 02:45:03 15.9 C 10.56 g/m*3 15.9 C 0 km/h
495 04-06-2008 02:57:04 15.6 C 10.37 g/m*3 15.6 C 0 km/h
496 04-06-2008 03:09:04 15.7 C 10.44 g/m*3 15.7 C 0 km/h
497 04-06-2008 03:21:04 15.5 C 10.44 g/m*3 15.5 C 0 km/h
498 04-06-2008 03:33:04 15.3 C 10.45 g/m*3 15.3 C 0 km/h
499 04-06-2008 03:45:04 15.4 C 10.38 g/m*3 15.4 C 0 km/h
500 04-06-2008 03:57:04 15.4 C 10.38 g/m*3 15.4 C 0 km/h
Sensor: Nr:Datum:Temp:Abs-Feuchte:Windchill:Wind:
Aussen-T/F 501 04-06-2008 04:09:04 15.4 C 10.51 g/m*3 15.4 C 0 km/h
502 04-06-2008 04:21:04 15.2 C 10.38 g/m*3 15.2 C 0 km/h
503 04-06-2008 04:33:04 15.2 C 10.38 g/m*3 15.2 C 0 km/h
504 04-06-2008 04:45:04 15.2 C 10.51 g/m*3 15.2 C 0 km/h
505 04-06-2008 04:57:04 15.1 C 10.45 g/m*3 15.1 C 0 km/h
506 04-06-2008 05:09:04 14.9 C 10.45 g/m*3 14.9 C 0 km/h
507 04-06-2008 05:21:04 14.7 C 10.45 g/m*3 14.7 C 0 km/h
508 04-06-2008 05:33:04 14.7 C 10.45 g/m*3 14.7 C 0 km/h
509 04-06-2008 05:45:04 14.7 C 10.58 g/m*3 14.7 C 0 km/h
510 04-06-2008 05:57:04 14.7 C 10.58 g/m*3 14.7 C 0 km/h
511 04-06-2008 06:09:04 14.7 C 10.58 g/m*3 14.7 C 0 km/h
512 04-06-2008 06:21:04 14.7 C 10.58 g/m*3 14.7 C 0 km/h
513 04-06-2008 06:33:04 14.7 C 10.58 g/m*3 14.7 C 0 km/h
514 04-06-2008 06:45:05 14.8 C 10.64 g/m*3 14.8 C 0 km/h
515 04-06-2008 06:57:05 14.9 C 10.71 g/m*3 14.9 C 0 km/h
516 04-06-2008 07:09:05 15.1 C 10.71 g/m*3 15.1 C 0 km/h
517 04-06-2008 07:21:05 15.1 C 10.71 g/m*3 15.1 C 0 km/h
518 04-06-2008 07:33:02 15.4 C 10.9 g/m*3 15.4 C 0 km/h
519 04-06-2008 07:45:02 15.7 C 10.97 g/m*3 15.7 C 0 km/h
520 04-06-2008 07:57:02 16 C 10.9 g/m*3 16 C 0 km/h
521 04-06-2008 08:09:01 16.2 C 10.89 g/m*3 16.2 C 0 km/h
522 04-06-2008 08:21:02 16.5 C 11.09 g/m*3 16.5 C 0 km/h
523 04-06-2008 08:33:02 17.1 C 11.06 g/m*3 17.1 C 0 km/h
524 04-06-2008 08:45:02 17.6 C 11.25 g/m*3 17.6 C 0 km/h
525 04-06-2008 08:57:02 17.9 C 10.99 g/m*3 17.9 C 0 km/h
Sensor: Nr:Datum:Temp:Abs-Feuchte:Windchill:Wind:
Aussen-T/F 526 04-06-2008 09:09:01 18.5 C 10.92 g/m*3 18.5 C 0 km/h
527 04-06-2008 09:21:01 19 C 10.92 g/m*3 19 C 0 km/h
528 04-06-2008 09:33:01 19.2 C 10.55 g/m*3 19.2 C 0 km/h
529 04-06-2008 09:45:02 19.8 C 10.76 g/m*3 19.8 C 0 km/h
530 04-06-2008 09:57:02 20.1 C 10.78 g/m*3 20.1 C 0 km/h
531 04-06-2008 10:09:02 20.7 C 10.62 g/m*3 20.7 C 0 km/h
532 04-06-2008 10:21:02 20.9 C 10.56 g/m*3 20.9 C 0 km/h
533 04-06-2008 10:33:02 21.1 C 10.32 g/m*3 21.1 C 0 km/h
534 04-06-2008 10:45:01 21.5 C 10.37 g/m*3 21.5 C 0 km/h
535 04-06-2008 10:57:01 22.2 C 10.21 g/m*3 22.2 C 0 km/h
536 04-06-2008 11:09:01 22.2 C 10.21 g/m*3 22.2 C 0 km/h
537 04-06-2008 11:21:01 21.8 C 10.36 g/m*3 21.8 C 0 km/h
538 04-06-2008 11:33:01 22.9 C 10.22 g/m*3 22.9 C 0 km/h
539 04-06-2008 11:45:01 23 C 10.07 g/m*3 23 C 0 km/h
540 04-06-2008 11:57:01 23.9 C 10.17 g/m*3 23.9 C 0 km/h
541 04-06-2008 12:09:01 23.7 C 9.63 g/m*3 23.7 C 0 km/h
542 04-06-2008 12:21:02 24.9 C 9.61 g/m*3 24.9 C 0 km/h
543 04-06-2008 12:33:01 24.5 C 9.4 g/m*3 24.5 C 0 km/h
544 04-06-2008 12:45:02 24.6 C 9 g/m*3 24.6 C 0 km/h
545 04-06-2008 12:57:02 24.3 C 9.07 g/m*3 24.3 C 0 km/h
546 04-06-2008 13:09:02 25.2 C 8.85 g/m*3 25.2 C 0 km/h
547 04-06-2008 13:21:02 24.2 C 8.8 g/m*3 24.2 C 0 km/h
548 04-06-2008 13:33:02 26.3 C 8.66 g/m*3 26.3 C 0 km/h
549 04-06-2008 13:45:02 26.6 C 8.81 g/m*3 26.6 C 0 km/h
550 04-06-2008 13:57:03 24.7 C 9.51 g/m*3 24.7 C 0 km/h
Sensor: Nr:Datum:Temp:Abs-Feuchte:Windchill:Wind:
Aussen-T/F 551 04-06-2008 14:09:02 24.3 C 9.52 g/m*3 24.3 C 0 km/h
552 04-06-2008 14:21:02 23.9 C 9.74 g/m*3 23.9 C 0 km/h
553 04-06-2008 14:33:03 24 C 9.79 g/m*3 24 C 0 km/h
554 04-06-2008 14:45:02 23.7 C 9.84 g/m*3 23.7 C 0 km/h
555 04-06-2008 14:57:02 23.4 C 9.88 g/m*3 23.4 C 0 km/h
556 04-06-2008 15:09:02 24.1 C 10.06 g/m*3 24.1 C 0 km/h
557 04-06-2008 15:21:02 23.6 C 10.21 g/m*3 23.6 C 0 km/h
558 04-06-2008 15:33:02 23.3 C 10.87 g/m*3 23.3 C 0 km/h
559 04-06-2008 15:45:02 23.3 C 11.08 g/m*3 23.3 C 0 km/h
560 04-06-2008 15:57:02 23.9 C 10.38 g/m*3 23.9 C 0 km/h
561 04-06-2008 16:09:02 23.5 C 10.79 g/m*3 23.5 C 0 km/h
562 04-06-2008 16:21:02 23.7 C 10.27 g/m*3 23.7 C 0 km/h
563 04-06-2008 16:33:02 24.5 C 10.07 g/m*3 24.5 C 0 km/h
564 04-06-2008 16:45:02 25.7 C 9.82 g/m*3 25.7 C 0 km/h
565 04-06-2008 16:57:02 25.2 C 10.24 g/m*3 25.2 C 0 km/h
566 04-06-2008 17:09:02 25.3 C 10.07 g/m*3 25.3 C 0 km/h
567 04-06-2008 17:21:01 25.9 C 9.93 g/m*3 25.9 C 0 km/h
568 04-06-2008 17:33:01 23.4 C 9.67 g/m*3 23.4 C 0 km/h
569 04-06-2008 17:45:01 22.4 C 10.13 g/m*3 22.4 C 0 km/h
570 04-06-2008 17:57:01 19.7 C 12.74 g/m*3 19.7 C 0 km/h
571 04-06-2008 18:09:01 18.8 C 12.88 g/m*3 18.8 C 0 km/h
572 04-06-2008 18:21:02 18.9 C 13.45 g/m*3 18.9 C 0 km/h
573 04-06-2008 18:33:02 18.9 C 13.45 g/m*3 18.9 C 0 km/h
574 04-06-2008 18:45:02 18.9 C 13.45 g/m*3 18.9 C 0 km/h
575 04-06-2008 18:57:02 18.9 C 13.45 g/m*3 18.9 C 0 km/h
Sensor: Nr:Datum:Temp:Abs-Feuchte:Windchill:Wind:
Aussen-T/F 576 04-06-2008 19:09:02 17.6 C 13.35 g/m*3 17.6 C 0 km/h
577 04-06-2008 19:21:02 17.6 C 13.5 g/m*3 17.6 C 0 km/h
578 04-06-2008 19:33:01 17.5 C 13.42 g/m*3 17.5 C 0 km/h
579 04-06-2008 19:45:02 17.5 C 13.57 g/m*3 17.5 C 0 km/h
580 04-06-2008 19:57:02 17.6 C 13.8 g/m*3 17.6 C 0 km/h
581 04-06-2008 20:09:01 17.9 C 14.05 g/m*3 17.9 C 0 km/h
582 04-06-2008 20:21:02 17.9 C 14.05 g/m*3 17.9 C 0 km/h
583 04-06-2008 20:33:02 18.1 C 14.06 g/m*3 18.1 C 0 km/h
584 04-06-2008 20:45:02 18.2 C 14.3 g/m*3 18.2 C 0 km/h
585 04-06-2008 20:57:02 17.8 C 13.96 g/m*3 17.8 C 0 km/h
586 04-06-2008 21:09:01 17.8 C 13.96 g/m*3 17.8 C 0 km/h
587 04-06-2008 21:21:02 17.7 C 13.58 g/m*3 17.7 C 0 km/h
588 04-06-2008 21:33:02 17.7 C 13.58 g/m*3 17.7 C 0 km/h
589 04-06-2008 21:45:02 17.7 C 13.58 g/m*3 17.7 C 0 km/h
590 04-06-2008 21:57:02 17.7 C 13.58 g/m*3 17.7 C 0 km/h
591 04-06-2008 22:10:03 17.7 C 13.58 g/m*3 17.7 C 0 km/h
592 04-06-2008 22:22:03 17.7 C 13.58 g/m*3 17.7 C 0 km/h
593 04-06-2008 22:34:03 17.7 C 13.58 g/m*3 17.7 C 0 km/h
594 04-06-2008 22:46:03 17.7 C 13.58 g/m*3 17.7 C 0 km/h
595 04-06-2008 22:58:03 17.7 C 13.58 g/m*3 17.7 C 0 km/h
596 04-06-2008 23:10:04 17.7 C 13.58 g/m*3 17.7 C 0 km/h
597 04-06-2008 23:22:04 17.9 C 13.89 g/m*3 17.9 C 0 km/h
598 04-06-2008 23:34:04 17.9 C 13.89 g/m*3 17.9 C 0 km/h
599 04-06-2008 23:46:04 17.9 C 13.89 g/m*3 17.9 C 0 km/h
600 04-06-2008 23:58:04 17.9 C 13.89 g/m*3 17.9 C 0 km/h
Sensor: Nr:Datum:Temp:Abs-Feuchte:Windchill:Wind:
Aussen-T/F 601 05-06-2008 00:10:04 17.9 C 13.89 g/m*3 17.9 C 0 km/h
602 05-06-2008 00:22:04 17.9 C 13.89 g/m*3 17.9 C 0 km/h
603 05-06-2008 00:34:04 17.9 C 13.89 g/m*3 17.9 C 0 km/h
604 05-06-2008 00:46:04 17.9 C 13.89 g/m*3 17.9 C 0 km/h
605 05-06-2008 00:58:04 17.9 C 13.89 g/m*3 17.9 C 0 km/h
606 05-06-2008 01:10:04 17.9 C 13.89 g/m*3 17.9 C 0 km/h
607 05-06-2008 01:22:04 17.9 C 13.89 g/m*3 17.9 C 0 km/h
608 05-06-2008 01:34:04 17.9 C 13.89 g/m*3 17.9 C 0 km/h
609 05-06-2008 01:46:04 17.9 C 13.89 g/m*3 17.9 C 0 km/h
610 05-06-2008 01:58:04 17.9 C 13.89 g/m*3 17.9 C 0 km/h
611 05-06-2008 02:10:04 17.9 C 13.89 g/m*3 17.9 C 0 km/h
612 05-06-2008 02:22:04 17.9 C 13.89 g/m*3 17.9 C 0 km/h
613 05-06-2008 02:34:04 17.9 C 13.89 g/m*3 17.9 C 0 km/h
614 05-06-2008 02:46:04 17.9 C 13.89 g/m*3 17.9 C 0 km/h
615 05-06-2008 02:58:04 17.9 C 13.89 g/m*3 17.9 C 0 km/h
616 05-06-2008 03:10:04 17.9 C 13.89 g/m*3 17.9 C 0 km/h
617 05-06-2008 03:22:05 17.9 C 13.89 g/m*3 17.9 C 0 km/h
618 05-06-2008 03:34:05 17.9 C 13.89 g/m*3 17.9 C 0 km/h
619 05-06-2008 03:46:05 17.9 C 13.89 g/m*3 17.9 C 0 km/h
620 05-06-2008 03:58:05 17.9 C 13.89 g/m*3 17.9 C 0 km/h
621 05-06-2008 04:10:05 17.9 C 13.89 g/m*3 17.9 C 0 km/h
622 05-06-2008 04:22:05 17.5 C 13.12 g/m*3 17.5 C 0 km/h
623 05-06-2008 04:34:05 17.3 C 12.96 g/m*3 17.3 C 0 km/h
624 05-06-2008 04:46:05 17.3 C 12.96 g/m*3 17.3 C 0 km/h
625 05-06-2008 04:58:05 17.3 C 12.96 g/m*3 17.3 C 0 km/h
Sensor: Nr:Datum:Temp:Abs-Feuchte:Windchill:Wind:
Aussen-T/F 626 05-06-2008 05:10:05 17.3 C 12.96 g/m*3 17.3 C 0 km/h
627 05-06-2008 05:22:05 17.5 C 13.12 g/m*3 17.5 C 0 km/h
628 05-06-2008 05:34:05 17.2 C 12.89 g/m*3 17.2 C 0 km/h
629 05-06-2008 05:46:05 17.2 C 12.89 g/m*3 17.2 C 0 km/h
630 05-06-2008 05:58:05 17.2 C 12.89 g/m*3 17.2 C 0 km/h
631 05-06-2008 06:10:05 17.2 C 12.89 g/m*3 17.2 C 0 km/h
632 05-06-2008 06:22:05 17.2 C 13.03 g/m*3 17.2 C 0 km/h
633 05-06-2008 06:34:03 17.2 C 13.03 g/m*3 17.2 C 0 km/h
634 05-06-2008 06:46:02 17.2 C 13.03 g/m*3 17.2 C 0 km/h
635 05-06-2008 06:58:02 17.2 C 13.03 g/m*3 17.2 C 0 km/h
636 05-06-2008 07:10:02 17.2 C 13.03 g/m*3 17.2 C 0 km/h
637 05-06-2008 07:22:01 17.2 C 13.03 g/m*3 17.2 C 0 km/h
638 05-06-2008 07:36:02 17.2 C 13.03 g/m*3 17.2 C 0 km/h
639 05-06-2008 07:48:02 18.2 C 13.37 g/m*3 18.2 C 0 km/h
640 05-06-2008 08:00:02 18.7 C 13.45 g/m*3 18.7 C 0 km/h
641 05-06-2008 08:12:01 19 C 13.2 g/m*3 19 C 0 km/h
642 05-06-2008 08:24:02 19.1 C 12.79 g/m*3 19.1 C 0 km/h
643 05-06-2008 08:36:02 19.3 C 12.77 g/m*3 19.3 C 0 km/h
644 05-06-2008 08:48:03 19.2 C 12.2 g/m*3 19.2 C 0 km/h
645 05-06-2008 09:00:03 19.1 C 11.8 g/m*3 19.1 C 0 km/h
646 05-06-2008 09:12:02 19.2 C 12.2 g/m*3 19.2 C 0 km/h
647 05-06-2008 09:24:02 19 C 12.22 g/m*3 19 C 0 km/h
648 05-06-2008 09:36:03 19.1 C 12.62 g/m*3 19.1 C 0 km/h
649 05-06-2008 09:48:02 18.8 C 12.56 g/m*3 18.8 C 0 km/h
650 05-06-2008 10:00:02 19 C 12.71 g/m*3 19 C 0 km/h
Sensor: Nr:Datum:Temp:Abs-Feuchte:Windchill:Wind:
Aussen-T/F 651 05-06-2008 10:12:02 19.4 C 12.51 g/m*3 19.4 C 0 km/h
652 05-06-2008 10:24:02 20 C 12.1 g/m*3 20 C 0 km/h
653 05-06-2008 10:36:02 20.5 C 11.74 g/m*3 20.5 C 0 km/h
654 05-06-2008 10:48:02 21.2 C 11.68 g/m*3 21.2 C 0 km/h
655 05-06-2008 11:00:02 22 C 11.06 g/m*3 22 C 0 km/h
656 05-06-2008 11:12:01 22.2 C 10.99 g/m*3 22.2 C 0 km/h
657 05-06-2008 11:24:01 22.3 C 11.45 g/m*3 22.3 C 0 km/h
658 05-06-2008 11:36:02 22.6 C 11.05 g/m*3 22.6 C 0 km/h
659 05-06-2008 11:48:02 23.8 C 11.4 g/m*3 23.8 C 0 km/h
660 05-06-2008 12:00:03 23.6 C 11.06 g/m*3 23.6 C 0 km/h
661 05-06-2008 12:12:02 23.7 C 10.48 g/m*3 23.7 C 0 km/h
662 05-06-2008 12:24:02 23.2 C 10.81 g/m*3 23.2 C 0 km/h
663 05-06-2008 12:36:02 23 C 11.1 g/m*3 23 C 0 km/h
664 05-06-2008 12:48:02 24.5 C 10.52 g/m*3 24.5 C 0 km/h
665 05-06-2008 13:00:02 23.8 C 10.97 g/m*3 23.8 C 0 km/h
666 05-06-2008 13:12:02 23.1 C 10.96 g/m*3 23.1 C 0 km/h
667 05-06-2008 13:24:03 24.6 C 10.13 g/m*3 24.6 C 0 km/h
668 05-06-2008 13:36:02 25 C 11.05 g/m*3 25 C 0 km/h
669 05-06-2008 13:48:02 24.1 C 10.72 g/m*3 24.1 C 0 km/h
670 05-06-2008 14:00:02 23.3 C 10.66 g/m*3 23.3 C 0 km/h
671 05-06-2008 14:12:01 23.2 C 11.02 g/m*3 23.2 C 0 km/h
672 05-06-2008 14:24:02 24.3 C 11.06 g/m*3 24.3 C 0 km/h
673 05-06-2008 14:36:02 25.9 C 10.89 g/m*3 25.9 C 0 km/h
674 05-06-2008 14:48:02 26.3 C 10.64 g/m*3 26.3 C 0 km/h
675 05-06-2008 15:00:02 25.4 C 10.59 g/m*3 25.4 C 0 km/h
Sensor: Nr:Datum:Temp:Abs-Feuchte:Windchill:Wind:
Aussen-T/F 676 05-06-2008 15:12:02 26 C 10.47 g/m*3 26 C 0 km/h
677 05-06-2008 15:24:02 26.8 C 10.44 g/m*3 26.8 C 0 km/h
678 05-06-2008 15:36:02 24.8 C 11.38 g/m*3 24.8 C 0 km/h
679 05-06-2008 15:48:02 24.5 C 11.41 g/m*3 24.5 C 0 km/h
680 05-06-2008 16:00:02 24.6 C 11.48 g/m*3 24.6 C 0 km/h
681 05-06-2008 16:12:02 24.4 C 11.35 g/m*3 24.4 C 0 km/h
682 05-06-2008 16:24:03 24.6 C 11.25 g/m*3 24.6 C 0 km/h
683 05-06-2008 16:36:02 24.3 C 11.29 g/m*3 24.3 C 0 km/h
684 05-06-2008 16:48:01 24.3 C 10.84 g/m*3 24.3 C 0 km/h
685 05-06-2008 17:00:01 24.2 C 11.22 g/m*3 24.2 C 0 km/h
686 05-06-2008 17:12:02 23.6 C 11.48 g/m*3 23.6 C 0 km/h
687 05-06-2008 17:24:02 23.6 C 11.48 g/m*3 23.6 C 0 km/h
688 05-06-2008 17:36:01 23.6 C 11.48 g/m*3 23.6 C 0 km/h
689 05-06-2008 17:48:01 23.7 C 11.12 g/m*3 23.7 C 0 km/h
690 05-06-2008 18:00:01 23.4 C 10.09 g/m*3 23.4 C 0 km/h
691 05-06-2008 18:12:01 23.3 C 10.25 g/m*3 23.3 C 0 km/h
692 05-06-2008 18:24:02 23.3 C 10.25 g/m*3 23.3 C 0 km/h
693 05-06-2008 18:36:02 23.5 C 10.57 g/m*3 23.5 C 0 km/h
694 05-06-2008 18:48:02 23.8 C 10.76 g/m*3 23.8 C 0 km/h
695 05-06-2008 19:00:03 23.9 C 11.03 g/m*3 23.9 C 0 km/h
696 05-06-2008 19:12:02 23.8 C 11.62 g/m*3 23.8 C 0 km/h
697 05-06-2008 19:24:02 23.9 C 11.47 g/m*3 23.9 C 0 km/h
698 05-06-2008 19:36:02 23.8 C 11.83 g/m*3 23.8 C 0 km/h
699 05-06-2008 19:48:02 23.6 C 11.91 g/m*3 23.6 C 0 km/h
700 05-06-2008 20:00:02 23.4 C 11.99 g/m*3 23.4 C 0 km/h
Sensor: Nr:Datum:Temp:Abs-Feuchte:Windchill:Wind:
Aussen-T/F 701 05-06-2008 20:12:02 23.1 C 11.78 g/m*3 23.1 C 0 km/h
702 05-06-2008 20:24:02 22.6 C 11.85 g/m*3 22.6 C 0 km/h
703 05-06-2008 20:36:02 22.3 C 12.05 g/m*3 22.3 C 0 km/h
704 05-06-2008 20:48:01 21.9 C 12.35 g/m*3 21.9 C 0 km/h
705 05-06-2008 21:00:01 21.5 C 12.26 g/m*3 21.5 C 0 km/h
706 05-06-2008 21:12:02 21 C 12.09 g/m*3 21 C 0 km/h
707 05-06-2008 21:24:02 20.5 C 12.1 g/m*3 20.5 C 0 km/h
708 05-06-2008 21:36:02 20.2 C 12.24 g/m*3 20.2 C 0 km/h
709 05-06-2008 21:48:02 19.8 C 12.47 g/m*3 19.8 C 0 km/h
710 05-06-2008 22:00:02 19.5 C 12.25 g/m*3 19.5 C 0 km/h
711 05-06-2008 22:12:02 19.3 C 12.27 g/m*3 19.3 C 0 km/h
712 05-06-2008 22:24:02 19 C 12.22 g/m*3 19 C 0 km/h
713 05-06-2008 22:36:02 18.9 C 12.64 g/m*3 18.9 C 0 km/h
714 05-06-2008 22:48:02 18.7 C 12.49 g/m*3 18.7 C 0 km/h
715 05-06-2008 23:00:02 18.5 C 12.5 g/m*3 18.5 C 0 km/h
716 05-06-2008 23:13:03 18.5 C 12.5 g/m*3 18.5 C 0 km/h
717 05-06-2008 23:25:03 18.3 C 12.35 g/m*3 18.3 C 0 km/h
718 05-06-2008 23:37:03 18.2 C 12.28 g/m*3 18.2 C 0 km/h
719 05-06-2008 23:49:03 18.1 C 12.21 g/m*3 18.1 C 0 km/h
720 06-06-2008 00:01:03 18.1 C 12.21 g/m*3 18.1 C 0 km/h
721 06-06-2008 00:13:04 18.2 C 12.28 g/m*3 18.2 C 0 km/h
722 06-06-2008 00:25:04 18.2 C 12.28 g/m*3 18.2 C 0 km/h
723 06-06-2008 00:37:04 18 C 11.98 g/m*3 18 C 0 km/h
724 06-06-2008 00:49:04 17.9 C 12.21 g/m*3 17.9 C 0 km/h
725 06-06-2008 01:01:04 17.8 C 12.14 g/m*3 17.8 C 0 km/h
Sensor: Nr:Datum:Temp:Abs-Feuchte:Windchill:Wind:
Aussen-T/F 726 06-06-2008 01:13:04 17.9 C 12.21 g/m*3 17.9 C 0 km/h
727 06-06-2008 01:25:04 17.9 C 12.06 g/m*3 17.9 C 0 km/h
728 06-06-2008 01:37:04 17.6 C 11.85 g/m*3 17.6 C 0 km/h
729 06-06-2008 01:49:04 17.3 C 11.93 g/m*3 17.3 C 0 km/h
730 06-06-2008 02:01:04 17.2 C 11.86 g/m*3 17.2 C 0 km/h
731 06-06-2008 02:13:04 17 C 11.87 g/m*3 17 C 0 km/h
732 06-06-2008 02:25:04 16.8 C 11.87 g/m*3 16.8 C 0 km/h
733 06-06-2008 02:37:04 16.7 C 11.94 g/m*3 16.7 C 0 km/h
734 06-06-2008 02:49:04 16.6 C 11.87 g/m*3 16.6 C 0 km/h
735 06-06-2008 03:01:04 16.5 C 11.8 g/m*3 16.5 C 0 km/h
736 06-06-2008 03:13:04 16.4 C 11.72 g/m*3 16.4 C 0 km/h
737 06-06-2008 03:25:04 16.3 C 11.65 g/m*3 16.3 C 0 km/h
738 06-06-2008 03:37:04 16.3 C 11.79 g/m*3 16.3 C 0 km/h
739 06-06-2008 03:49:04 16.2 C 11.72 g/m*3 16.2 C 0 km/h
740 06-06-2008 04:01:04 16.1 C 11.65 g/m*3 16.1 C 0 km/h
741 06-06-2008 04:13:05 15.9 C 11.65 g/m*3 15.9 C 0 km/h
742 06-06-2008 04:25:05 15.9 C 11.65 g/m*3 15.9 C 0 km/h
743 06-06-2008 04:37:05 15.8 C 11.58 g/m*3 15.8 C 0 km/h
744 06-06-2008 04:49:05 15.6 C 11.44 g/m*3 15.6 C 0 km/h
745 06-06-2008 05:01:05 15.6 C 11.44 g/m*3 15.6 C 0 km/h
746 06-06-2008 05:13:05 15.5 C 11.5 g/m*3 15.5 C 0 km/h
747 06-06-2008 05:25:05 15.5 C 11.37 g/m*3 15.5 C 0 km/h
748 06-06-2008 05:37:05 15.4 C 11.3 g/m*3 15.4 C 0 km/h
749 06-06-2008 05:49:05 15.3 C 11.36 g/m*3 15.3 C 0 km/h
750 06-06-2008 06:01:05 15.3 C 11.36 g/m*3 15.3 C 0 km/h
Sensor: Nr:Datum:Temp:Abs-Feuchte:Windchill:Wind:
Aussen-T/F 751 06-06-2008 06:13:05 15.4 C 11.43 g/m*3 15.4 C 0 km/h
752 06-06-2008 06:25:05 15.5 C 11.5 g/m*3 15.5 C 0 km/h
753 06-06-2008 06:37:03 15.6 C 11.57 g/m*3 15.6 C 0 km/h
754 06-06-2008 06:49:02 15.7 C 11.64 g/m*3 15.7 C 0 km/h
755 06-06-2008 07:01:02 15.8 C 11.71 g/m*3 15.8 C 0 km/h
756 06-06-2008 07:13:02 15.9 C 11.65 g/m*3 15.9 C 0 km/h
757 06-06-2008 07:25:01 16.2 C 11.86 g/m*3 16.2 C 0 km/h
758 06-06-2008 07:37:02 16.5 C 11.94 g/m*3 16.5 C 0 km/h
759 06-06-2008 07:49:02 16.6 C 11.72 g/m*3 16.6 C 0 km/h
760 06-06-2008 08:01:01 16.8 C 11.58 g/m*3 16.8 C 0 km/h
761 06-06-2008 08:13:02 17.1 C 11.35 g/m*3 17.1 C 0 km/h
762 06-06-2008 08:25:01 17.6 C 11.55 g/m*3 17.6 C 0 km/h
763 06-06-2008 08:37:01 17.9 C 11.45 g/m*3 17.9 C 0 km/h
764 06-06-2008 08:49:02 18.4 C 11.48 g/m*3 18.4 C 0 km/h
765 06-06-2008 09:01:02 19.1 C 10.82 g/m*3 19.1 C 0 km/h
766 06-06-2008 09:13:02 19.4 C 10.34 g/m*3 19.4 C 0 km/h
767 06-06-2008 09:25:02 19.6 C 10.3 g/m*3 19.6 C 0 km/h
768 06-06-2008 09:37:02 20 C 10.02 g/m*3 20 C 0 km/h
769 06-06-2008 09:49:02 20.6 C 9.49 g/m*3 20.6 C 0 km/h
770 06-06-2008 10:01:02 20.8 C 9.23 g/m*3 20.8 C 0 km/h
771 06-06-2008 10:13:02 21 C 9.16 g/m*3 21 C 0 km/h
772 06-06-2008 10:25:03 21.4 C 8.62 g/m*3 21.4 C 0 km/h
773 06-06-2008 10:37:02 22.1 C 8.59 g/m*3 22.1 C 0 km/h
774 06-06-2008 10:49:01 22.2 C 8.25 g/m*3 22.2 C 0 km/h
775 06-06-2008 11:01:01 22.8 C 8.53 g/m*3 22.8 C 0 km/h
Sensor: Nr:Datum:Temp:Abs-Feuchte:Windchill:Wind:
Aussen-T/F 776 06-06-2008 11:13:01 23.4 C 8.41 g/m*3 23.4 C 0 km/h
777 06-06-2008 11:25:02 23.7 C 8.56 g/m*3 23.7 C 0 km/h
778 06-06-2008 11:37:01 23.8 C 8.39 g/m*3 23.8 C 0 km/h
779 06-06-2008 11:49:01 23.9 C 8.22 g/m*3 23.9 C 0 km/h
780 06-06-2008 12:01:02 24.6 C 8.33 g/m*3 24.6 C 0 km/h
781 06-06-2008 12:13:02 24.8 C 8.19 g/m*3 24.8 C 0 km/h
782 06-06-2008 12:25:02 24.9 C 8.7 g/m*3 24.9 C 0 km/h
783 06-06-2008 12:37:01 25.5 C 8.05 g/m*3 25.5 C 0 km/h
784 06-06-2008 12:49:01 26.6 C 7.8 g/m*3 26.6 C 0 km/h
785 06-06-2008 13:01:02 26.8 C 7.89 g/m*3 26.8 C 0 km/h
786 06-06-2008 13:13:02 27.2 C 7.81 g/m*3 27.2 C 0 km/h
787 06-06-2008 13:25:02 26.5 C 8.01 g/m*3 26.5 C 0 km/h
788 06-06-2008 13:37:01 27.5 C 8.2 g/m*3 27.5 C 0 km/h
789 06-06-2008 13:49:01 27.2 C 7.81 g/m*3 27.2 C 0 km/h
790 06-06-2008 14:01:02 27.5 C 8.2 g/m*3 27.5 C 0 km/h
791 06-06-2008 14:13:03 27.4 C 7.89 g/m*3 27.4 C 0 km/h
792 06-06-2008 14:25:01 26.8 C 7.89 g/m*3 26.8 C 0 km/h
793 06-06-2008 14:37:02 27.1 C 7.76 g/m*3 27.1 C 0 km/h
794 06-06-2008 14:49:03 26.9 C 8.45 g/m*3 26.9 C 0 km/h
795 06-06-2008 15:01:02 27 C 8.24 g/m*3 27 C 0 km/h
796 06-06-2008 15:13:02 27.1 C 8.28 g/m*3 27.1 C 0 km/h
797 06-06-2008 15:25:02 26.4 C 9.21 g/m*3 26.4 C 0 km/h
798 06-06-2008 15:37:03 26.2 C 9.6 g/m*3 26.2 C 0 km/h
799 06-06-2008 15:49:02 26.1 C 9.3 g/m*3 26.1 C 0 km/h
800 06-06-2008 16:01:02 24.9 C 9.16 g/m*3 24.9 C 0 km/h
Sensor: Nr:Datum:Temp:Abs-Feuchte:Windchill:Wind:
Aussen-T/F 801 06-06-2008 16:13:03 24.5 C 9.4 g/m*3 24.5 C 0 km/h
802 06-06-2008 16:25:02 24.8 C 9.56 g/m*3 24.8 C 0 km/h
803 06-06-2008 16:37:02 25.8 C 9.63 g/m*3 25.8 C 0 km/h
804 06-06-2008 16:49:02 26.2 C 9.35 g/m*3 26.2 C 0 km/h
805 06-06-2008 17:01:02 26.5 C 9.51 g/m*3 26.5 C 0 km/h
806 06-06-2008 17:13:02 26.2 C 9.6 g/m*3 26.2 C 0 km/h
807 06-06-2008 17:25:02 25.6 C 10 g/m*3 25.6 C 0 km/h
808 06-06-2008 17:37:02 26.2 C 10.09 g/m*3 26.2 C 0 km/h
809 06-06-2008 17:49:03 26.1 C 9.79 g/m*3 26.1 C 0 km/h
810 06-06-2008 18:01:02 25.5 C 9.71 g/m*3 25.5 C 0 km/h
811 06-06-2008 18:13:02 25.1 C 9.95 g/m*3 25.1 C 0 km/h
812 06-06-2008 18:25:03 26 C 9.49 g/m*3 26 C 0 km/h
813 06-06-2008 18:37:02 25.9 C 9.44 g/m*3 25.9 C 0 km/h
814 06-06-2008 18:49:02 24.6 C 9.9 g/m*3 24.6 C 0 km/h
815 06-06-2008 19:01:01 24.3 C 9.96 g/m*3 24.3 C 0 km/h
816 06-06-2008 19:13:01 24.3 C 10.18 g/m*3 24.3 C 0 km/h
817 06-06-2008 19:25:01 23.4 C 9.88 g/m*3 23.4 C 0 km/h
818 06-06-2008 19:37:02 23.5 C 10.15 g/m*3 23.5 C 0 km/h
819 06-06-2008 19:49:03 23.1 C 9.92 g/m*3 23.1 C 0 km/h
820 06-06-2008 20:01:02 23.1 C 9.92 g/m*3 23.1 C 0 km/h
821 06-06-2008 20:13:02 22.9 C 10.22 g/m*3 22.9 C 0 km/h
822 06-06-2008 20:25:02 22.7 C 10.3 g/m*3 22.7 C 0 km/h
823 06-06-2008 20:37:02 22.5 C 10.39 g/m*3 22.5 C 0 km/h
824 06-06-2008 20:49:02 22.1 C 10.74 g/m*3 22.1 C 0 km/h
825 06-06-2008 21:01:03 22.1 C 10.93 g/m*3 22.1 C 0 km/h
Sensor: Nr:Datum:Temp:Abs-Feuchte:Windchill:Wind:
Aussen-T/F 826 06-06-2008 21:13:03 21.8 C 10.94 g/m*3 21.8 C 0 km/h
827 06-06-2008 21:25:02 21.6 C 10.62 g/m*3 21.6 C 0 km/h
828 06-06-2008 21:37:02 21.5 C 10.75 g/m*3 21.5 C 0 km/h
829 06-06-2008 21:49:02 21.3 C 10.81 g/m*3 21.3 C 0 km/h
830 06-06-2008 22:01:01 21.1 C 10.69 g/m*3 21.1 C 0 km/h
831 06-06-2008 22:13:01 20.9 C 10.93 g/m*3 20.9 C 0 km/h
832 06-06-2008 22:25:01 20.8 C 10.86 g/m*3 20.8 C 0 km/h
833 06-06-2008 22:37:02 20.5 C 10.68 g/m*3 20.5 C 0 km/h
834 06-06-2008 22:49:03 20.4 C 10.61 g/m*3 20.4 C 0 km/h
835 06-06-2008 23:01:02 20.2 C 10.32 g/m*3 20.2 C 0 km/h
836 06-06-2008 23:13:02 20.1 C 10.26 g/m*3 20.1 C 0 km/h
837 06-06-2008 23:25:02 19.8 C 10.42 g/m*3 19.8 C 0 km/h
838 06-06-2008 23:37:02 19.7 C 10.7 g/m*3 19.7 C 0 km/h
839 06-06-2008 23:49:01 19.5 C 10.74 g/m*3 19.5 C 0 km/h
840 07-06-2008 00:01:02 19.5 C 10.91 g/m*3 19.5 C 0 km/h
841 07-06-2008 00:13:02 19.2 C 11.05 g/m*3 19.2 C 0 km/h
842 07-06-2008 00:25:01 19.2 C 11.21 g/m*3 19.2 C 0 km/h
843 07-06-2008 00:37:01 18.9 C 11.34 g/m*3 18.9 C 0 km/h
844 07-06-2008 00:49:01 18.8 C 11.43 g/m*3 18.8 C 0 km/h
845 07-06-2008 01:01:02 18.5 C 11.39 g/m*3 18.5 C 0 km/h
846 07-06-2008 01:13:02 18.6 C 11.46 g/m*3 18.6 C 0 km/h
847 07-06-2008 01:25:02 18.5 C 11.39 g/m*3 18.5 C 0 km/h
848 07-06-2008 01:37:02 18.3 C 11.41 g/m*3 18.3 C 0 km/h
849 07-06-2008 01:49:02 18.2 C 11.5 g/m*3 18.2 C 0 km/h
850 07-06-2008 02:01:02 17.7 C 11.62 g/m*3 17.7 C 0 km/h
Sensor: Nr:Datum:Temp:Abs-Feuchte:Windchill:Wind:
Aussen-T/F 851 07-06-2008 02:13:02 17.7 C 11.62 g/m*3 17.7 C 0 km/h
852 07-06-2008 02:25:02 17.6 C 11.55 g/m*3 17.6 C 0 km/h
853 07-06-2008 02:37:02 17.6 C 11.7 g/m*3 17.6 C 0 km/h
854 07-06-2008 02:49:01 17.7 C 11.77 g/m*3 17.7 C 0 km/h
855 07-06-2008 03:01:01 17.6 C 11.7 g/m*3 17.6 C 0 km/h
856 07-06-2008 03:13:01 17.5 C 11.63 g/m*3 17.5 C 0 km/h
857 07-06-2008 03:25:01 17.5 C 11.63 g/m*3 17.5 C 0 km/h
858 07-06-2008 03:37:01 17.6 C 11.7 g/m*3 17.6 C 0 km/h
859 07-06-2008 03:49:02 17.7 C 11.62 g/m*3 17.7 C 0 km/h
860 07-06-2008 04:01:01 17.5 C 11.48 g/m*3 17.5 C 0 km/h
861 07-06-2008 04:13:01 17.4 C 11.41 g/m*3 17.4 C 0 km/h
862 07-06-2008 04:25:01 17.3 C 11.34 g/m*3 17.3 C 0 km/h
863 07-06-2008 04:37:02 17 C 11.14 g/m*3 17 C 0 km/h
864 07-06-2008 04:49:01 17.2 C 11.13 g/m*3 17.2 C 0 km/h
865 07-06-2008 05:01:02 17 C 11 g/m*3 17 C 0 km/h
866 07-06-2008 05:13:02 17 C 11 g/m*3 17 C 0 km/h
867 07-06-2008 05:25:01 16.9 C 10.93 g/m*3 16.9 C 0 km/h
868 07-06-2008 05:37:01 16.8 C 11.01 g/m*3 16.8 C 0 km/h
869 07-06-2008 05:49:01 16.8 C 11.01 g/m*3 16.8 C 0 km/h
870 07-06-2008 06:01:01 16.6 C 11.02 g/m*3 16.6 C 0 km/h
871 07-06-2008 06:13:01 16.6 C 11.02 g/m*3 16.6 C 0 km/h
872 07-06-2008 06:25:01 16.4 C 10.89 g/m*3 16.4 C 0 km/h
873 07-06-2008 06:37:02 16.3 C 10.96 g/m*3 16.3 C 0 km/h
874 07-06-2008 06:49:02 16.3 C 11.1 g/m*3 16.3 C 0 km/h
875 07-06-2008 07:01:01 16.2 C 10.89 g/m*3 16.2 C 0 km/h
Sensor: Nr:Datum:Temp:Abs-Feuchte:Windchill:Wind:
Aussen-T/F 876 07-06-2008 07:13:01 16.3 C 11.1 g/m*3 16.3 C 0 km/h
877 07-06-2008 07:25:01 16.6 C 11.16 g/m*3 16.6 C 0 km/h
878 07-06-2008 07:37:01 16.5 C 11.09 g/m*3 16.5 C 0 km/h
879 07-06-2008 07:49:01 16.7 C 11.08 g/m*3 16.7 C 0 km/h
880 07-06-2008 08:01:02 16.8 C 11.01 g/m*3 16.8 C 0 km/h
881 07-06-2008 08:13:02 16.7 C 10.94 g/m*3 16.7 C 0 km/h
882 07-06-2008 08:25:02 16.8 C 11.01 g/m*3 16.8 C 0 km/h
883 07-06-2008 08:37:01 16.9 C 11.08 g/m*3 16.9 C 0 km/h
884 07-06-2008 08:49:01 16.6 C 11.16 g/m*3 16.6 C 0 km/h
885 07-06-2008 09:01:01 16.5 C 11.23 g/m*3 16.5 C 0 km/h
886 07-06-2008 09:13:01 16.5 C 11.09 g/m*3 16.5 C 0 km/h
887 07-06-2008 09:25:01 16.9 C 11.22 g/m*3 16.9 C 0 km/h
888 07-06-2008 09:37:02 17 C 10.71 g/m*3 17 C 0 km/h
889 07-06-2008 09:49:02 17.8 C 11.08 g/m*3 17.8 C 0 km/h
890 07-06-2008 10:01:01 18 C 10.44 g/m*3 18 C 0 km/h
891 07-06-2008 10:13:01 18.2 C 10.41 g/m*3 18.2 C 0 km/h
892 07-06-2008 10:25:01 17.8 C 10.32 g/m*3 17.8 C 0 km/h
893 07-06-2008 10:37:02 18.1 C 10.66 g/m*3 18.1 C 0 km/h
894 07-06-2008 10:49:01 18 C 10.14 g/m*3 18 C 0 km/h
895 07-06-2008 11:01:02 18.3 C 10.16 g/m*3 18.3 C 0 km/h
896 07-06-2008 11:13:02 18.7 C 10.09 g/m*3 18.7 C 0 km/h
897 07-06-2008 11:25:01 18.5 C 9.97 g/m*3 18.5 C 0 km/h
898 07-06-2008 11:37:01 18.7 C 10.09 g/m*3 18.7 C 0 km/h
899 07-06-2008 11:49:01 18.7 C 10.09 g/m*3 18.7 C 0 km/h
900 07-06-2008 12:01:02 18.9 C 10.04 g/m*3 18.9 C 0 km/h
Sensor: Nr:Datum:Temp:Abs-Feuchte:Windchill:Wind:
Aussen-T/F 901 07-06-2008 12:13:02 18.5 C 10.13 g/m*3 18.5 C 0 km/h
902 07-06-2008 12:25:01 19 C 9.94 g/m*3 19 C 0 km/h
903 07-06-2008 12:37:01 20 C 9.68 g/m*3 20 C 0 km/h
904 07-06-2008 12:49:01 20.7 C 9.36 g/m*3 20.7 C 0 km/h
905 07-06-2008 13:01:02 20.6 C 9.49 g/m*3 20.6 C 0 km/h
906 07-06-2008 13:13:02 20.8 C 9.6 g/m*3 20.8 C 0 km/h
907 07-06-2008 13:25:02 21.2 C 9.27 g/m*3 21.2 C 0 km/h
908 07-06-2008 13:37:01 23.1 C 8.89 g/m*3 23.1 C 0 km/h
909 07-06-2008 13:49:01 22.9 C 9.2 g/m*3 22.9 C 0 km/h
910 07-06-2008 14:01:01 23.2 C 8.94 g/m*3 23.2 C 0 km/h
911 07-06-2008 14:13:01 23.3 C 8.78 g/m*3 23.3 C 0 km/h
912 07-06-2008 14:25:02 23.7 C 8.98 g/m*3 23.7 C 0 km/h
913 07-06-2008 14:37:02 24.1 C 8.97 g/m*3 24.1 C 0 km/h
914 07-06-2008 14:49:02 24.2 C 9.02 g/m*3 24.2 C 0 km/h
915 07-06-2008 15:01:01 23.9 C 9.09 g/m*3 23.9 C 0 km/h
916 07-06-2008 15:13:01 23.6 C 9.57 g/m*3 23.6 C 0 km/h
917 07-06-2008 15:25:01 23.1 C 8.89 g/m*3 23.1 C 0 km/h
918 07-06-2008 15:37:02 23.9 C 8.87 g/m*3 23.9 C 0 km/h
919 07-06-2008 15:49:01 25.3 C 9.36 g/m*3 25.3 C 0 km/h
920 07-06-2008 16:01:02 25 C 9.21 g/m*3 25 C 0 km/h
921 07-06-2008 16:13:02 25.4 C 9.18 g/m*3 25.4 C 0 km/h
922 07-06-2008 16:25:01 25.5 C 9 g/m*3 25.5 C 0 km/h
923 07-06-2008 16:37:01 26.3 C 8.91 g/m*3 26.3 C 0 km/h
924 07-06-2008 16:49:01 26.6 C 8.56 g/m*3 26.6 C 0 km/h
925 07-06-2008 17:01:02 25.8 C 8.91 g/m*3 25.8 C 0 km/h
Sensor: Nr:Datum:Temp:Abs-Feuchte:Windchill:Wind:
Aussen-T/F 926 07-06-2008 17:13:02 26.3 C 9.16 g/m*3 26.3 C 0 km/h
927 07-06-2008 17:25:01 25.6 C 8.57 g/m*3 25.6 C 0 km/h
928 07-06-2008 17:37:01 26.2 C 8.62 g/m*3 26.2 C 0 km/h
929 07-06-2008 17:49:01 26.5 C 8.76 g/m*3 26.5 C 0 km/h
930 07-06-2008 18:01:02 25.8 C 8.67 g/m*3 25.8 C 0 km/h
931 07-06-2008 18:13:02 25.3 C 8.66 g/m*3 25.3 C 0 km/h
932 07-06-2008 18:25:02 25.3 C 8.9 g/m*3 25.3 C 0 km/h
933 07-06-2008 18:37:01 24.3 C 9.07 g/m*3 24.3 C 0 km/h
934 07-06-2008 18:49:02 24.6 C 8.78 g/m*3 24.6 C 0 km/h
935 07-06-2008 19:01:01 24.2 C 8.58 g/m*3 24.2 C 0 km/h
936 07-06-2008 19:13:01 22.7 C 9.29 g/m*3 22.7 C 0 km/h
937 07-06-2008 19:25:01 22.7 C 9.29 g/m*3 22.7 C 0 km/h
938 07-06-2008 19:37:02 22.2 C 9.23 g/m*3 22.2 C 0 km/h
939 07-06-2008 19:49:02 22 C 9.12 g/m*3 22 C 0 km/h
940 07-06-2008 20:01:01 21.5 C 9.43 g/m*3 21.5 C 0 km/h
941 07-06-2008 20:13:01 21 C 9.34 g/m*3 21 C 0 km/h
942 07-06-2008 20:25:01 21.3 C 9.51 g/m*3 21.3 C 0 km/h
943 07-06-2008 20:37:02 21.1 C 9.58 g/m*3 21.1 C 0 km/h
944 07-06-2008 20:49:01 20.9 C 9.65 g/m*3 20.9 C 0 km/h
945 07-06-2008 21:01:01 20.4 C 9.55 g/m*3 20.4 C 0 km/h
946 07-06-2008 21:13:01 20 C 9.51 g/m*3 20 C 0 km/h
947 07-06-2008 21:25:02 19.6 C 9.79 g/m*3 19.6 C 0 km/h
948 07-06-2008 21:37:01 19.4 C 9.84 g/m*3 19.4 C 0 km/h
949 07-06-2008 21:49:01 18.8 C 9.66 g/m*3 18.8 C 0 km/h
950 07-06-2008 22:01:01 18.9 C 9.88 g/m*3 18.9 C 0 km/h
Sensor: Nr:Datum:Temp:Abs-Feuchte:Windchill:Wind:
Aussen-T/F 951 07-06-2008 22:13:01 18.9 C 9.88 g/m*3 18.9 C 0 km/h
952 07-06-2008 22:25:02 18.8 C 9.82 g/m*3 18.8 C 0 km/h
953 07-06-2008 22:37:01 18.5 C 9.65 g/m*3 18.5 C 0 km/h
954 07-06-2008 22:49:01 18.4 C 9.75 g/m*3 18.4 C 0 km/h
955 07-06-2008 23:02:02 18.1 C 9.89 g/m*3 18.1 C 0 km/h
956 07-06-2008 23:14:02 18.2 C 9.79 g/m*3 18.2 C 0 km/h
957 07-06-2008 23:26:02 18.3 C 9.69 g/m*3 18.3 C 0 km/h
958 07-06-2008 23:38:02 18.1 C 9.73 g/m*3 18.1 C 0 km/h
959 07-06-2008 23:50:02 18 C 9.68 g/m*3 18 C 0 km/h
960 08-06-2008 00:02:02 17.9 C 9.92 g/m*3 17.9 C 0 km/h
961 08-06-2008 00:14:02 17.8 C 10.02 g/m*3 17.8 C 0 km/h
962 08-06-2008 00:26:02 17.5 C 9.99 g/m*3 17.5 C 0 km/h
963 08-06-2008 00:38:02 17.4 C 10.08 g/m*3 17.4 C 0 km/h
964 08-06-2008 00:50:02 17.6 C 10.2 g/m*3 17.6 C 0 km/h
965 08-06-2008 01:02:02 17.5 C 10.14 g/m*3 17.5 C 0 km/h
966 08-06-2008 01:14:03 17.8 C 10.17 g/m*3 17.8 C 0 km/h
967 08-06-2008 01:26:03 17.5 C 9.99 g/m*3 17.5 C 0 km/h
968 08-06-2008 01:38:03 17.2 C 9.96 g/m*3 17.2 C 0 km/h
969 08-06-2008 01:50:03 17 C 9.98 g/m*3 17 C 0 km/h
970 08-06-2008 02:02:03 17.1 C 10.04 g/m*3 17.1 C 0 km/h
971 08-06-2008 02:14:03 17.5 C 10.29 g/m*3 17.5 C 0 km/h
972 08-06-2008 02:26:03 17.1 C 10.19 g/m*3 17.1 C 0 km/h
973 08-06-2008 02:38:03 17.2 C 10.4 g/m*3 17.2 C 0 km/h
974 08-06-2008 02:50:03 17.2 C 10.25 g/m*3 17.2 C 0 km/h
975 08-06-2008 03:02:03 17.2 C 10.4 g/m*3 17.2 C 0 km/h
Sensor: Nr:Datum:Temp:Abs-Feuchte:Windchill:Wind:
Aussen-T/F 976 08-06-2008 03:14:03 17.1 C 10.34 g/m*3 17.1 C 0 km/h
977 08-06-2008 03:26:03 17.2 C 10.54 g/m*3 17.2 C 0 km/h
978 08-06-2008 03:38:03 16.9 C 10.5 g/m*3 16.9 C 0 km/h
979 08-06-2008 03:50:03 17 C 10.42 g/m*3 17 C 0 km/h
980 08-06-2008 04:02:03 16.8 C 10.44 g/m*3 16.8 C 0 km/h
981 08-06-2008 04:14:03 16.6 C 10.45 g/m*3 16.6 C 0 km/h
982 08-06-2008 04:26:03 16.7 C 10.52 g/m*3 16.7 C 0 km/h
983 08-06-2008 04:38:03 16.7 C 10.52 g/m*3 16.7 C 0 km/h
984 08-06-2008 04:50:03 16.4 C 10.33 g/m*3 16.4 C 0 km/h
985 08-06-2008 05:02:03 16.3 C 10.54 g/m*3 16.3 C 0 km/h
986 08-06-2008 05:14:04 16.1 C 10.42 g/m*3 16.1 C 0 km/h
987 08-06-2008 05:26:04 16.2 C 10.48 g/m*3 16.2 C 0 km/h
988 08-06-2008 05:38:04 16.1 C 10.28 g/m*3 16.1 C 0 km/h
989 08-06-2008 05:50:04 16.1 C 10.28 g/m*3 16.1 C 0 km/h
990 08-06-2008 06:02:04 16.2 C 10.34 g/m*3 16.2 C 0 km/h
991 08-06-2008 06:14:04 16.2 C 10.34 g/m*3 16.2 C 0 km/h
992 08-06-2008 06:26:04 16.1 C 10.42 g/m*3 16.1 C 0 km/h
993 08-06-2008 06:38:04 16.1 C 10.28 g/m*3 16.1 C 0 km/h
994 08-06-2008 06:50:04 16.1 C 10.28 g/m*3 16.1 C 0 km/h
995 08-06-2008 07:02:04 16.1 C 10.14 g/m*3 16.1 C 0 km/h
996 08-06-2008 07:14:04 16.1 C 10.28 g/m*3 16.1 C 0 km/h
997 08-06-2008 07:26:04 16.2 C 10.2 g/m*3 16.2 C 0 km/h
998 08-06-2008 07:38:04 16.3 C 10.27 g/m*3 16.3 C 0 km/h
999 08-06-2008 07:50:04 16.4 C 10.33 g/m*3 16.4 C 0 km/h
1000 08-06-2008 08:02:04 16.3 C 10.27 g/m*3 16.3 C 0 km/h
Sensor: Nr:Datum:Temp:Abs-Feuchte:Windchill:Wind:
Aussen-T/F 1001 08-06-2008 08:14:04 16.6 C 10.31 g/m*3 16.6 C 0 km/h
1002 08-06-2008 08:26:04 16.6 C 10.17 g/m*3 16.6 C 0 km/h
1003 08-06-2008 08:38:04 16.6 C 10.17 g/m*3 16.6 C 0 km/h
1004 08-06-2008 08:50:04 16.7 C 10.23 g/m*3 16.7 C 0 km/h
1005 08-06-2008 09:02:02 16.8 C 10.01 g/m*3 16.8 C 0 km/h
1006 08-06-2008 09:14:02 17.3 C 10.16 g/m*3 17.3 C 0 km/h
1007 08-06-2008 09:26:02 17.7 C 10.11 g/m*3 17.7 C 0 km/h
1008 08-06-2008 09:38:02 17.9 C 10.23 g/m*3 17.9 C 0 km/h
1009 08-06-2008 09:50:03 18.3 C 9.69 g/m*3 18.3 C 0 km/h
1010 08-06-2008 10:02:02 18.4 C 9.91 g/m*3 18.4 C 0 km/h
1011 08-06-2008 10:14:02 18.7 C 9.61 g/m*3 18.7 C 0 km/h
1012 08-06-2008 10:26:02 18.5 C 9.65 g/m*3 18.5 C 0 km/h
1013 08-06-2008 10:38:02 18.9 C 9.88 g/m*3 18.9 C 0 km/h
1014 08-06-2008 10:50:02 19.7 C 9.51 g/m*3 19.7 C 0 km/h
1015 08-06-2008 11:02:01 20.4 C 9.55 g/m*3 20.4 C 0 km/h
1016 08-06-2008 11:14:01 20.8 C 9.42 g/m*3 20.8 C 0 km/h
1017 08-06-2008 11:26:02 20.9 C 9.47 g/m*3 20.9 C 0 km/h
1018 08-06-2008 11:38:01 20.6 C 9.49 g/m*3 20.6 C 0 km/h
1019 08-06-2008 11:50:02 20.4 C 9.38 g/m*3 20.4 C 0 km/h
1020 08-06-2008 12:02:01 21.6 C 9.29 g/m*3 21.6 C 0 km/h
1021 08-06-2008 12:14:01 22.8 C 9.14 g/m*3 22.8 C 0 km/h
1022 08-06-2008 12:26:02 21.7 C 9.54 g/m*3 21.7 C 0 km/h
1023 08-06-2008 12:38:02 22 C 8.93 g/m*3 22 C 0 km/h
1024 08-06-2008 12:50:02 24 C 9.36 g/m*3 24 C 0 km/h
1025 08-06-2008 13:02:02 23.7 C 8.98 g/m*3 23.7 C 0 km/h
Sensor: Nr:Datum:Temp:Abs-Feuchte:Windchill:Wind:
Aussen-T/F 1026 08-06-2008 13:14:02 25 C 8.98 g/m*3 25 C 0 km/h
1027 08-06-2008 13:26:03 25.3 C 8.43 g/m*3 25.3 C 0 km/h
1028 08-06-2008 13:38:02 25.2 C 8.85 g/m*3 25.2 C 0 km/h
1029 08-06-2008 13:50:01 25.6 C 8.57 g/m*3 25.6 C 0 km/h
1030 08-06-2008 14:02:01 25.5 C 8.76 g/m*3 25.5 C 0 km/h
1031 08-06-2008 14:14:01 24.4 C 9.35 g/m*3 24.4 C 0 km/h
1032 08-06-2008 14:26:02 23.6 C 9.78 g/m*3 23.6 C 0 km/h
1033 08-06-2008 14:38:01 22.9 C 10.22 g/m*3 22.9 C 0 km/h
1034 08-06-2008 14:50:02 23 C 9.87 g/m*3 23 C 0 km/h
1035 08-06-2008 15:02:02 23.8 C 9.9 g/m*3 23.8 C 0 km/h
1036 08-06-2008 15:14:02 25.6 C 10.24 g/m*3 25.6 C 0 km/h
1037 08-06-2008 15:26:02 26.9 C 9.21 g/m*3 26.9 C 0 km/h
1038 08-06-2008 15:38:01 26.2 C 9.6 g/m*3 26.2 C 0 km/h
1039 08-06-2008 15:50:01 25.7 C 9.82 g/m*3 25.7 C 0 km/h
1040 08-06-2008 16:02:02 24.5 C 9.62 g/m*3 24.5 C 0 km/h
1041 08-06-2008 16:14:02 24.8 C 10.02 g/m*3 24.8 C 0 km/h
1042 08-06-2008 16:26:02 26.5 C 9.01 g/m*3 26.5 C 0 km/h
1043 08-06-2008 16:38:01 26.7 C 9.11 g/m*3 26.7 C 0 km/h
1044 08-06-2008 16:50:02 27.4 C 9.21 g/m*3 27.4 C 0 km/h
1045 08-06-2008 17:02:02 28.2 C 9.35 g/m*3 28.2 C 0 km/h
1046 08-06-2008 17:14:02 28.3 C 9.4 g/m*3 28.3 C 0 km/h
1047 08-06-2008 17:26:02 27.4 C 9.21 g/m*3 27.4 C 0 km/h
1048 08-06-2008 17:38:02 27.7 C 9.36 g/m*3 27.7 C 0 km/h
1049 08-06-2008 17:50:02 28.3 C 9.4 g/m*3 28.3 C 0 km/h
1050 08-06-2008 18:02:02 27.7 C 9.36 g/m*3 27.7 C 0 km/h
Sensor: Nr:Datum:Temp:Abs-Feuchte:Windchill:Wind:
Aussen-T/F 1051 08-06-2008 18:14:02 27.7 C 9.9 g/m*3 27.7 C 0 km/h
1052 08-06-2008 18:26:02 28.6 C 9.27 g/m*3 28.6 C 0 km/h
1053 08-06-2008 18:38:02 28.7 C 9.89 g/m*3 28.7 C 0 km/h
1054 08-06-2008 18:50:02 28.2 C 9.62 g/m*3 28.2 C 0 km/h
1055 08-06-2008 19:02:01 27.1 C 9.58 g/m*3 27.1 C 0 km/h
1056 08-06-2008 19:14:01 27.3 C 10.2 g/m*3 27.3 C 0 km/h
1057 08-06-2008 19:26:02 26.6 C 10.32 g/m*3 26.6 C 0 km/h
1058 08-06-2008 19:38:01 24.5 C 11.41 g/m*3 24.5 C 0 km/h
1059 08-06-2008 19:50:03 23.1 C 11.99 g/m*3 23.1 C 0 km/h
1060 08-06-2008 20:02:02 23.2 C 12.06 g/m*3 23.2 C 0 km/h
1061 08-06-2008 20:14:02 23.4 C 12.2 g/m*3 23.4 C 0 km/h
1062 08-06-2008 20:26:02 23.7 C 12.41 g/m*3 23.7 C 0 km/h
1063 08-06-2008 20:38:02 23.2 C 12.06 g/m*3 23.2 C 0 km/h
1064 08-06-2008 20:50:02 23.2 C 11.85 g/m*3 23.2 C 0 km/h
1065 08-06-2008 21:02:02 21.6 C 12.9 g/m*3 21.6 C 0 km/h
1066 08-06-2008 21:14:02 20.4 C 12.38 g/m*3 20.4 C 0 km/h
1067 08-06-2008 21:26:02 20.2 C 11.71 g/m*3 20.2 C 0 km/h
1068 08-06-2008 21:38:02 20.1 C 11.3 g/m*3 20.1 C 0 km/h
1069 08-06-2008 21:50:02 20 C 11.06 g/m*3 20 C 0 km/h
1070 08-06-2008 22:02:02 20.1 C 11.3 g/m*3 20.1 C 0 km/h
1071 08-06-2008 22:14:02 20.2 C 11.54 g/m*3 20.2 C 0 km/h
1072 08-06-2008 22:26:02 20 C 11.41 g/m*3 20 C 0 km/h
1073 08-06-2008 22:38:02 19.7 C 11.21 g/m*3 19.7 C 0 km/h
1074 08-06-2008 22:50:02 19.3 C 11.11 g/m*3 19.3 C 0 km/h
1075 08-06-2008 23:02:02 19 C 10.76 g/m*3 19 C 0 km/h
Sensor: Nr:Datum:Temp:Abs-Feuchte:Windchill:Wind:
Aussen-T/F 1076 08-06-2008 23:14:02 18.7 C 10.73 g/m*3 18.7 C 0 km/h
1077 08-06-2008 23:26:03 18.5 C 10.44 g/m*3 18.5 C 0 km/h
1078 08-06-2008 23:38:03 18.5 C 10.44 g/m*3 18.5 C 0 km/h
1079 08-06-2008 23:50:02 18.4 C 10.22 g/m*3 18.4 C 0 km/h
1080 09-06-2008 00:02:02 18.2 C 10.26 g/m*3 18.2 C 0 km/h
1081 09-06-2008 00:14:02 18.1 C 10.04 g/m*3 18.1 C 0 km/h
1082 09-06-2008 00:26:02 17.9 C 10.23 g/m*3 17.9 C 0 km/h
1083 09-06-2008 00:38:02 17.8 C 10.02 g/m*3 17.8 C 0 km/h
1084 09-06-2008 00:50:01 17.7 C 10.26 g/m*3 17.7 C 0 km/h
1085 09-06-2008 01:02:02 17.5 C 10.44 g/m*3 17.5 C 0 km/h
1086 09-06-2008 01:14:02 17.3 C 10.31 g/m*3 17.3 C 0 km/h
1087 09-06-2008 01:26:02 17.2 C 10.25 g/m*3 17.2 C 0 km/h
1088 09-06-2008 01:38:02 17 C 10.42 g/m*3 17 C 0 km/h
1089 09-06-2008 01:50:02 16.8 C 10.44 g/m*3 16.8 C 0 km/h
1090 09-06-2008 02:02:02 16.6 C 10.45 g/m*3 16.6 C 0 km/h
1091 09-06-2008 02:14:03 16.5 C 10.39 g/m*3 16.5 C 0 km/h
1092 09-06-2008 02:26:02 16.3 C 10.41 g/m*3 16.3 C 0 km/h
1093 09-06-2008 02:38:02 16.2 C 10.34 g/m*3 16.2 C 0 km/h
1094 09-06-2008 02:50:01 16.1 C 10.28 g/m*3 16.1 C 0 km/h
1095 09-06-2008 03:02:01 16 C 10.22 g/m*3 16 C 0 km/h
1096 09-06-2008 03:14:02 15.8 C 10.36 g/m*3 15.8 C 0 km/h
1097 09-06-2008 03:26:02 15.6 C 10.37 g/m*3 15.6 C 0 km/h
1098 09-06-2008 03:38:01 15.4 C 10.25 g/m*3 15.4 C 0 km/h
1099 09-06-2008 03:50:01 15.4 C 10.25 g/m*3 15.4 C 0 km/h
1100 09-06-2008 04:02:02 15.2 C 10.25 g/m*3 15.2 C 0 km/h
Sensor: Nr:Datum:Temp:Abs-Feuchte:Windchill:Wind:
Aussen-T/F 1101 09-06-2008 04:14:02 15.1 C 10.32 g/m*3 15.1 C 0 km/h
1102 09-06-2008 04:26:01 14.9 C 10.32 g/m*3 14.9 C 0 km/h
1103 09-06-2008 04:38:01 14.8 C 10.39 g/m*3 14.8 C 0 km/h
1104 09-06-2008 04:50:01 14.7 C 10.32 g/m*3 14.7 C 0 km/h
1105 09-06-2008 05:02:01 14.7 C 10.45 g/m*3 14.7 C 0 km/h
1106 09-06-2008 05:14:01 14.6 C 10.39 g/m*3 14.6 C 0 km/h
1107 09-06-2008 05:26:02 14.3 C 10.2 g/m*3 14.3 C 0 km/h
1108 09-06-2008 05:38:01 14.1 C 10.19 g/m*3 14.1 C 0 km/h
1109 09-06-2008 05:50:01 14.2 C 10.26 g/m*3 14.2 C 0 km/h
1110 09-06-2008 06:02:02 14.1 C 10.19 g/m*3 14.1 C 0 km/h
1111 09-06-2008 06:14:02 14.1 C 10.32 g/m*3 14.1 C 0 km/h
1112 09-06-2008 06:26:01 14.2 C 10.38 g/m*3 14.2 C 0 km/h
1113 09-06-2008 06:38:01 14.2 C 10.38 g/m*3 14.2 C 0 km/h
1114 09-06-2008 06:50:01 14.3 C 10.57 g/m*3 14.3 C 0 km/h
1115 09-06-2008 07:02:02 14.3 C 10.57 g/m*3 14.3 C 0 km/h
1116 09-06-2008 07:14:02 14.4 C 10.63 g/m*3 14.4 C 0 km/h
1117 09-06-2008 07:26:01 14.5 C 10.82 g/m*3 14.5 C 0 km/h
1118 09-06-2008 07:38:01 14.7 C 10.83 g/m*3 14.7 C 0 km/h
1119 09-06-2008 07:50:01 14.8 C 10.89 g/m*3 14.8 C 0 km/h
1120 09-06-2008 08:02:02 15 C 10.9 g/m*3 15 C 0 km/h
1121 09-06-2008 08:14:02 15.4 C 11.17 g/m*3 15.4 C 0 km/h
1122 09-06-2008 08:26:02 15.8 C 11.31 g/m*3 15.8 C 0 km/h
1123 09-06-2008 08:38:01 16.1 C 11.24 g/m*3 16.1 C 0 km/h
1124 09-06-2008 08:50:01 16.6 C 11.44 g/m*3 16.6 C 0 km/h
1125 09-06-2008 09:02:02 17.3 C 11.64 g/m*3 17.3 C 0 km/h
Sensor: Nr:Datum:Temp:Abs-Feuchte:Windchill:Wind:
Aussen-T/F 1126 09-06-2008 09:14:02 18 C 11.67 g/m*3 18 C 0 km/h
1127 09-06-2008 09:26:01 18.8 C 11.76 g/m*3 18.8 C 0 km/h
1128 09-06-2008 09:38:01 19.5 C 11.41 g/m*3 19.5 C 0 km/h
1129 09-06-2008 09:50:01 20.2 C 11.19 g/m*3 20.2 C 0 km/h
1130 09-06-2008 10:02:02 20.8 C 10.68 g/m*3 20.8 C 0 km/h
1131 09-06-2008 10:14:02 21.4 C 10.69 g/m*3 21.4 C 0 km/h
1132 09-06-2008 10:26:01 22.1 C 10.35 g/m*3 22.1 C 0 km/h
1133 09-06-2008 10:38:01 22.8 C 10.16 g/m*3 22.8 C 0 km/h
1134 09-06-2008 10:50:01 23.3 C 9.62 g/m*3 23.3 C 0 km/h
1135 09-06-2008 11:02:02 24 C 9.57 g/m*3 24 C 0 km/h
1136 09-06-2008 11:14:02 24.1 C 8.53 g/m*3 24.1 C 0 km/h
1137 09-06-2008 11:26:01 25 C 8.52 g/m*3 25 C 0 km/h
1138 09-06-2008 11:38:01 26.1 C 8.32 g/m*3 26.1 C 0 km/h
1139 09-06-2008 11:50:01 26.6 C 8.31 g/m*3 26.6 C 0 km/h
1140 09-06-2008 12:02:02 27.2 C 8.07 g/m*3 27.2 C 0 km/h
1141 09-06-2008 12:14:02 27.3 C 7.85 g/m*3 27.3 C 0 km/h
1142 09-06-2008 12:26:01 27.4 C 7.89 g/m*3 27.4 C 0 km/h
1143 09-06-2008 12:38:01 27.9 C 7.3 g/m*3 27.9 C 0 km/h
1144 09-06-2008 12:50:01 29.3 C 7.59 g/m*3 29.3 C 0 km/h
1145 09-06-2008 13:02:02 29.8 C 6.9 g/m*3 29.8 C 0 km/h
1146 09-06-2008 13:14:02 30.4 C 7.13 g/m*3 30.4 C 0 km/h
1147 09-06-2008 13:26:01 30.4 C 6.82 g/m*3 30.4 C 0 km/h
1148 09-06-2008 13:38:01 30.3 C 7.09 g/m*3 30.3 C 0 km/h
1149 09-06-2008 13:50:01 30 C 6.97 g/m*3 30 C 0 km/h
1150 09-06-2008 14:02:02 29 C 8.04 g/m*3 29 C 0 km/h
Sensor: Nr:Datum:Temp:Abs-Feuchte:Windchill:Wind:
Aussen-T/F 1151 09-06-2008 14:14:02 28.9 C 8.57 g/m*3 28.9 C 0 km/h
1152 09-06-2008 14:26:01 28.2 C 7.7 g/m*3 28.2 C 0 km/h
1153 09-06-2008 14:38:01 29.4 C 7.93 g/m*3 29.4 C 0 km/h
1154 09-06-2008 14:50:01 30.1 C 7.32 g/m*3 30.1 C 0 km/h
1155 09-06-2008 15:02:02 30.5 C 6.54 g/m*3 30.5 C 0 km/h
1156 09-06-2008 15:14:02 30.1 C 7.01 g/m*3 30.1 C 0 km/h
1157 09-06-2008 15:26:01 30.3 C 6.47 g/m*3 30.3 C 0 km/h
1158 09-06-2008 15:38:01 31.2 C 6.47 g/m*3 31.2 C 0 km/h
1159 09-06-2008 15:50:01 30.9 C 6.37 g/m*3 30.9 C 0 km/h
1160 09-06-2008 16:02:02 30.1 C 6.1 g/m*3 30.1 C 0 km/h
1161 09-06-2008 16:14:02 30.2 C 6.44 g/m*3 30.2 C 0 km/h
1162 09-06-2008 16:26:01 30.4 C 6.2 g/m*3 30.4 C 0 km/h
1163 09-06-2008 16:38:01 30.7 C 6.3 g/m*3 30.7 C 0 km/h
1164 09-06-2008 16:50:01 31.4 C 6.54 g/m*3 31.4 C 0 km/h
1165 09-06-2008 17:02:02 31 C 6.4 g/m*3 31 C 0 km/h
1166 09-06-2008 17:14:02 31.4 C 6.54 g/m*3 31.4 C 0 km/h
1167 09-06-2008 17:26:01 31.8 C 6.68 g/m*3 31.8 C 0 km/h
1168 09-06-2008 17:38:01 31.9 C 6.72 g/m*3 31.9 C 0 km/h
1169 09-06-2008 17:50:01 31.5 C 6.57 g/m*3 31.5 C 0 km/h
1170 09-06-2008 18:02:02 31 C 6.4 g/m*3 31 C 0 km/h
1171 09-06-2008 18:14:02 31.4 C 6.54 g/m*3 31.4 C 0 km/h
1172 09-06-2008 18:26:02 30.9 C 6.37 g/m*3 30.9 C 0 km/h
1173 09-06-2008 18:38:01 31.4 C 6.54 g/m*3 31.4 C 0 km/h
1174 09-06-2008 18:50:01 32 C 6.75 g/m*3 32 C 0 km/h
1175 09-06-2008 19:02:01 31.8 C 6.68 g/m*3 31.8 C 0 km/h
Sensor: Nr:Datum:Temp:Abs-Feuchte:Windchill:Wind:
Aussen-T/F 1176 09-06-2008 19:14:01 31.4 C 6.54 g/m*3 31.4 C 0 km/h
1177 09-06-2008 19:26:02 30.6 C 6.26 g/m*3 30.6 C 0 km/h
1178 09-06-2008 19:38:01 30.6 C 6.26 g/m*3 30.6 C 0 km/h
1179 09-06-2008 19:50:01 30.6 C 6.26 g/m*3 30.6 C 0 km/h
1180 09-06-2008 20:02:01 30.4 C 6.2 g/m*3 30.4 C 0 km/h
1181 09-06-2008 20:14:01 29.7 C 6.27 g/m*3 29.7 C 0 km/h
1182 09-06-2008 20:26:02 29.2 C 5.81 g/m*3 29.2 C 0 km/h
1183 09-06-2008 20:38:01 28.6 C 6.18 g/m*3 28.6 C 0 km/h
1184 09-06-2008 20:50:01 28.3 C 6.63 g/m*3 28.3 C 0 km/h
1185 09-06-2008 21:02:01 27.2 C 6.51 g/m*3 27.2 C 0 km/h
1186 09-06-2008 21:14:01 26.5 C 6.76 g/m*3 26.5 C 0 km/h
1187 09-06-2008 21:26:02 25.7 C 6.7 g/m*3 25.7 C 0 km/h
1188 09-06-2008 21:38:01 25.4 C 7.3 g/m*3 25.4 C 0 km/h
1189 09-06-2008 21:50:01 24.6 C 7.2 g/m*3 24.6 C 0 km/h
1190 09-06-2008 22:02:01 23.9 C 7.79 g/m*3 23.9 C 0 km/h
1191 09-06-2008 22:14:01 23.4 C 7.57 g/m*3 23.4 C 0 km/h
1192 09-06-2008 22:27:02 23.2 C 7.28 g/m*3 23.2 C 0 km/h
1193 09-06-2008 22:39:02 23 C 7.4 g/m*3 23 C 0 km/h
1194 09-06-2008 22:51:02 22.6 C 7.63 g/m*3 22.6 C 0 km/h
1195 09-06-2008 23:03:02 22.2 C 7.46 g/m*3 22.2 C 0 km/h
1196 09-06-2008 23:15:02 21.8 C 7.67 g/m*3 21.8 C 0 km/h
1197 09-06-2008 23:27:02 21.6 C 7.78 g/m*3 21.6 C 0 km/h
1198 09-06-2008 23:39:02 21.4 C 7.87 g/m*3 21.4 C 0 km/h
1199 09-06-2008 23:51:02 21.1 C 7.92 g/m*3 21.1 C 0 km/h
1200 10-06-2008 00:03:02 21 C 7.88 g/m*3 21 C 0 km/h
Sensor: Nr:Datum:Temp:Abs-Feuchte:Windchill:Wind:
Aussen-T/F 1201 10-06-2008 00:15:02 20.8 C 8.33 g/m*3 20.8 C 0 km/h
1202 10-06-2008 00:27:02 20.5 C 8.36 g/m*3 20.5 C 0 km/h
1203 10-06-2008 00:39:02 20.2 C 8.22 g/m*3 20.2 C 0 km/h
1204 10-06-2008 00:51:02 19.7 C 8.49 g/m*3 19.7 C 0 km/h
1205 10-06-2008 01:03:02 19.5 C 8.39 g/m*3 19.5 C 0 km/h
1206 10-06-2008 01:15:02 19.2 C 8.41 g/m*3 19.2 C 0 km/h
1207 10-06-2008 01:27:02 18.8 C 8.86 g/m*3 18.8 C 0 km/h
1208 10-06-2008 01:39:02 18.4 C 8.97 g/m*3 18.4 C 0 km/h
1209 10-06-2008 01:51:02 18.3 C 8.76 g/m*3 18.3 C 0 km/h
1210 10-06-2008 02:03:02 18.3 C 8.76 g/m*3 18.3 C 0 km/h
1211 10-06-2008 02:15:03 17.8 C 8.95 g/m*3 17.8 C 0 km/h
1212 10-06-2008 02:27:03 17.7 C 9.05 g/m*3 17.7 C 0 km/h
1213 10-06-2008 02:39:03 17.7 C 9.05 g/m*3 17.7 C 0 km/h
1214 10-06-2008 02:51:03 17.3 C 9.13 g/m*3 17.3 C 0 km/h
1215 10-06-2008 03:03:03 17 C 8.97 g/m*3 17 C 0 km/h
1216 10-06-2008 03:15:03 17 C 8.97 g/m*3 17 C 0 km/h
1217 10-06-2008 03:27:03 16.9 C 9.06 g/m*3 16.9 C 0 km/h
1218 10-06-2008 03:39:03 16.8 C 9.15 g/m*3 16.8 C 0 km/h
1219 10-06-2008 03:51:03 16.6 C 9.18 g/m*3 16.6 C 0 km/h
1220 10-06-2008 04:03:03 16.3 C 9.16 g/m*3 16.3 C 0 km/h
1221 10-06-2008 04:15:03 16.1 C 9.05 g/m*3 16.1 C 0 km/h
1222 10-06-2008 04:27:03 15.7 C 9.37 g/m*3 15.7 C 0 km/h
1223 10-06-2008 04:39:03 15.6 C 9.44 g/m*3 15.6 C 0 km/h
1224 10-06-2008 04:51:03 15.6 C 9.44 g/m*3 15.6 C 0 km/h
1225 10-06-2008 05:03:03 15.4 C 9.33 g/m*3 15.4 C 0 km/h
Sensor: Nr:Datum:Temp:Abs-Feuchte:Windchill:Wind:
Aussen-T/F 1226 10-06-2008 05:15:03 15.4 C 9.33 g/m*3 15.4 C 0 km/h
1227 10-06-2008 05:27:03 15.1 C 9.42 g/m*3 15.1 C 0 km/h
1228 10-06-2008 05:39:03 15 C 9.36 g/m*3 15 C 0 km/h
1229 10-06-2008 05:51:03 15 C 9.36 g/m*3 15 C 0 km/h
1230 10-06-2008 06:03:03 15.1 C 9.42 g/m*3 15.1 C 0 km/h
1231 10-06-2008 06:15:04 15 C 9.49 g/m*3 15 C 0 km/h
1232 10-06-2008 06:27:04 15.2 C 9.61 g/m*3 15.2 C 0 km/h
1233 10-06-2008 06:39:04 15.2 C 9.61 g/m*3 15.2 C 0 km/h
1234 10-06-2008 06:51:04 15 C 9.62 g/m*3 15 C 0 km/h
1235 10-06-2008 07:03:02 15.1 C 9.68 g/m*3 15.1 C 0 km/h
1236 10-06-2008 07:15:02 15.2 C 9.73 g/m*3 15.2 C 0 km/h
1237 10-06-2008 07:27:02 15.6 C 9.84 g/m*3 15.6 C 0 km/h
1238 10-06-2008 07:39:01 15.8 C 9.69 g/m*3 15.8 C 0 km/h
1239 10-06-2008 07:51:01 16.2 C 9.93 g/m*3 16.2 C 0 km/h
1240 10-06-2008 08:03:02 16.5 C 9.83 g/m*3 16.5 C 0 km/h
1241 10-06-2008 08:15:02 16.7 C 9.81 g/m*3 16.7 C 0 km/h
1242 10-06-2008 08:27:03 16.9 C 9.78 g/m*3 16.9 C 0 km/h
1243 10-06-2008 08:39:01 17.5 C 9.99 g/m*3 17.5 C 0 km/h
1244 10-06-2008 08:51:01 17.9 C 10.23 g/m*3 17.9 C 0 km/h
1245 10-06-2008 09:03:02 18.6 C 10.19 g/m*3 18.6 C 0 km/h
1246 10-06-2008 09:15:02 19.1 C 10.16 g/m*3 19.1 C 0 km/h
1247 10-06-2008 09:27:03 19.6 C 10.13 g/m*3 19.6 C 0 km/h
1248 10-06-2008 09:39:01 20.4 C 9.91 g/m*3 20.4 C 0 km/h
1249 10-06-2008 09:51:01 21.5 C 9.99 g/m*3 21.5 C 0 km/h
1250 10-06-2008 10:03:02 22 C 9.9 g/m*3 22 C 0 km/h
Sensor: Nr:Datum:Temp:Abs-Feuchte:Windchill:Wind:
Aussen-T/F 1251 10-06-2008 10:15:02 22.6 C 9.84 g/m*3 22.6 C 0 km/h
1252 10-06-2008 10:27:03 23.5 C 9.94 g/m*3 23.5 C 0 km/h
1253 10-06-2008 10:39:01 24 C 9.57 g/m*3 24 C 0 km/h
1254 10-06-2008 10:51:02 24.6 C 9.23 g/m*3 24.6 C 0 km/h
1255 10-06-2008 11:03:02 25.3 C 9.13 g/m*3 25.3 C 0 km/h
1256 10-06-2008 11:15:02 25.6 C 8.57 g/m*3 25.6 C 0 km/h
1257 10-06-2008 11:27:02 26.3 C 8.91 g/m*3 26.3 C 0 km/h
1258 10-06-2008 11:39:02 26.8 C 8.4 g/m*3 26.8 C 0 km/h
1259 10-06-2008 11:51:02 27.6 C 8.25 g/m*3 27.6 C 0 km/h
1260 10-06-2008 12:03:02 28.1 C 8.2 g/m*3 28.1 C 0 km/h
1261 10-06-2008 12:15:01 28.5 C 7.55 g/m*3 28.5 C 0 km/h
1262 10-06-2008 12:27:01 29.8 C 7.8 g/m*3 29.8 C 0 km/h
1263 10-06-2008 12:39:02 30.6 C 7.2 g/m*3 30.6 C 0 km/h
1264 10-06-2008 12:51:03 30.7 C 6.61 g/m*3 30.7 C 0 km/h
1265 10-06-2008 13:03:02 30.3 C 6.47 g/m*3 30.3 C 0 km/h
1266 10-06-2008 13:15:02 30.4 C 6.51 g/m*3 30.4 C 0 km/h
1267 10-06-2008 13:27:02 30.4 C 6.2 g/m*3 30.4 C 0 km/h
1268 10-06-2008 13:39:03 31.2 C 6.47 g/m*3 31.2 C 0 km/h
1269 10-06-2008 13:51:02 31.4 C 6.54 g/m*3 31.4 C 0 km/h
1270 10-06-2008 14:03:02 30 C 6.06 g/m*3 30 C 0 km/h
1271 10-06-2008 14:15:01 30 C 6.37 g/m*3 30 C 0 km/h
1272 10-06-2008 14:27:01 30 C 6.06 g/m*3 30 C 0 km/h
1273 10-06-2008 14:39:02 29.5 C 5.9 g/m*3 29.5 C 0 km/h
1274 10-06-2008 14:51:02 30.2 C 6.13 g/m*3 30.2 C 0 km/h
1275 10-06-2008 15:03:02 30.3 C 6.16 g/m*3 30.3 C 0 km/h
Sensor: Nr:Datum:Temp:Abs-Feuchte:Windchill:Wind:
Aussen-T/F 1276 10-06-2008 15:15:03 30.2 C 6.44 g/m*3 30.2 C 0 km/h
1277 10-06-2008 15:27:03 30.6 C 6.26 g/m*3 30.6 C 0 km/h
1278 10-06-2008 15:39:02 30.7 C 6.3 g/m*3 30.7 C 0 km/h
1279 10-06-2008 15:51:02 30.7 C 6.3 g/m*3 30.7 C 0 km/h
1280 10-06-2008 16:03:01 30.9 C 6.37 g/m*3 30.9 C 0 km/h
1281 10-06-2008 16:15:02 30.5 C 6.23 g/m*3 30.5 C 0 km/h
1282 10-06-2008 16:27:02 30.7 C 6.3 g/m*3 30.7 C 0 km/h
1283 10-06-2008 16:39:02 31 C 6.4 g/m*3 31 C 0 km/h
1284 10-06-2008 16:51:02 31.2 C 6.47 g/m*3 31.2 C 0 km/h
1285 10-06-2008 17:03:02 31 C 6.4 g/m*3 31 C 0 km/h
1286 10-06-2008 17:15:02 30.6 C 6.58 g/m*3 30.6 C 0 km/h
1287 10-06-2008 17:27:02 31 C 6.72 g/m*3 31 C 0 km/h
1288 10-06-2008 17:39:02 30.6 C 6.58 g/m*3 30.6 C 0 km/h
1289 10-06-2008 17:51:01 30.6 C 6.58 g/m*3 30.6 C 0 km/h
1290 10-06-2008 18:03:01 30.3 C 6.78 g/m*3 30.3 C 0 km/h
1291 10-06-2008 18:15:02 30.6 C 6.58 g/m*3 30.6 C 0 km/h
1292 10-06-2008 18:27:02 31.2 C 6.47 g/m*3 31.2 C 0 km/h
1293 10-06-2008 18:39:01 30.6 C 6.26 g/m*3 30.6 C 0 km/h
1294 10-06-2008 18:51:02 30.3 C 6.47 g/m*3 30.3 C 0 km/h
1295 10-06-2008 19:03:01 30.3 C 6.47 g/m*3 30.3 C 0 km/h
1296 10-06-2008 19:15:02 30.3 C 6.16 g/m*3 30.3 C 0 km/h
1297 10-06-2008 19:27:02 29.4 C 6.46 g/m*3 29.4 C 0 km/h
1298 10-06-2008 19:39:02 29.1 C 7.22 g/m*3 29.1 C 0 km/h
1299 10-06-2008 19:51:02 29.6 C 7.42 g/m*3 29.6 C 0 km/h
1300 10-06-2008 20:03:02 29.4 C 7.34 g/m*3 29.4 C 0 km/h
Sensor: Nr:Datum:Temp:Abs-Feuchte:Windchill:Wind:
Aussen-T/F 1301 10-06-2008 20:15:02 29 C 7.18 g/m*3 29 C 0 km/h
1302 10-06-2008 20:27:02 28.7 C 7.63 g/m*3 28.7 C 0 km/h
1303 10-06-2008 20:39:02 27.2 C 7.81 g/m*3 27.2 C 0 km/h
1304 10-06-2008 20:51:02 26.8 C 7.89 g/m*3 26.8 C 0 km/h
1305 10-06-2008 21:03:02 26.6 C 8.05 g/m*3 26.6 C 0 km/h
1306 10-06-2008 21:15:03 26.1 C 8.08 g/m*3 26.1 C 0 km/h
1307 10-06-2008 21:27:03 25.2 C 8.15 g/m*3 25.2 C 0 km/h
1308 10-06-2008 21:39:02 24.9 C 8.47 g/m*3 24.9 C 0 km/h
1309 10-06-2008 21:51:01 24.6 C 8.78 g/m*3 24.6 C 0 km/h
1310 10-06-2008 22:03:02 24.2 C 8.58 g/m*3 24.2 C 0 km/h
1311 10-06-2008 22:15:02 23.9 C 8.87 g/m*3 23.9 C 0 km/h
1312 10-06-2008 22:27:02 23.5 C 9.09 g/m*3 23.5 C 0 km/h
1313 10-06-2008 22:39:01 23.1 C 9.3 g/m*3 23.1 C 0 km/h
1314 10-06-2008 22:51:02 22.8 C 9.75 g/m*3 22.8 C 0 km/h
1315 10-06-2008 23:03:02 22.6 C 9.84 g/m*3 22.6 C 0 km/h
1316 10-06-2008 23:16:02 22.5 C 9.79 g/m*3 22.5 C 0 km/h
1317 10-06-2008 23:28:02 22.6 C 10.04 g/m*3 22.6 C 0 km/h
1318 10-06-2008 23:40:02 22 C 9.7 g/m*3 22 C 0 km/h
1319 10-06-2008 23:52:02 21.7 C 9.73 g/m*3 21.7 C 0 km/h
1320 11-06-2008 00:04:03 21.3 C 9.69 g/m*3 21.3 C 0 km/h
1321 11-06-2008 00:16:03 20.9 C 9.83 g/m*3 20.9 C 0 km/h
1322 11-06-2008 00:28:03 20.8 C 9.96 g/m*3 20.8 C 0 km/h
1323 11-06-2008 00:40:03 20.7 C 9.9 g/m*3 20.7 C 0 km/h
1324 11-06-2008 00:52:03 20.3 C 9.85 g/m*3 20.3 C 0 km/h
1325 11-06-2008 01:04:03 20 C 9.68 g/m*3 20 C 0 km/h
Sensor: Nr:Datum:Temp:Abs-Feuchte:Windchill:Wind:
Aussen-T/F 1326 11-06-2008 01:16:03 19.8 C 9.74 g/m*3 19.8 C 0 km/h
1327 11-06-2008 01:28:03 19.6 C 9.45 g/m*3 19.6 C 0 km/h
1328 11-06-2008 01:40:03 19.5 C 9.4 g/m*3 19.5 C 0 km/h
1329 11-06-2008 01:52:03 19.1 C 9.34 g/m*3 19.1 C 0 km/h
1330 11-06-2008 02:04:03 18.9 C 9.4 g/m*3 18.9 C 0 km/h
1331 11-06-2008 02:16:03 18.7 C 9.29 g/m*3 18.7 C 0 km/h
1332 11-06-2008 02:28:03 18.5 C 9.18 g/m*3 18.5 C 0 km/h
1333 11-06-2008 02:40:03 18.3 C 9.07 g/m*3 18.3 C 0 km/h
1334 11-06-2008 02:52:03 18.1 C 8.96 g/m*3 18.1 C 0 km/h
1335 11-06-2008 03:04:03 17.9 C 9.01 g/m*3 17.9 C 0 km/h
1336 11-06-2008 03:16:03 17.6 C 8.85 g/m*3 17.6 C 0 km/h
1337 11-06-2008 03:28:03 17.4 C 8.89 g/m*3 17.4 C 0 km/h
1338 11-06-2008 03:40:03 16.8 C 8.72 g/m*3 16.8 C 0 km/h
1339 11-06-2008 03:52:04 16.5 C 8.57 g/m*3 16.5 C 0 km/h
1340 11-06-2008 04:04:04 16.4 C 8.51 g/m*3 16.4 C 0 km/h
1341 11-06-2008 04:16:04 16.2 C 8.41 g/m*3 16.2 C 0 km/h
1342 11-06-2008 04:28:04 16.2 C 8.41 g/m*3 16.2 C 0 km/h
1343 11-06-2008 04:40:04 16 C 8.31 g/m*3 16 C 0 km/h
1344 11-06-2008 04:52:04 16.1 C 8.36 g/m*3 16.1 C 0 km/h
1345 11-06-2008 05:04:04 15.9 C 8.26 g/m*3 15.9 C 0 km/h
1346 11-06-2008 05:16:04 15.4 C 8.28 g/m*3 15.4 C 0 km/h
1347 11-06-2008 05:28:04 15 C 8.21 g/m*3 15 C 0 km/h
1348 11-06-2008 05:40:04 14.8 C 8.23 g/m*3 14.8 C 0 km/h
1349 11-06-2008 05:52:04 15 C 8.08 g/m*3 15 C 0 km/h
1350 11-06-2008 06:04:04 14.9 C 8.16 g/m*3 14.9 C 0 km/h
Sensor: Nr:Datum:Temp:Abs-Feuchte:Windchill:Wind:
Aussen-T/F 1351 11-06-2008 06:16:04 15 C 8.21 g/m*3 15 C 0 km/h
1352 11-06-2008 06:28:04 15 C 8.21 g/m*3 15 C 0 km/h
1353 11-06-2008 06:40:04 15 C 8.21 g/m*3 15 C 0 km/h
1354 11-06-2008 06:52:04 15 C 8.21 g/m*3 15 C 0 km/h
1355 11-06-2008 07:04:04 15.2 C 8.05 g/m*3 15.2 C 0 km/h
1356 11-06-2008 07:16:04 15.1 C 8 g/m*3 15.1 C 0 km/h
1357 11-06-2008 07:28:04 14.9 C 8.16 g/m*3 14.9 C 0 km/h
1358 11-06-2008 07:40:04 14.8 C 8.23 g/m*3 14.8 C 0 km/h
1359 11-06-2008 07:52:05 15.3 C 8.1 g/m*3 15.3 C 0 km/h
1360 11-06-2008 08:04:05 15.2 C 7.92 g/m*3 15.2 C 0 km/h
1361 11-06-2008 08:16:05 15.1 C 8 g/m*3 15.1 C 0 km/h
1362 11-06-2008 08:28:05 15.4 C 8.01 g/m*3 15.4 C 0 km/h
1363 11-06-2008 08:40:05 15.6 C 7.58 g/m*3 15.6 C 0 km/h
1364 11-06-2008 08:52:05 15.7 C 7.63 g/m*3 15.7 C 0 km/h
1365 11-06-2008 09:04:05 16 C 7.49 g/m*3 16 C 0 km/h
1366 11-06-2008 09:16:05 15.9 C 7.45 g/m*3 15.9 C 0 km/h
1367 11-06-2008 09:28:05 15.8 C 7.27 g/m*3 15.8 C 0 km/h
1368 11-06-2008 09:40:03 16.6 C 7.35 g/m*3 16.6 C 0 km/h
1369 11-06-2008 09:52:02 16.7 C 6.96 g/m*3 16.7 C 0 km/h
1370 11-06-2008 10:04:02 16.3 C 6.66 g/m*3 16.3 C 0 km/h
1371 11-06-2008 10:16:02 17 C 6.8 g/m*3 17 C 0 km/h
1372 11-06-2008 10:28:02 17.5 C 6.86 g/m*3 17.5 C 0 km/h
1373 11-06-2008 10:40:02 18.1 C 6.64 g/m*3 18.1 C 0 km/h
1374 11-06-2008 10:52:02 18.7 C 6.72 g/m*3 18.7 C 0 km/h
1375 11-06-2008 11:04:02 18.4 C 6.29 g/m*3 18.4 C 0 km/h
Sensor: Nr:Datum:Temp:Abs-Feuchte:Windchill:Wind:
Aussen-T/F 1376 11-06-2008 11:16:01 19.8 C 6.15 g/m*3 19.8 C 0 km/h
1377 11-06-2008 11:28:01 20.2 C 5.94 g/m*3 20.2 C 0 km/h
1378 11-06-2008 11:40:02 19.4 C 6.01 g/m*3 19.4 C 0 km/h
1379 11-06-2008 11:52:01 20.5 C 5.87 g/m*3 20.5 C 0 km/h
1380 11-06-2008 12:04:02 20.6 C 6.09 g/m*3 20.6 C 0 km/h
1381 11-06-2008 12:16:01 21 C 5.86 g/m*3 21 C 0 km/h
1382 11-06-2008 12:28:01 21.5 C 5.66 g/m*3 21.5 C 0 km/h
1383 11-06-2008 12:40:01 20.8 C 5.79 g/m*3 20.8 C 0 km/h
1384 11-06-2008 12:52:01 20.9 C 5.83 g/m*3 20.9 C 0 km/h
1385 11-06-2008 13:04:02 21 C 5.5 g/m*3 21 C 0 km/h
1386 11-06-2008 13:16:02 21.5 C 6.03 g/m*3 21.5 C 0 km/h
1387 11-06-2008 13:28:02 21.2 C 5.74 g/m*3 21.2 C 0 km/h
1388 11-06-2008 13:40:01 21.5 C 6.22 g/m*3 21.5 C 0 km/h
1389 11-06-2008 13:52:02 21.5 C 5.85 g/m*3 21.5 C 0 km/h
1390 11-06-2008 14:04:01 21.8 C 5.37 g/m*3 21.8 C 0 km/h
1391 11-06-2008 14:16:02 21.8 C 5.37 g/m*3 21.8 C 0 km/h
1392 11-06-2008 14:28:02 22.2 C 4.91 g/m*3 22.2 C 0 km/h
1393 11-06-2008 14:40:02 23.1 C 5.37 g/m*3 23.1 C 0 km/h
1394 11-06-2008 14:52:04 22 C 5.05 g/m*3 22 C 0 km/h
1395 11-06-2008 15:04:03 22.9 C 5.11 g/m*3 22.9 C 0 km/h
1396 11-06-2008 15:16:02 22.5 C 5.39 g/m*3 22.5 C 0 km/h
1397 11-06-2008 15:28:02 22.3 C 5.13 g/m*3 22.3 C 0 km/h
1398 11-06-2008 15:40:03 22.3 C 5.53 g/m*3 22.3 C 0 km/h
1399 11-06-2008 15:52:02 21.2 C 5.56 g/m*3 21.2 C 0 km/h
1400 11-06-2008 16:04:02 21.5 C 5.85 g/m*3 21.5 C 0 km/h
Sensor: Nr:Datum:Temp:Abs-Feuchte:Windchill:Wind:
Aussen-T/F 1401 11-06-2008 16:16:02 20.8 C 5.98 g/m*3 20.8 C 0 km/h
1402 11-06-2008 16:28:02 20.2 C 5.94 g/m*3 20.2 C 0 km/h
1403 11-06-2008 16:40:01 20.4 C 6.01 g/m*3 20.4 C 0 km/h
1404 11-06-2008 16:52:02 21.1 C 5.9 g/m*3 21.1 C 0 km/h
1405 11-06-2008 17:04:01 20.8 C 5.79 g/m*3 20.8 C 0 km/h
1406 11-06-2008 17:16:02 21.6 C 5.88 g/m*3 21.6 C 0 km/h
1407 11-06-2008 17:28:02 21 C 5.86 g/m*3 21 C 0 km/h
1408 11-06-2008 17:40:02 21.1 C 5.9 g/m*3 21.1 C 0 km/h
1409 11-06-2008 17:52:02 21.7 C 6.1 g/m*3 21.7 C 0 km/h
1410 11-06-2008 18:04:01 22.1 C 6.05 g/m*3 22.1 C 0 km/h
1411 11-06-2008 18:16:01 21.7 C 5.91 g/m*3 21.7 C 0 km/h
1412 11-06-2008 18:28:01 20.8 C 6.34 g/m*3 20.8 C 0 km/h
1413 11-06-2008 18:40:02 20.3 C 6.16 g/m*3 20.3 C 0 km/h
1414 11-06-2008 18:52:02 20 C 6.39 g/m*3 20 C 0 km/h
1415 11-06-2008 19:04:02 20.3 C 6.33 g/m*3 20.3 C 0 km/h
1416 11-06-2008 19:16:02 19.5 C 6.21 g/m*3 19.5 C 0 km/h
1417 11-06-2008 19:28:02 19.5 C 6.38 g/m*3 19.5 C 0 km/h
1418 11-06-2008 19:40:02 20.7 C 6.48 g/m*3 20.7 C 0 km/h
1419 11-06-2008 19:52:02 19.8 C 6.49 g/m*3 19.8 C 0 km/h
1420 11-06-2008 20:04:02 19.6 C 6.75 g/m*3 19.6 C 0 km/h
1421 11-06-2008 20:16:02 18.9 C 6.8 g/m*3 18.9 C 0 km/h
1422 11-06-2008 20:28:02 18.3 C 6.88 g/m*3 18.3 C 0 km/h
1423 11-06-2008 20:40:01 18.2 C 6.84 g/m*3 18.2 C 0 km/h
1424 11-06-2008 20:52:01 18.2 C 6.68 g/m*3 18.2 C 0 km/h
1425 11-06-2008 21:04:02 17.7 C 6.49 g/m*3 17.7 C 0 km/h
Sensor: Nr:Datum:Temp:Abs-Feuchte:Windchill:Wind:
Aussen-T/F 1426 11-06-2008 21:16:02 17.6 C 6.45 g/m*3 17.6 C 0 km/h
1427 11-06-2008 21:28:02 17.5 C 6.56 g/m*3 17.5 C 0 km/h
1428 11-06-2008 21:40:01 17.1 C 6.26 g/m*3 17.1 C 0 km/h
1429 11-06-2008 21:52:01 16.8 C 6.15 g/m*3 16.8 C 0 km/h
1430 11-06-2008 22:04:02 16.5 C 6.04 g/m*3 16.5 C 0 km/h
1431 11-06-2008 22:16:02 16.1 C 5.89 g/m*3 16.1 C 0 km/h
1432 11-06-2008 22:28:02 16 C 5.86 g/m*3 16 C 0 km/h
1433 11-06-2008 22:41:02 15.9 C 5.96 g/m*3 15.9 C 0 km/h
1434 11-06-2008 22:53:02 15.8 C 5.92 g/m*3 15.8 C 0 km/h
1435 11-06-2008 23:05:03 15.8 C 5.65 g/m*3 15.8 C 0 km/h
1436 11-06-2008 23:17:03 15.7 C 5.62 g/m*3 15.7 C 0 km/h
1437 11-06-2008 23:29:03 15.3 C 5.62 g/m*3 15.3 C 0 km/h
1438 11-06-2008 23:41:03 14.8 C 5.7 g/m*3 14.8 C 0 km/h
1439 11-06-2008 23:53:03 14.6 C 5.76 g/m*3 14.6 C 0 km/h
1440 12-06-2008 00:05:03 14.1 C 5.7 g/m*3 14.1 C 0 km/h
1441 12-06-2008 00:17:03 14.1 C 5.83 g/m*3 14.1 C 0 km/h
1442 12-06-2008 00:29:03 14 C 5.79 g/m*3 14 C 0 km/h
1443 12-06-2008 00:41:03 13.9 C 5.99 g/m*3 13.9 C 0 km/h
1444 12-06-2008 00:53:03 13.7 C 6.04 g/m*3 13.7 C 0 km/h
1445 12-06-2008 01:05:03 13.7 C 6.04 g/m*3 13.7 C 0 km/h
1446 12-06-2008 01:17:03 13.5 C 6.08 g/m*3 13.5 C 0 km/h
1447 12-06-2008 01:29:03 13.2 C 6.09 g/m*3 13.2 C 0 km/h
1448 12-06-2008 01:41:03 13.1 C 6.16 g/m*3 13.1 C 0 km/h
1449 12-06-2008 01:53:03 12.9 C 6.31 g/m*3 12.9 C 0 km/h
1450 12-06-2008 02:05:03 12.7 C 6.35 g/m*3 12.7 C 0 km/h
Sensor: Nr:Datum:Temp:Abs-Feuchte:Windchill:Wind:
Aussen-T/F 1451 12-06-2008 02:17:03 12.5 C 6.38 g/m*3 12.5 C 0 km/h
1452 12-06-2008 02:29:03 12.4 C 6.45 g/m*3 12.4 C 0 km/h
1453 12-06-2008 02:41:03 12.2 C 6.47 g/m*3 12.2 C 0 km/h
1454 12-06-2008 02:53:04 11.8 C 6.63 g/m*3 11.8 C 0 km/h
1455 12-06-2008 03:05:04 11.5 C 6.61 g/m*3 11.5 C 0 km/h
1456 12-06-2008 03:17:04 11.3 C 6.73 g/m*3 11.3 C 0 km/h
1457 12-06-2008 03:29:04 11.2 C 6.79 g/m*3 11.2 C 0 km/h
1458 12-06-2008 03:41:04 11 C 6.81 g/m*3 11 C 0 km/h
1459 12-06-2008 03:53:04 10.9 C 6.86 g/m*3 10.9 C 0 km/h
1460 12-06-2008 04:05:04 10.8 C 6.92 g/m*3 10.8 C 0 km/h
1461 12-06-2008 04:17:04 10.6 C 6.73 g/m*3 10.6 C 0 km/h
1462 12-06-2008 04:29:04 10.4 C 6.84 g/m*3 10.4 C 0 km/h
1463 12-06-2008 04:41:04 10.2 C 6.76 g/m*3 10.2 C 0 km/h
1464 12-06-2008 04:53:04 10 C 6.77 g/m*3 10 C 0 km/h
1465 12-06-2008 05:05:04 9.8 C 6.87 g/m*3 9.8 C 0 km/h
1466 12-06-2008 05:17:04 9.8 C 6.87 g/m*3 9.8 C 0 km/h
1467 12-06-2008 05:29:04 9.7 C 6.91 g/m*3 9.7 C 0 km/h
1468 12-06-2008 05:41:04 9.6 C 6.87 g/m*3 9.6 C 0 km/h
1469 12-06-2008 05:53:04 9.4 C 6.87 g/m*3 9.4 C 0 km/h
1470 12-06-2008 06:05:04 9.3 C 6.92 g/m*3 9.3 C 0 km/h
1471 12-06-2008 06:17:04 9.4 C 7.05 g/m*3 9.4 C 0 km/h
1472 12-06-2008 06:29:04 9.5 C 7.1 g/m*3 9.5 C 0 km/h
1473 12-06-2008 06:41:04 9.6 C 7.15 g/m*3 9.6 C 0 km/h
1474 12-06-2008 06:53:05 10 C 7.05 g/m*3 10 C 0 km/h
1475 12-06-2008 07:05:02 10 C 7.14 g/m*3 10 C 0 km/h
Sensor: Nr:Datum:Temp:Abs-Feuchte:Windchill:Wind:
Aussen-T/F 1476 12-06-2008 07:17:03 10.4 C 7.13 g/m*3 10.4 C 0 km/h
1477 12-06-2008 07:29:03 10.7 C 7.07 g/m*3 10.7 C 0 km/h
1478 12-06-2008 07:41:02 10.4 C 7.13 g/m*3 10.4 C 0 km/h
1479 12-06-2008 07:53:02 10.8 C 7.12 g/m*3 10.8 C 0 km/h
1480 12-06-2008 08:05:01 11.4 C 7.08 g/m*3 11.4 C 0 km/h
1481 12-06-2008 08:17:02 11.9 C 6.99 g/m*3 11.9 C 0 km/h
1482 12-06-2008 08:29:02 12.5 C 6.93 g/m*3 12.5 C 0 km/h
1483 12-06-2008 08:41:02 12.9 C 6.88 g/m*3 12.9 C 0 km/h
1484 12-06-2008 08:53:02 13.2 C 6.77 g/m*3 13.2 C 0 km/h
1485 12-06-2008 09:05:01 13.4 C 6.63 g/m*3 13.4 C 0 km/h
1486 12-06-2008 09:17:02 13.8 C 6.67 g/m*3 13.8 C 0 km/h
1487 12-06-2008 09:29:02 13.9 C 6.47 g/m*3 13.9 C 0 km/h
1488 12-06-2008 09:41:03 14.5 C 6.47 g/m*3 14.5 C 0 km/h
1489 12-06-2008 09:53:02 14.7 C 6.3 g/m*3 14.7 C 0 km/h
1490 12-06-2008 10:05:03 15.5 C 5.95 g/m*3 15.5 C 0 km/h
1491 12-06-2008 10:17:02 16.2 C 5.38 g/m*3 16.2 C 0 km/h
1492 12-06-2008 10:29:02 16.6 C 5.65 g/m*3 16.6 C 0 km/h
1493 12-06-2008 10:41:02 16.5 C 5.34 g/m*3 16.5 C 0 km/h
1494 12-06-2008 10:53:01 17.2 C 5.56 g/m*3 17.2 C 0 km/h
1495 12-06-2008 11:05:01 18.3 C 5.47 g/m*3 18.3 C 0 km/h
1496 12-06-2008 11:17:02 18.5 C 5.38 g/m*3 18.5 C 0 km/h
1497 12-06-2008 11:29:02 18.9 C 5.02 g/m*3 18.9 C 0 km/h
1498 12-06-2008 11:41:01 18.9 C 4.86 g/m*3 18.9 C 0 km/h
1499 12-06-2008 11:53:02 17.7 C 5.28 g/m*3 17.7 C 0 km/h
1500 12-06-2008 12:05:02 17.1 C 5.39 g/m*3 17.1 C 0 km/h
Sensor: Nr:Datum:Temp:Abs-Feuchte:Windchill:Wind:
Aussen-T/F 1501 12-06-2008 12:17:02 16.4 C 6.42 g/m*3 16.4 C 0 km/h
1502 12-06-2008 12:29:02 15.4 C 6.44 g/m*3 15.4 C 0 km/h
1503 12-06-2008 12:41:02 15.4 C 6.96 g/m*3 15.4 C 0 km/h
1504 12-06-2008 12:53:02 16.5 C 7.02 g/m*3 16.5 C 0 km/h
1505 12-06-2008 13:05:01 16.3 C 7.21 g/m*3 16.3 C 0 km/h
1506 12-06-2008 13:17:01 15.5 C 7.53 g/m*3 15.5 C 0 km/h
1507 12-06-2008 13:29:01 14.3 C 7.86 g/m*3 14.3 C 0 km/h
1508 12-06-2008 13:41:02 13.8 C 8.1 g/m*3 13.8 C 0 km/h
1509 12-06-2008 13:53:02 13.9 C 9.47 g/m*3 13.9 C 0 km/h
1510 12-06-2008 14:05:02 13.1 C 9.13 g/m*3 13.1 C 0 km/h
1511 12-06-2008 14:17:02 12.9 C 9.47 g/m*3 12.9 C 0 km/h
1512 12-06-2008 14:29:02 13.1 C 9.7 g/m*3 13.1 C 0 km/h
1513 12-06-2008 14:41:02 12.3 C 9.34 g/m*3 12.3 C 0 km/h
1514 12-06-2008 14:53:02 12.5 C 9.68 g/m*3 12.5 C 0 km/h
1515 12-06-2008 15:05:03 12.6 C 9.85 g/m*3 12.6 C 0 km/h
1516 12-06-2008 15:17:02 13 C 10.09 g/m*3 13 C 0 km/h
1517 12-06-2008 15:29:02 13.1 C 10.16 g/m*3 13.1 C 0 km/h
1518 12-06-2008 15:41:02 12.7 C 9.91 g/m*3 12.7 C 0 km/h
1519 12-06-2008 15:53:01 13 C 10.09 g/m*3 13 C 0 km/h
1520 12-06-2008 16:05:02 13.3 C 10.28 g/m*3 13.3 C 0 km/h
1521 12-06-2008 16:17:01 13.5 C 10.41 g/m*3 13.5 C 0 km/h
1522 12-06-2008 16:29:01 13.6 C 10.47 g/m*3 13.6 C 0 km/h
1523 12-06-2008 16:41:01 13.4 C 10.23 g/m*3 13.4 C 0 km/h
1524 12-06-2008 16:53:02 13 C 9.98 g/m*3 13 C 0 km/h
1525 12-06-2008 17:05:03 13.1 C 10.04 g/m*3 13.1 C 0 km/h
Sensor: Nr:Datum:Temp:Abs-Feuchte:Windchill:Wind:
Aussen-T/F 1526 12-06-2008 17:17:03 13.1 C 10.16 g/m*3 13.1 C 0 km/h
1527 12-06-2008 17:29:03 13.2 C 10.22 g/m*3 13.2 C 0 km/h
1528 12-06-2008 17:41:02 13.3 C 10.05 g/m*3 13.3 C 0 km/h
1529 12-06-2008 17:53:02 13.4 C 10 g/m*3 13.4 C 0 km/h
1530 12-06-2008 18:05:01 13.9 C 10.31 g/m*3 13.9 C 0 km/h
1531 12-06-2008 18:17:02 13.9 C 10.07 g/m*3 13.9 C 0 km/h
1532 12-06-2008 18:29:02 14 C 9.89 g/m*3 14 C 0 km/h
1533 12-06-2008 18:41:02 14.1 C 9.71 g/m*3 14.1 C 0 km/h
1534 12-06-2008 18:53:02 14.1 C 9.59 g/m*3 14.1 C 0 km/h
1535 12-06-2008 19:05:02 14.3 C 9.71 g/m*3 14.3 C 0 km/h
1536 12-06-2008 19:17:02 14.1 C 9.59 g/m*3 14.1 C 0 km/h
1537 12-06-2008 19:29:02 14 C 9.29 g/m*3 14 C 0 km/h
1538 12-06-2008 19:41:03 12.2 C 8.09 g/m*3 12.2 C 0 km/h
1539 12-06-2008 19:53:02 11.3 C 8.26 g/m*3 11.3 C 0 km/h
1540 12-06-2008 20:05:02 10.9 C 8.36 g/m*3 10.9 C 0 km/h
1541 12-06-2008 20:17:02 10.7 C 8.35 g/m*3 10.7 C 0 km/h
1542 12-06-2008 20:29:02 10.8 C 8.4 g/m*3 10.8 C 0 km/h
1543 12-06-2008 20:41:02 10.8 C 8.3 g/m*3 10.8 C 0 km/h
1544 12-06-2008 20:53:02 10.9 C 8.16 g/m*3 10.9 C 0 km/h
1545 12-06-2008 21:05:02 10.8 C 8.11 g/m*3 10.8 C 0 km/h
1546 12-06-2008 21:17:02 10.8 C 8.11 g/m*3 10.8 C 0 km/h
1547 12-06-2008 21:29:02 10.8 C 8.01 g/m*3 10.8 C 0 km/h
1548 12-06-2008 21:41:02 10.8 C 7.61 g/m*3 10.8 C 0 km/h
1549 12-06-2008 21:53:01 10.8 C 7.61 g/m*3 10.8 C 0 km/h
1550 12-06-2008 22:05:01 10.8 C 7.61 g/m*3 10.8 C 0 km/h
Sensor: Nr:Datum:Temp:Abs-Feuchte:Windchill:Wind:
Aussen-T/F 1551 12-06-2008 22:18:03 10.8 C 7.51 g/m*3 10.8 C 0 km/h
1552 12-06-2008 22:30:03 10.9 C 7.56 g/m*3 10.9 C 0 km/h
1553 12-06-2008 22:42:03 10.9 C 7.56 g/m*3 10.9 C 0 km/h
1554 12-06-2008 22:54:03 11 C 7.51 g/m*3 11 C 0 km/h
1555 12-06-2008 23:06:03 11 C 7.51 g/m*3 11 C 0 km/h
1556 12-06-2008 23:18:03 10.9 C 7.56 g/m*3 10.9 C 0 km/h
1557 12-06-2008 23:30:03 10.9 C 7.66 g/m*3 10.9 C 0 km/h
1558 12-06-2008 23:42:03 10.8 C 7.71 g/m*3 10.8 C 0 km/h
1559 12-06-2008 23:54:03 10.7 C 7.76 g/m*3 10.7 C 0 km/h
1560 13-06-2008 00:06:04 10.5 C 7.95 g/m*3 10.5 C 0 km/h
1561 13-06-2008 00:18:04 10.4 C 8 g/m*3 10.4 C 0 km/h
1562 13-06-2008 00:30:04 10.4 C 8.1 g/m*3 10.4 C 0 km/h
1563 13-06-2008 00:42:04 10.4 C 8.1 g/m*3 10.4 C 0 km/h
1564 13-06-2008 00:54:04 10.3 C 8.04 g/m*3 10.3 C 0 km/h
1565 13-06-2008 01:06:04 10.5 C 8.05 g/m*3 10.5 C 0 km/h
1566 13-06-2008 01:18:04 10.7 C 8.15 g/m*3 10.7 C 0 km/h
1567 13-06-2008 01:30:04 10.8 C 8.11 g/m*3 10.8 C 0 km/h
1568 13-06-2008 01:42:04 10.8 C 8.01 g/m*3 10.8 C 0 km/h
1569 13-06-2008 01:54:04 10.8 C 8.01 g/m*3 10.8 C 0 km/h
1570 13-06-2008 02:06:04 10.9 C 8.06 g/m*3 10.9 C 0 km/h
1571 13-06-2008 02:18:04 10.8 C 8.01 g/m*3 10.8 C 0 km/h
1572 13-06-2008 02:30:04 10.8 C 7.91 g/m*3 10.8 C 0 km/h
1573 13-06-2008 02:42:04 10.9 C 7.86 g/m*3 10.9 C 0 km/h
1574 13-06-2008 02:54:04 10.8 C 7.71 g/m*3 10.8 C 0 km/h
1575 13-06-2008 03:06:04 10.8 C 7.61 g/m*3 10.8 C 0 km/h
Sensor: Nr:Datum:Temp:Abs-Feuchte:Windchill:Wind:
Aussen-T/F 1576 13-06-2008 03:18:04 10.6 C 7.61 g/m*3 10.6 C 0 km/h
1577 13-06-2008 03:30:04 10.4 C 7.52 g/m*3 10.4 C 0 km/h
1578 13-06-2008 03:42:04 10.4 C 7.52 g/m*3 10.4 C 0 km/h
1579 13-06-2008 03:54:05 10.5 C 7.57 g/m*3 10.5 C 0 km/h
1580 13-06-2008 04:06:05 10.6 C 7.52 g/m*3 10.6 C 0 km/h
1581 13-06-2008 04:18:05 10.6 C 7.52 g/m*3 10.6 C 0 km/h
1582 13-06-2008 04:30:05 10.6 C 7.42 g/m*3 10.6 C 0 km/h
1583 13-06-2008 04:42:05 10.6 C 7.42 g/m*3 10.6 C 0 km/h
1584 13-06-2008 04:54:05 10.6 C 7.32 g/m*3 10.6 C 0 km/h
1585 13-06-2008 05:06:05 10.5 C 7.37 g/m*3 10.5 C 0 km/h
1586 13-06-2008 05:18:05 10.5 C 7.27 g/m*3 10.5 C 0 km/h
1587 13-06-2008 05:30:05 10.5 C 7.27 g/m*3 10.5 C 0 km/h
1588 13-06-2008 05:42:05 10.4 C 7.23 g/m*3 10.4 C 0 km/h
1589 13-06-2008 05:54:02 9.9 C 7.28 g/m*3 9.9 C 0 km/h
1590 13-06-2008 06:06:02 9.7 C 7.47 g/m*3 9.7 C 0 km/h
1591 13-06-2008 06:18:02 9.8 C 7.7 g/m*3 9.8 C 0 km/h
1592 13-06-2008 06:30:02 9.9 C 7.84 g/m*3 9.9 C 0 km/h
1593 13-06-2008 06:42:02 10.1 C 7.85 g/m*3 10.1 C 0 km/h
1594 13-06-2008 06:54:02 10.2 C 7.71 g/m*3 10.2 C 0 km/h
1595 13-06-2008 07:06:02 10.2 C 7.42 g/m*3 10.2 C 0 km/h
1596 13-06-2008 07:18:02 10.3 C 7.47 g/m*3 10.3 C 0 km/h
1597 13-06-2008 07:30:02 10.2 C 7.42 g/m*3 10.2 C 0 km/h
1598 13-06-2008 07:42:02 10.1 C 7.38 g/m*3 10.1 C 0 km/h
1599 13-06-2008 07:54:02 10.6 C 7.52 g/m*3 10.6 C 0 km/h
1600 13-06-2008 08:06:02 11.1 C 7.35 g/m*3 11.1 C 0 km/h
Sensor: Nr:Datum:Temp:Abs-Feuchte:Windchill:Wind:
Aussen-T/F 1601 13-06-2008 08:18:02 11.8 C 7.37 g/m*3 11.8 C 0 km/h
1602 13-06-2008 08:30:02 11.9 C 6.99 g/m*3 11.9 C 0 km/h
1603 13-06-2008 08:42:02 11.6 C 7.17 g/m*3 11.6 C 0 km/h
1604 13-06-2008 08:54:02 11.8 C 7.26 g/m*3 11.8 C 0 km/h
1605 13-06-2008 09:06:02 11.9 C 7.1 g/m*3 11.9 C 0 km/h
1606 13-06-2008 09:18:02 11.8 C 7.16 g/m*3 11.8 C 0 km/h
1607 13-06-2008 09:30:02 12.1 C 7.08 g/m*3 12.1 C 0 km/h
1608 13-06-2008 09:42:02 12.6 C 7.08 g/m*3 12.6 C 0 km/h
1609 13-06-2008 09:54:02 13.6 C 7.18 g/m*3 13.6 C 0 km/h
1610 13-06-2008 10:06:02 12 C 7.57 g/m*3 12 C 0 km/h
1611 13-06-2008 10:18:02 12.1 C 7.83 g/m*3 12.1 C 0 km/h
1612 13-06-2008 10:30:02 13.4 C 8.02 g/m*3 13.4 C 0 km/h
1613 13-06-2008 10:42:02 13.8 C 7.15 g/m*3 13.8 C 0 km/h
1614 13-06-2008 10:54:02 14.2 C 6.84 g/m*3 14.2 C 0 km/h
1615 13-06-2008 11:06:02 12.1 C 6.97 g/m*3 12.1 C 0 km/h
1616 13-06-2008 11:18:02 12 C 8.21 g/m*3 12 C 0 km/h
1617 13-06-2008 11:30:02 12.8 C 8.85 g/m*3 12.8 C 0 km/h
1618 13-06-2008 11:42:02 13.3 C 7.05 g/m*3 13.3 C 0 km/h
1619 13-06-2008 11:54:01 13.9 C 7.31 g/m*3 13.9 C 0 km/h
1620 13-06-2008 12:06:01 15.3 C 6.92 g/m*3 15.3 C 0 km/h
1621 13-06-2008 12:18:02 15.1 C 6.45 g/m*3 15.1 C 0 km/h
1622 13-06-2008 12:30:02 15.9 C 6.91 g/m*3 15.9 C 0 km/h
1623 13-06-2008 12:42:01 18.2 C 7.15 g/m*3 18.2 C 0 km/h
1624 13-06-2008 12:54:01 19.3 C 6.97 g/m*3 19.3 C 0 km/h
1625 13-06-2008 13:06:02 18.4 C 6.45 g/m*3 18.4 C 0 km/h
Sensor: Nr:Datum:Temp:Abs-Feuchte:Windchill:Wind:
Aussen-T/F 1626 13-06-2008 13:18:02 16.2 C 6.21 g/m*3 16.2 C 0 km/h
1627 13-06-2008 13:30:02 17.2 C 6.74 g/m*3 17.2 C 0 km/h
1628 13-06-2008 13:42:01 19.8 C 5.3 g/m*3 19.8 C 0 km/h
1629 13-06-2008 13:54:01 18.4 C 5.35 g/m*3 18.4 C 0 km/h
1630 13-06-2008 14:06:02 16.7 C 5.68 g/m*3 16.7 C 0 km/h
1631 13-06-2008 14:18:02 15.1 C 6.58 g/m*3 15.1 C 0 km/h
1632 13-06-2008 14:30:02 15.1 C 5.81 g/m*3 15.1 C 0 km/h
1633 13-06-2008 14:42:02 14.1 C 7.28 g/m*3 14.1 C 0 km/h
1634 13-06-2008 14:54:02 14.4 C 7.29 g/m*3 14.4 C 0 km/h
1635 13-06-2008 15:06:02 16 C 6.27 g/m*3 16 C 0 km/h
1636 13-06-2008 15:18:02 17.8 C 5.62 g/m*3 17.8 C 0 km/h
1637 13-06-2008 15:30:02 19.4 C 5.84 g/m*3 19.4 C 0 km/h
1638 13-06-2008 15:42:02 19.7 C 5.09 g/m*3 19.7 C 0 km/h
1639 13-06-2008 15:54:02 19.4 C 4.67 g/m*3 19.4 C 0 km/h
1640 13-06-2008 16:06:02 20.1 C 5.21 g/m*3 20.1 C 0 km/h
1641 13-06-2008 16:18:02 19.1 C 4.92 g/m*3 19.1 C 0 km/h
1642 13-06-2008 16:30:02 19.7 C 5.26 g/m*3 19.7 C 0 km/h
1643 13-06-2008 16:42:02 17.9 C 5.5 g/m*3 17.9 C 0 km/h
1644 13-06-2008 16:54:01 17.8 C 5.62 g/m*3 17.8 C 0 km/h
1645 13-06-2008 17:06:02 17.2 C 5.42 g/m*3 17.2 C 0 km/h
1646 13-06-2008 17:18:02 17.6 C 5.7 g/m*3 17.6 C 0 km/h
1647 13-06-2008 17:30:02 17.4 C 5.93 g/m*3 17.4 C 0 km/h
1648 13-06-2008 17:42:02 19.4 C 6.01 g/m*3 19.4 C 0 km/h
1649 13-06-2008 17:54:01 18.5 C 5.38 g/m*3 18.5 C 0 km/h
1650 13-06-2008 18:06:01 18.1 C 5.41 g/m*3 18.1 C 0 km/h
Sensor: Nr:Datum:Temp:Abs-Feuchte:Windchill:Wind:
Aussen-T/F 1651 13-06-2008 18:18:02 18 C 5.53 g/m*3 18 C 0 km/h
1652 13-06-2008 18:30:02 17.7 C 5.43 g/m*3 17.7 C 0 km/h
1653 13-06-2008 18:42:01 18.1 C 4.94 g/m*3 18.1 C 0 km/h
1654 13-06-2008 18:54:02 18.2 C 5.6 g/m*3 18.2 C 0 km/h
1655 13-06-2008 19:06:01 17.2 C 5.71 g/m*3 17.2 C 0 km/h
1656 13-06-2008 19:18:02 16.6 C 5.65 g/m*3 16.6 C 0 km/h
1657 13-06-2008 19:30:02 16.3 C 5.83 g/m*3 16.3 C 0 km/h
1658 13-06-2008 19:42:02 16.3 C 5.83 g/m*3 16.3 C 0 km/h
1659 13-06-2008 19:54:02 16.4 C 6 g/m*3 16.4 C 0 km/h
1660 13-06-2008 20:06:02 16.3 C 5.97 g/m*3 16.3 C 0 km/h
1661 13-06-2008 20:18:02 15.7 C 6.02 g/m*3 15.7 C 0 km/h
1662 13-06-2008 20:30:02 15.4 C 6.04 g/m*3 15.4 C 0 km/h
1663 13-06-2008 20:42:02 15.2 C 5.84 g/m*3 15.2 C 0 km/h
1664 13-06-2008 20:54:01 14.9 C 5.86 g/m*3 14.9 C 0 km/h
1665 13-06-2008 21:06:01 14.9 C 6.12 g/m*3 14.9 C 0 km/h
1666 13-06-2008 21:18:02 14.7 C 6.04 g/m*3 14.7 C 0 km/h
1667 13-06-2008 21:30:02 14.2 C 5.98 g/m*3 14.2 C 0 km/h
1668 13-06-2008 21:42:01 14 C 6.15 g/m*3 14 C 0 km/h
1669 13-06-2008 21:54:02 13.4 C 6.39 g/m*3 13.4 C 0 km/h
1670 13-06-2008 22:06:02 13.1 C 6.28 g/m*3 13.1 C 0 km/h
1671 13-06-2008 22:18:02 12.7 C 6.46 g/m*3 12.7 C 0 km/h
1672 13-06-2008 22:30:02 12.4 C 6.45 g/m*3 12.4 C 0 km/h
1673 13-06-2008 22:42:02 12.4 C 6.45 g/m*3 12.4 C 0 km/h
1674 13-06-2008 22:55:03 12.1 C 6.43 g/m*3 12.1 C 0 km/h
1675 13-06-2008 23:07:03 12.3 C 6.62 g/m*3 12.3 C 0 km/h
Sensor: Nr:Datum:Temp:Abs-Feuchte:Windchill:Wind:
Aussen-T/F 1676 13-06-2008 23:19:03 12.4 C 6.56 g/m*3 12.4 C 0 km/h
1677 13-06-2008 23:31:03 12.4 C 6.77 g/m*3 12.4 C 0 km/h
1678 13-06-2008 23:43:03 12.4 C 6.66 g/m*3 12.4 C 0 km/h
1679 13-06-2008 23:55:03 12.4 C 6.77 g/m*3 12.4 C 0 km/h
1680 14-06-2008 00:07:03 12.3 C 7.06 g/m*3 12.3 C 0 km/h
1681 14-06-2008 00:19:03 12.2 C 7.01 g/m*3 12.2 C 0 km/h
1682 14-06-2008 00:31:03 12.2 C 7.23 g/m*3 12.2 C 0 km/h
1683 14-06-2008 00:43:03 11.9 C 7.41 g/m*3 11.9 C 0 km/h
1684 14-06-2008 00:55:03 12 C 7.35 g/m*3 12 C 0 km/h
1685 14-06-2008 01:07:03 11.8 C 7.37 g/m*3 11.8 C 0 km/h
1686 14-06-2008 01:19:03 11.6 C 7.48 g/m*3 11.6 C 0 km/h
1687 14-06-2008 01:31:03 11.4 C 7.49 g/m*3 11.4 C 0 km/h
1688 14-06-2008 01:43:03 11.2 C 7.3 g/m*3 11.2 C 0 km/h
1689 14-06-2008 01:55:03 11 C 7.31 g/m*3 11 C 0 km/h
1690 14-06-2008 02:07:03 10.7 C 7.46 g/m*3 10.7 C 0 km/h
1691 14-06-2008 02:19:03 10.4 C 7.42 g/m*3 10.4 C 0 km/h
1692 14-06-2008 02:31:03 10.1 C 7.28 g/m*3 10.1 C 0 km/h
1693 14-06-2008 02:43:04 9.9 C 7.28 g/m*3 9.9 C 0 km/h
1694 14-06-2008 02:55:04 9.8 C 7.33 g/m*3 9.8 C 0 km/h
1695 14-06-2008 03:07:04 9.6 C 7.33 g/m*3 9.6 C 0 km/h
1696 14-06-2008 03:19:04 9.3 C 7.19 g/m*3 9.3 C 0 km/h
1697 14-06-2008 03:31:04 9.1 C 7.1 g/m*3 9.1 C 0 km/h
1698 14-06-2008 03:43:04 9 C 7.05 g/m*3 9 C 0 km/h
1699 14-06-2008 03:55:04 9 C 7.14 g/m*3 9 C 0 km/h
1700 14-06-2008 04:07:04 8.9 C 7.18 g/m*3 8.9 C 0 km/h
Sensor: Nr:Datum:Temp:Abs-Feuchte:Windchill:Wind:
Aussen-T/F 1701 14-06-2008 04:19:04 8.6 C 7.05 g/m*3 8.6 C 0 km/h
1702 14-06-2008 04:31:04 8.5 C 7 g/m*3 8.5 C 0 km/h
1703 14-06-2008 04:43:04 8.4 C 6.96 g/m*3 8.4 C 0 km/h
1704 14-06-2008 04:55:04 8.1 C 6.82 g/m*3 8.1 C 0 km/h
1705 14-06-2008 05:07:04 8.1 C 6.91 g/m*3 8.1 C 0 km/h
1706 14-06-2008 05:19:04 8 C 7.03 g/m*3 8 C 0 km/h
1707 14-06-2008 05:31:04 7.9 C 7.06 g/m*3 7.9 C 0 km/h
1708 14-06-2008 05:43:04 8 C 7.03 g/m*3 8 C 0 km/h
1709 14-06-2008 05:55:04 7.9 C 7.06 g/m*3 7.9 C 0 km/h
1710 14-06-2008 06:07:04 7.9 C 7.15 g/m*3 7.9 C 0 km/h
1711 14-06-2008 06:19:04 8.1 C 7.16 g/m*3 8.1 C 0 km/h
1712 14-06-2008 06:31:04 8.4 C 7.21 g/m*3 8.4 C 0 km/h
1713 14-06-2008 06:43:04 8.6 C 7.13 g/m*3 8.6 C 0 km/h
1714 14-06-2008 06:55:05 8.7 C 7.18 g/m*3 8.7 C 0 km/h
1715 14-06-2008 07:07:05 8.9 C 7.18 g/m*3 8.9 C 0 km/h
1716 14-06-2008 07:19:05 9 C 7.05 g/m*3 9 C 0 km/h
1717 14-06-2008 07:31:05 9.5 C 7.28 g/m*3 9.5 C 0 km/h
1718 14-06-2008 07:43:05 9.8 C 7.33 g/m*3 9.8 C 0 km/h
1719 14-06-2008 07:55:05 9.9 C 7.19 g/m*3 9.9 C 0 km/h
1720 14-06-2008 08:07:05 10.1 C 7.28 g/m*3 10.1 C 0 km/h
1721 14-06-2008 08:19:05 10.4 C 7.42 g/m*3 10.4 C 0 km/h
1722 14-06-2008 08:31:03 10.4 C 7.42 g/m*3 10.4 C 0 km/h
1723 14-06-2008 08:43:03 10.6 C 7.52 g/m*3 10.6 C 0 km/h
1724 14-06-2008 08:55:02 11 C 7.61 g/m*3 11 C 0 km/h
1725 14-06-2008 09:07:01 11.5 C 7.64 g/m*3 11.5 C 0 km/h
Sensor: Nr:Datum:Temp:Abs-Feuchte:Windchill:Wind:
Aussen-T/F 1726 14-06-2008 09:19:01 12.4 C 7.54 g/m*3 12.4 C 0 km/h
1727 14-06-2008 09:31:01 13.2 C 7.35 g/m*3 13.2 C 0 km/h
1728 14-06-2008 09:43:01 13.5 C 7.25 g/m*3 13.5 C 0 km/h
1729 14-06-2008 09:55:02 14 C 7.24 g/m*3 14 C 0 km/h
1730 14-06-2008 10:07:02 14.7 C 7.3 g/m*3 14.7 C 0 km/h
1731 14-06-2008 10:19:02 15.1 C 6.71 g/m*3 15.1 C 0 km/h
1732 14-06-2008 10:31:02 15.6 C 6.52 g/m*3 15.6 C 0 km/h
1733 14-06-2008 10:43:02 16.6 C 5.79 g/m*3 16.6 C 0 km/h
1734 14-06-2008 10:55:02 16.4 C 5.86 g/m*3 16.4 C 0 km/h
1735 14-06-2008 11:07:02 16.6 C 5.79 g/m*3 16.6 C 0 km/h
1736 14-06-2008 11:19:01 16.2 C 5.79 g/m*3 16.2 C 0 km/h
1737 14-06-2008 11:31:02 16.3 C 5.97 g/m*3 16.3 C 0 km/h
1738 14-06-2008 11:43:02 16.3 C 5.97 g/m*3 16.3 C 0 km/h
1739 14-06-2008 11:55:02 17.1 C 5.39 g/m*3 17.1 C 0 km/h
1740 14-06-2008 12:07:01 17.1 C 4.51 g/m*3 17.1 C 0 km/h
1741 14-06-2008 12:19:01 18.8 C 4.67 g/m*3 18.8 C 0 km/h
1742 14-06-2008 12:31:02 16.9 C 5.61 g/m*3 16.9 C 0 km/h
1743 14-06-2008 12:43:02 17 C 5.79 g/m*3 17 C 0 km/h
1744 14-06-2008 12:55:02 16.4 C 5.44 g/m*3 16.4 C 0 km/h
1745 14-06-2008 13:07:02 16.4 C 5.02 g/m*3 16.4 C 0 km/h
1746 14-06-2008 13:19:02 17 C 5.35 g/m*3 17 C 0 km/h
1747 14-06-2008 13:31:02 16.4 C 5.58 g/m*3 16.4 C 0 km/h
1748 14-06-2008 13:43:02 15.7 C 5.75 g/m*3 15.7 C 0 km/h
1749 14-06-2008 13:55:02 16 C 5.45 g/m*3 16 C 0 km/h
1750 14-06-2008 14:07:02 18 C 5.07 g/m*3 18 C 0 km/h
Sensor: Nr:Datum:Temp:Abs-Feuchte:Windchill:Wind:
Aussen-T/F 1751 14-06-2008 14:19:01 18.1 C 5.41 g/m*3 18.1 C 0 km/h
1752 14-06-2008 14:31:01 18.9 C 5.35 g/m*3 18.9 C 0 km/h
1753 14-06-2008 14:43:01 18.7 C 5.6 g/m*3 18.7 C 0 km/h
1754 14-06-2008 14:55:01 18 C 5.53 g/m*3 18 C 0 km/h
1755 14-06-2008 15:07:02 18.2 C 5.44 g/m*3 18.2 C 0 km/h
1756 14-06-2008 15:19:02 19.6 C 6.08 g/m*3 19.6 C 0 km/h
1757 14-06-2008 15:31:01 21.4 C 6 g/m*3 21.4 C 0 km/h
1758 14-06-2008 15:43:01 20.8 C 5.61 g/m*3 20.8 C 0 km/h
1759 14-06-2008 15:55:01 21.6 C 5.88 g/m*3 21.6 C 0 km/h
1760 14-06-2008 16:07:02 22 C 5.24 g/m*3 22 C 0 km/h
1761 14-06-2008 16:19:02 19.9 C 5.33 g/m*3 19.9 C 0 km/h
1762 14-06-2008 16:31:01 18.7 C 5.6 g/m*3 18.7 C 0 km/h
1763 14-06-2008 16:43:01 18.5 C 5.85 g/m*3 18.5 C 0 km/h
1764 14-06-2008 16:55:01 18.4 C 5.5 g/m*3 18.4 C 0 km/h
1765 14-06-2008 17:07:02 18.9 C 5.99 g/m*3 18.9 C 0 km/h
1766 14-06-2008 17:19:01 19.5 C 5.71 g/m*3 19.5 C 0 km/h
1767 14-06-2008 17:31:02 20.2 C 5.77 g/m*3 20.2 C 0 km/h
1768 14-06-2008 17:43:02 20.4 C 5.84 g/m*3 20.4 C 0 km/h
1769 14-06-2008 17:55:01 19.5 C 6.04 g/m*3 19.5 C 0 km/h
1770 14-06-2008 18:07:02 18.6 C 5.73 g/m*3 18.6 C 0 km/h
1771 14-06-2008 18:19:02 18.2 C 5.91 g/m*3 18.2 C 0 km/h
1772 14-06-2008 18:31:01 18.8 C 5.96 g/m*3 18.8 C 0 km/h
1773 14-06-2008 18:43:01 19.9 C 6.01 g/m*3 19.9 C 0 km/h
1774 14-06-2008 18:55:02 18.4 C 5.82 g/m*3 18.4 C 0 km/h
1775 14-06-2008 19:07:01 17.4 C 6.08 g/m*3 17.4 C 0 km/h
Sensor: Nr:Datum:Temp:Abs-Feuchte:Windchill:Wind:
Aussen-T/F 1776 14-06-2008 19:19:02 16.8 C 6.15 g/m*3 16.8 C 0 km/h
1777 14-06-2008 19:31:02 15.4 C 6.57 g/m*3 15.4 C 0 km/h
1778 14-06-2008 19:43:02 14.4 C 7.66 g/m*3 14.4 C 0 km/h
1779 14-06-2008 19:55:02 13.8 C 8.46 g/m*3 13.8 C 0 km/h
1780 14-06-2008 20:07:01 14.1 C 8.74 g/m*3 14.1 C 0 km/h
1781 14-06-2008 20:19:02 14.1 C 8.5 g/m*3 14.1 C 0 km/h
1782 14-06-2008 20:31:02 14 C 8.2 g/m*3 14 C 0 km/h
1783 14-06-2008 20:43:02 13.7 C 8.53 g/m*3 13.7 C 0 km/h
1784 14-06-2008 20:55:02 13.6 C 8.83 g/m*3 13.6 C 0 km/h
1785 14-06-2008 21:07:02 13.6 C 8.94 g/m*3 13.6 C 0 km/h
1786 14-06-2008 21:19:02 13.7 C 9.12 g/m*3 13.7 C 0 km/h
1787 14-06-2008 21:31:02 13.5 C 8.89 g/m*3 13.5 C 0 km/h
1788 14-06-2008 21:43:02 13.6 C 8.94 g/m*3 13.6 C 0 km/h
1789 14-06-2008 21:55:02 13.3 C 8.55 g/m*3 13.3 C 0 km/h
1790 14-06-2008 22:07:02 13 C 8.28 g/m*3 13 C 0 km/h
1791 14-06-2008 22:19:02 12.8 C 8.18 g/m*3 12.8 C 0 km/h
1792 14-06-2008 22:31:02 12.9 C 8.11 g/m*3 12.9 C 0 km/h
1793 14-06-2008 22:43:02 12.4 C 7.87 g/m*3 12.4 C 0 km/h
1794 14-06-2008 22:55:02 12.2 C 7.88 g/m*3 12.2 C 0 km/h
1795 14-06-2008 23:07:02 12.1 C 7.83 g/m*3 12.1 C 0 km/h
1796 14-06-2008 23:19:02 11.7 C 7.84 g/m*3 11.7 C 0 km/h
1797 14-06-2008 23:31:03 11.6 C 7.69 g/m*3 11.6 C 0 km/h
1798 14-06-2008 23:43:03 11.5 C 7.64 g/m*3 11.5 C 0 km/h
1799 14-06-2008 23:55:02 11.3 C 7.55 g/m*3 11.3 C 0 km/h
1800 15-06-2008 00:07:02 11.1 C 7.45 g/m*3 11.1 C 0 km/h
Sensor: Nr:Datum:Temp:Abs-Feuchte:Windchill:Wind:
Aussen-T/F 1801 15-06-2008 00:19:02 11.1 C 7.45 g/m*3 11.1 C 0 km/h
1802 15-06-2008 00:31:02 11 C 7.41 g/m*3 11 C 0 km/h
1803 15-06-2008 00:43:03 10.9 C 7.46 g/m*3 10.9 C 0 km/h
1804 15-06-2008 00:55:02 10.8 C 7.51 g/m*3 10.8 C 0 km/h
1805 15-06-2008 01:07:01 10.8 C 7.51 g/m*3 10.8 C 0 km/h
1806 15-06-2008 01:19:02 10.5 C 7.57 g/m*3 10.5 C 0 km/h
1807 15-06-2008 01:31:02 10.3 C 7.57 g/m*3 10.3 C 0 km/h
1808 15-06-2008 01:43:03 10.2 C 7.61 g/m*3 10.2 C 0 km/h
1809 15-06-2008 01:55:02 10.1 C 7.66 g/m*3 10.1 C 0 km/h
1810 15-06-2008 02:07:02 10.3 C 7.76 g/m*3 10.3 C 0 km/h
1811 15-06-2008 02:19:03 10.4 C 7.81 g/m*3 10.4 C 0 km/h
1812 15-06-2008 02:31:02 10.4 C 7.81 g/m*3 10.4 C 0 km/h
1813 15-06-2008 02:43:02 10.4 C 7.81 g/m*3 10.4 C 0 km/h
1814 15-06-2008 02:55:02 10.3 C 7.85 g/m*3 10.3 C 0 km/h
1815 15-06-2008 03:07:02 10.2 C 7.8 g/m*3 10.2 C 0 km/h
1816 15-06-2008 03:19:01 9.9 C 7.84 g/m*3 9.9 C 0 km/h
1817 15-06-2008 03:31:02 9.8 C 7.79 g/m*3 9.8 C 0 km/h
1818 15-06-2008 03:43:02 9.8 C 7.89 g/m*3 9.8 C 0 km/h
1819 15-06-2008 03:55:02 9.8 C 7.89 g/m*3 9.8 C 0 km/h
1820 15-06-2008 04:07:01 10 C 7.8 g/m*3 10 C 0 km/h
1821 15-06-2008 04:19:01 10 C 7.8 g/m*3 10 C 0 km/h
1822 15-06-2008 04:31:02 9.9 C 7.84 g/m*3 9.9 C 0 km/h
1823 15-06-2008 04:43:02 9.8 C 7.79 g/m*3 9.8 C 0 km/h
1824 15-06-2008 04:55:01 9.8 C 7.89 g/m*3 9.8 C 0 km/h
1825 15-06-2008 05:07:02 9.4 C 7.69 g/m*3 9.4 C 0 km/h
Sensor: Nr:Datum:Temp:Abs-Feuchte:Windchill:Wind:
Aussen-T/F 1826 15-06-2008 05:19:01 9.1 C 7.54 g/m*3 9.1 C 0 km/h
1827 15-06-2008 05:31:01 8.9 C 7.53 g/m*3 8.9 C 0 km/h
1828 15-06-2008 05:43:01 8.8 C 7.49 g/m*3 8.8 C 0 km/h
1829 15-06-2008 05:55:02 8.7 C 7.52 g/m*3 8.7 C 0 km/h
1830 15-06-2008 06:07:01 8.9 C 7.71 g/m*3 8.9 C 0 km/h
1831 15-06-2008 06:19:01 9 C 7.76 g/m*3 9 C 0 km/h
1832 15-06-2008 06:31:02 9 C 7.76 g/m*3 9 C 0 km/h
1833 15-06-2008 06:43:02 9.1 C 7.81 g/m*3 9.1 C 0 km/h
1834 15-06-2008 06:55:02 9.2 C 7.86 g/m*3 9.2 C 0 km/h
1835 15-06-2008 07:07:01 9.5 C 8.01 g/m*3 9.5 C 0 km/h
1836 15-06-2008 07:19:01 9.7 C 8.02 g/m*3 9.7 C 0 km/h
1837 15-06-2008 07:31:02 10 C 7.99 g/m*3 10 C 0 km/h
1838 15-06-2008 07:43:02 10.6 C 8 g/m*3 10.6 C 0 km/h
1839 15-06-2008 07:55:02 11 C 7.81 g/m*3 11 C 0 km/h
1840 15-06-2008 08:07:01 11.4 C 7.8 g/m*3 11.4 C 0 km/h
1841 15-06-2008 08:19:01 11.2 C 7.6 g/m*3 11.2 C 0 km/h
1842 15-06-2008 08:31:02 11.2 C 7.7 g/m*3 11.2 C 0 km/h
1843 15-06-2008 08:43:02 11.5 C 7.75 g/m*3 11.5 C 0 km/h
1844 15-06-2008 08:55:01 11.8 C 7.89 g/m*3 11.8 C 0 km/h
1845 15-06-2008 09:07:01 12.1 C 7.83 g/m*3 12.1 C 0 km/h
1846 15-06-2008 09:19:02 12.4 C 7.76 g/m*3 12.4 C 0 km/h
1847 15-06-2008 09:31:02 12.9 C 7.78 g/m*3 12.9 C 0 km/h
1848 15-06-2008 09:43:02 13.5 C 7.6 g/m*3 13.5 C 0 km/h
1849 15-06-2008 09:55:01 14.1 C 7.28 g/m*3 14.1 C 0 km/h
1850 15-06-2008 10:07:02 15.4 C 7.23 g/m*3 15.4 C 0 km/h
Sensor: Nr:Datum:Temp:Abs-Feuchte:Windchill:Wind:
Aussen-T/F 1851 15-06-2008 10:19:02 15.6 C 6.92 g/m*3 15.6 C 0 km/h
1852 15-06-2008 10:31:01 16.3 C 6.8 g/m*3 16.3 C 0 km/h
1853 15-06-2008 10:43:01 17.2 C 6.44 g/m*3 17.2 C 0 km/h
1854 15-06-2008 10:55:02 17.3 C 6.48 g/m*3 17.3 C 0 km/h
1855 15-06-2008 11:07:01 17.2 C 6.59 g/m*3 17.2 C 0 km/h
1856 15-06-2008 11:19:01 17.7 C 6.79 g/m*3 17.7 C 0 km/h
1857 15-06-2008 11:31:02 17.7 C 6.94 g/m*3 17.7 C 0 km/h
1858 15-06-2008 11:43:02 18.4 C 6.92 g/m*3 18.4 C 0 km/h
1859 15-06-2008 11:55:02 18.4 C 6.92 g/m*3 18.4 C 0 km/h
1860 15-06-2008 12:07:01 18.9 C 6.8 g/m*3 18.9 C 0 km/h
1861 15-06-2008 12:19:01 19.7 C 6.45 g/m*3 19.7 C 0 km/h
1862 15-06-2008 12:31:01 21.1 C 5.34 g/m*3 21.1 C 0 km/h
1863 15-06-2008 12:43:01 21.5 C 5.47 g/m*3 21.5 C 0 km/h
1864 15-06-2008 12:55:01 21.2 C 5 g/m*3 21.2 C 0 km/h
1865 15-06-2008 13:07:02 19.8 C 5.3 g/m*3 19.8 C 0 km/h
1866 15-06-2008 13:19:02 18.6 C 5.41 g/m*3 18.6 C 0 km/h
1867 15-06-2008 13:31:01 15.5 C 8.46 g/m*3 15.5 C 0 km/h
1868 15-06-2008 13:43:01 14.7 C 8.44 g/m*3 14.7 C 0 km/h
1869 15-06-2008 13:55:02 17.6 C 8.7 g/m*3 17.6 C 0 km/h
1870 15-06-2008 14:07:01 19.5 C 7.55 g/m*3 19.5 C 0 km/h
1871 15-06-2008 14:19:01 20.6 C 7.52 g/m*3 20.6 C 0 km/h
1872 15-06-2008 14:31:02 21 C 7.33 g/m*3 21 C 0 km/h
1873 15-06-2008 14:43:02 20.3 C 7.21 g/m*3 20.3 C 0 km/h
1874 15-06-2008 14:55:02 19.7 C 7.13 g/m*3 19.7 C 0 km/h
1875 15-06-2008 15:07:01 18.5 C 7.59 g/m*3 18.5 C 0 km/h
Sensor: Nr:Datum:Temp:Abs-Feuchte:Windchill:Wind:
Aussen-T/F 1876 15-06-2008 15:19:01 17.7 C 8.15 g/m*3 17.7 C 0 km/h
1877 15-06-2008 15:31:02 19.2 C 7.59 g/m*3 19.2 C 0 km/h
1878 15-06-2008 15:43:02 21.2 C 7.04 g/m*3 21.2 C 0 km/h
1879 15-06-2008 15:55:02 21.9 C 6.18 g/m*3 21.9 C 0 km/h
1880 15-06-2008 16:07:01 21.3 C 5.59 g/m*3 21.3 C 0 km/h
1881 15-06-2008 16:19:01 21.5 C 6.22 g/m*3 21.5 C 0 km/h
1882 15-06-2008 16:31:02 22.5 C 6.19 g/m*3 22.5 C 0 km/h
1883 15-06-2008 16:43:02 21.7 C 5.91 g/m*3 21.7 C 0 km/h
1884 15-06-2008 16:55:02 21.4 C 6 g/m*3 21.4 C 0 km/h
1885 15-06-2008 17:07:01 20.4 C 6.55 g/m*3 20.4 C 0 km/h
1886 15-06-2008 17:19:01 20.9 C 6.74 g/m*3 20.9 C 0 km/h
1887 15-06-2008 17:31:02 19.9 C 6.19 g/m*3 19.9 C 0 km/h
1888 15-06-2008 17:43:02 19.1 C 6.56 g/m*3 19.1 C 0 km/h
1889 15-06-2008 17:55:02 17.2 C 7.91 g/m*3 17.2 C 0 km/h
1890 15-06-2008 18:07:01 14.6 C 9.39 g/m*3 14.6 C 0 km/h
1891 15-06-2008 18:19:01 13.3 C 9.01 g/m*3 13.3 C 0 km/h
1892 15-06-2008 18:31:02 12.2 C 8.96 g/m*3 12.2 C 0 km/h
1893 15-06-2008 18:43:02 11.7 C 8.99 g/m*3 11.7 C 0 km/h
1894 15-06-2008 18:55:02 11.8 C 9.26 g/m*3 11.8 C 0 km/h
1895 15-06-2008 19:07:01 11.9 C 9.43 g/m*3 11.9 C 0 km/h
1896 15-06-2008 19:19:01 11.8 C 9.26 g/m*3 11.8 C 0 km/h
1897 15-06-2008 19:31:02 12.1 C 9.44 g/m*3 12.1 C 0 km/h
1898 15-06-2008 19:43:02 12.4 C 9.62 g/m*3 12.4 C 0 km/h
1899 15-06-2008 19:55:02 12.5 C 9.68 g/m*3 12.5 C 0 km/h
1900 15-06-2008 20:07:01 12.7 C 9.8 g/m*3 12.7 C 0 km/h
Sensor: Nr:Datum:Temp:Abs-Feuchte:Windchill:Wind:
Aussen-T/F 1901 15-06-2008 20:19:01 12.8 C 9.86 g/m*3 12.8 C 0 km/h
1902 15-06-2008 20:31:02 12.6 C 9.62 g/m*3 12.6 C 0 km/h
1903 15-06-2008 20:43:02 12.5 C 9.68 g/m*3 12.5 C 0 km/h
1904 15-06-2008 20:55:02 12.6 C 9.85 g/m*3 12.6 C 0 km/h
1905 15-06-2008 21:07:01 12.4 C 9.72 g/m*3 12.4 C 0 km/h
1906 15-06-2008 21:19:02 12.4 C 9.83 g/m*3 12.4 C 0 km/h
1907 15-06-2008 21:31:01 11.8 C 9.58 g/m*3 11.8 C 0 km/h
1908 15-06-2008 21:43:02 11.9 C 9.64 g/m*3 11.9 C 0 km/h
1909 15-06-2008 21:55:01 11.7 C 9.52 g/m*3 11.7 C 0 km/h
1910 15-06-2008 22:07:01 11.7 C 9.62 g/m*3 11.7 C 0 km/h
1911 15-06-2008 22:19:02 11.7 C 9.62 g/m*3 11.7 C 0 km/h
1912 15-06-2008 22:31:01 11.7 C 9.62 g/m*3 11.7 C 0 km/h
1913 15-06-2008 22:43:01 11.8 C 9.68 g/m*3 11.8 C 0 km/h
1914 15-06-2008 22:56:01 12 C 9.8 g/m*3 12 C 0 km/h
1915 15-06-2008 23:08:01 11.8 C 9.68 g/m*3 11.8 C 0 km/h
1916 15-06-2008 23:20:01 11.7 C 9.62 g/m*3 11.7 C 0 km/h
1917 15-06-2008 23:32:01 11.6 C 9.56 g/m*3 11.6 C 0 km/h
1918 15-06-2008 23:44:01 11.5 C 9.5 g/m*3 11.5 C 0 km/h
1919 15-06-2008 23:56:01 11.3 C 9.38 g/m*3 11.3 C 0 km/h
1920 16-06-2008 00:08:01 11.2 C 9.33 g/m*3 11.2 C 0 km/h
1921 16-06-2008 00:20:01 11.2 C 9.43 g/m*3 11.2 C 0 km/h
1922 16-06-2008 00:32:01 11.2 C 9.43 g/m*3 11.2 C 0 km/h
1923 16-06-2008 00:44:01 11.1 C 9.37 g/m*3 11.1 C 0 km/h
1924 16-06-2008 00:56:01 11.2 C 9.43 g/m*3 11.2 C 0 km/h
1925 16-06-2008 01:08:02 11.1 C 9.37 g/m*3 11.1 C 0 km/h
Sensor: Nr:Datum:Temp:Abs-Feuchte:Windchill:Wind:
Aussen-T/F 1926 16-06-2008 01:20:02 11.2 C 9.43 g/m*3 11.2 C 0 km/h
1927 16-06-2008 01:32:02 11.1 C 9.37 g/m*3 11.1 C 0 km/h
1928 16-06-2008 01:44:02 11 C 9.31 g/m*3 11 C 0 km/h
1929 16-06-2008 01:56:02 10.8 C 9.29 g/m*3 10.8 C 0 km/h
1930 16-06-2008 02:08:02 10.7 C 9.23 g/m*3 10.7 C 0 km/h
1931 16-06-2008 02:20:02 10.6 C 9.17 g/m*3 10.6 C 0 km/h
1932 16-06-2008 02:32:02 10.5 C 9.02 g/m*3 10.5 C 0 km/h
1933 16-06-2008 02:44:02 10.3 C 8.91 g/m*3 10.3 C 0 km/h
1934 16-06-2008 02:56:02 9.9 C 8.78 g/m*3 9.9 C 0 km/h
1935 16-06-2008 03:08:02 9.7 C 8.67 g/m*3 9.7 C 0 km/h
1936 16-06-2008 03:20:02 9.7 C 8.67 g/m*3 9.7 C 0 km/h
1937 16-06-2008 03:32:02 9.8 C 8.72 g/m*3 9.8 C 0 km/h
1938 16-06-2008 03:44:02 9.9 C 8.87 g/m*3 9.9 C 0 km/h
1939 16-06-2008 03:56:02 9.8 C 8.81 g/m*3 9.8 C 0 km/h
1940 16-06-2008 04:08:02 10.1 C 8.89 g/m*3 10.1 C 0 km/h
1941 16-06-2008 04:20:02 10.3 C 9 g/m*3 10.3 C 0 km/h
1942 16-06-2008 04:32:02 10.3 C 9 g/m*3 10.3 C 0 km/h
1943 16-06-2008 04:44:02 10.3 C 9 g/m*3 10.3 C 0 km/h
1944 16-06-2008 04:56:02 10.1 C 8.89 g/m*3 10.1 C 0 km/h
1945 16-06-2008 05:08:03 10 C 8.83 g/m*3 10 C 0 km/h
1946 16-06-2008 05:20:03 10.1 C 8.89 g/m*3 10.1 C 0 km/h
1947 16-06-2008 05:32:03 10 C 8.83 g/m*3 10 C 0 km/h
1948 16-06-2008 05:44:03 9.8 C 8.81 g/m*3 9.8 C 0 km/h
1949 16-06-2008 05:56:03 9.8 C 8.81 g/m*3 9.8 C 0 km/h
1950 16-06-2008 06:08:03 10.2 C 8.95 g/m*3 10.2 C 0 km/h
Sensor: Nr:Datum:Temp:Abs-Feuchte:Windchill:Wind:
Aussen-T/F 1951 16-06-2008 06:20:03 10.4 C 9.06 g/m*3 10.4 C 0 km/h
1952 16-06-2008 06:32:03 10.4 C 9.06 g/m*3 10.4 C 0 km/h
1953 16-06-2008 06:44:03 10.5 C 9.12 g/m*3 10.5 C 0 km/h
1954 16-06-2008 06:56:03 10.5 C 9.12 g/m*3 10.5 C 0 km/h
1955 16-06-2008 07:08:01 10.5 C 9.02 g/m*3 10.5 C 0 km/h
1956 16-06-2008 07:20:01 10.7 C 9.13 g/m*3 10.7 C 0 km/h
1957 16-06-2008 07:32:01 10.9 C 9.25 g/m*3 10.9 C 0 km/h
1958 16-06-2008 07:44:01 11 C 9.21 g/m*3 11 C 0 km/h
1959 16-06-2008 07:56:02 11 C 9.01 g/m*3 11 C 0 km/h
1960 16-06-2008 08:08:03 10.8 C 8.9 g/m*3 10.8 C 0 km/h
1961 16-06-2008 08:20:03 11.4 C 9.14 g/m*3 11.4 C 0 km/h
1962 16-06-2008 08:32:02 12.1 C 9.54 g/m*3 12.1 C 0 km/h
1963 16-06-2008 08:44:02 12.4 C 8.96 g/m*3 12.4 C 0 km/h
1964 16-06-2008 08:56:02 12.6 C 8.08 g/m*3 12.6 C 0 km/h
1965 16-06-2008 09:08:01 13.3 C 8.32 g/m*3 13.3 C 0 km/h
1966 16-06-2008 09:20:02 13.6 C 8 g/m*3 13.6 C 0 km/h
1967 16-06-2008 09:32:01 14 C 8.2 g/m*3 14 C 0 km/h
1968 16-06-2008 09:44:01 13.9 C 7.91 g/m*3 13.9 C 0 km/h
1969 16-06-2008 09:56:02 13.8 C 7.74 g/m*3 13.8 C 0 km/h
1970 16-06-2008 10:08:02 14.7 C 7.93 g/m*3 14.7 C 0 km/h
1971 16-06-2008 10:20:02 15.5 C 7.8 g/m*3 15.5 C 0 km/h
1972 16-06-2008 10:32:02 15.5 C 7.4 g/m*3 15.5 C 0 km/h
1973 16-06-2008 10:44:02 15.6 C 7.58 g/m*3 15.6 C 0 km/h
1974 16-06-2008 10:56:02 16.3 C 7.35 g/m*3 16.3 C 0 km/h
1975 16-06-2008 11:08:03 17.1 C 7.13 g/m*3 17.1 C 0 km/h
Sensor: Nr:Datum:Temp:Abs-Feuchte:Windchill:Wind:
Aussen-T/F 1976 16-06-2008 11:20:02 16.9 C 7.34 g/m*3 16.9 C 0 km/h
1977 16-06-2008 11:32:02 17.5 C 7.45 g/m*3 17.5 C 0 km/h
1978 16-06-2008 11:44:02 17.2 C 6.3 g/m*3 17.2 C 0 km/h
1979 16-06-2008 11:56:01 17.9 C 6.41 g/m*3 17.9 C 0 km/h
1980 16-06-2008 12:08:02 18.5 C 6.01 g/m*3 18.5 C 0 km/h
1981 16-06-2008 12:20:01 20.7 C 6.3 g/m*3 20.7 C 0 km/h
1982 16-06-2008 12:32:01 19.5 C 5.37 g/m*3 19.5 C 0 km/h
1983 16-06-2008 12:44:01 20.5 C 5.34 g/m*3 20.5 C 0 km/h
1984 16-06-2008 12:56:01 21.2 C 5 g/m*3 21.2 C 0 km/h
1985 16-06-2008 13:08:02 22.2 C 4.12 g/m*3 22.2 C 0 km/h
1986 16-06-2008 13:20:01 23.5 C 4.23 g/m*3 23.5 C 0 km/h
1987 16-06-2008 13:32:01 22.1 C 3.9 g/m*3 22.1 C 0 km/h
1988 16-06-2008 13:44:01 22.8 C 4.06 g/m*3 22.8 C 0 km/h
1989 16-06-2008 13:56:02 23.1 C 4.13 g/m*3 23.1 C 0 km/h
1990 16-06-2008 14:08:02 23.6 C 4.47 g/m*3 23.6 C 0 km/h
1991 16-06-2008 14:20:02 22.2 C 3.93 g/m*3 22.2 C 0 km/h
1992 16-06-2008 14:32:03 22.3 C 3.95 g/m*3 22.3 C 0 km/h
1993 16-06-2008 14:44:03 21.2 C 4.08 g/m*3 21.2 C 0 km/h
1994 16-06-2008 14:56:02 21.7 C 4.2 g/m*3 21.7 C 0 km/h
1995 16-06-2008 15:08:02 22 C 4.27 g/m*3 22 C 0 km/h
1996 16-06-2008 15:20:02 22.9 C 4.09 g/m*3 22.9 C 0 km/h
1997 16-06-2008 15:32:02 24 C 4.35 g/m*3 24 C 0 km/h
1998 16-06-2008 15:44:02 22.8 C 4.06 g/m*3 22.8 C 0 km/h
1999 16-06-2008 15:56:02 24 C 4.35 g/m*3 24 C 0 km/h
2000 16-06-2008 16:08:02 25.3 C 4.68 g/m*3 25.3 C 0 km/h
Sensor: Nr:Datum:Temp:Abs-Feuchte:Windchill:Wind:
Aussen-T/F 2001 16-06-2008 16:20:01 24.2 C 4.4 g/m*3 24.2 C 0 km/h
2002 16-06-2008 16:32:02 24.3 C 4.43 g/m*3 24.3 C 0 km/h
2003 16-06-2008 16:44:02 22.4 C 3.97 g/m*3 22.4 C 0 km/h
2004 16-06-2008 16:56:02 21.6 C 4.36 g/m*3 21.6 C 0 km/h
2005 16-06-2008 17:08:02 22.7 C 4.04 g/m*3 22.7 C 0 km/h
2006 16-06-2008 17:20:02 23.7 C 4.28 g/m*3 23.7 C 0 km/h
2007 16-06-2008 17:32:02 25 C 4.6 g/m*3 25 C 0 km/h
2008 16-06-2008 17:44:02 24.5 C 4.48 g/m*3 24.5 C 0 km/h
2009 16-06-2008 17:56:02 24.8 C 4.55 g/m*3 24.8 C 0 km/h
2010 16-06-2008 18:08:01 22.7 C 4.04 g/m*3 22.7 C 0 km/h
2011 16-06-2008 18:20:02 22.3 C 4.15 g/m*3 22.3 C 0 km/h
2012 16-06-2008 18:32:02 22.5 C 4.19 g/m*3 22.5 C 0 km/h
2013 16-06-2008 18:44:02 22.6 C 4.02 g/m*3 22.6 C 0 km/h
2014 16-06-2008 18:56:02 23.9 C 4.33 g/m*3 23.9 C 0 km/h
2015 16-06-2008 19:08:02 22.4 C 3.97 g/m*3 22.4 C 0 km/h
2016 16-06-2008 19:20:02 22.1 C 3.9 g/m*3 22.1 C 0 km/h
2017 16-06-2008 19:32:02 22.7 C 4.04 g/m*3 22.7 C 0 km/h
2018 16-06-2008 19:44:02 22 C 3.88 g/m*3 22 C 0 km/h
2019 16-06-2008 19:56:02 22.5 C 3.99 g/m*3 22.5 C 0 km/h
2020 16-06-2008 20:08:01 22 C 4.08 g/m*3 22 C 0 km/h
2021 16-06-2008 20:20:02 21.1 C 4.05 g/m*3 21.1 C 0 km/h
2022 16-06-2008 20:32:01 20.5 C 4.45 g/m*3 20.5 C 0 km/h
2023 16-06-2008 20:44:01 19.5 C 4.53 g/m*3 19.5 C 0 km/h
2024 16-06-2008 20:56:02 19.1 C 4.59 g/m*3 19.1 C 0 km/h
2025 16-06-2008 21:08:02 18.4 C 4.72 g/m*3 18.4 C 0 km/h
Sensor: Nr:Datum:Temp:Abs-Feuchte:Windchill:Wind:
Aussen-T/F 2026 16-06-2008 21:20:01 17.8 C 5.31 g/m*3 17.8 C 0 km/h
2027 16-06-2008 21:32:02 17.2 C 5.71 g/m*3 17.2 C 0 km/h
2028 16-06-2008 21:44:02 16.4 C 5.58 g/m*3 16.4 C 0 km/h
2029 16-06-2008 21:56:02 16 C 5.45 g/m*3 16 C 0 km/h
2030 16-06-2008 22:08:01 15.5 C 5.29 g/m*3 15.5 C 0 km/h
2031 16-06-2008 22:20:01 15.2 C 5.45 g/m*3 15.2 C 0 km/h
2032 16-06-2008 22:32:02 14.7 C 5.67 g/m*3 14.7 C 0 km/h
2033 16-06-2008 22:44:02 14.6 C 5.63 g/m*3 14.6 C 0 km/h
2034 16-06-2008 22:57:02 14.5 C 5.6 g/m*3 14.5 C 0 km/h
2035 16-06-2008 23:09:02 14.1 C 5.7 g/m*3 14.1 C 0 km/h
2036 16-06-2008 23:21:02 13.9 C 5.87 g/m*3 13.9 C 0 km/h
2037 16-06-2008 23:33:02 13.7 C 6.39 g/m*3 13.7 C 0 km/h
2038 16-06-2008 23:45:02 13.5 C 6.55 g/m*3 13.5 C 0 km/h
2039 16-06-2008 23:57:02 13.6 C 6.59 g/m*3 13.6 C 0 km/h
2040 17-06-2008 00:09:02 13.4 C 6.63 g/m*3 13.4 C 0 km/h
2041 17-06-2008 00:21:02 13 C 6.69 g/m*3 13 C 0 km/h
2042 17-06-2008 00:33:02 12.8 C 6.61 g/m*3 12.8 C 0 km/h
2043 17-06-2008 00:45:02 12.6 C 6.31 g/m*3 12.6 C 0 km/h
2044 17-06-2008 00:57:03 12.3 C 6.52 g/m*3 12.3 C 0 km/h
2045 17-06-2008 01:09:03 12.4 C 6.77 g/m*3 12.4 C 0 km/h
2046 17-06-2008 01:21:03 12.4 C 6.66 g/m*3 12.4 C 0 km/h
2047 17-06-2008 01:33:03 12.2 C 6.58 g/m*3 12.2 C 0 km/h
2048 17-06-2008 01:45:03 11.9 C 6.57 g/m*3 11.9 C 0 km/h
2049 17-06-2008 01:57:03 11.8 C 6.74 g/m*3 11.8 C 0 km/h
2050 17-06-2008 02:09:03 11.6 C 6.65 g/m*3 11.6 C 0 km/h
Sensor: Nr:Datum:Temp:Abs-Feuchte:Windchill:Wind:
Aussen-T/F 2051 17-06-2008 02:21:03 11.3 C 6.63 g/m*3 11.3 C 0 km/h
2052 17-06-2008 02:33:03 10.9 C 6.96 g/m*3 10.9 C 0 km/h
2053 17-06-2008 02:45:03 10.7 C 6.97 g/m*3 10.7 C 0 km/h
2054 17-06-2008 02:57:03 10.6 C 6.83 g/m*3 10.6 C 0 km/h
2055 17-06-2008 03:09:03 10.5 C 6.98 g/m*3 10.5 C 0 km/h
2056 17-06-2008 03:21:03 10.4 C 7.04 g/m*3 10.4 C 0 km/h
2057 17-06-2008 03:33:03 10.3 C 7.09 g/m*3 10.3 C 0 km/h
2058 17-06-2008 03:45:03 10.1 C 6.9 g/m*3 10.1 C 0 km/h
2059 17-06-2008 03:57:03 10.1 C 6.81 g/m*3 10.1 C 0 km/h
2060 17-06-2008 04:09:03 10 C 6.77 g/m*3 10 C 0 km/h
2061 17-06-2008 04:21:03 9.7 C 6.82 g/m*3 9.7 C 0 km/h
2062 17-06-2008 04:33:03 9.5 C 6.83 g/m*3 9.5 C 0 km/h
2063 17-06-2008 04:45:03 9.5 C 6.92 g/m*3 9.5 C 0 km/h
2064 17-06-2008 04:57:04 9.3 C 6.92 g/m*3 9.3 C 0 km/h
2065 17-06-2008 05:09:04 9.1 C 6.92 g/m*3 9.1 C 0 km/h
2066 17-06-2008 05:21:04 8.9 C 7.01 g/m*3 8.9 C 0 km/h
2067 17-06-2008 05:33:04 8.9 C 7.1 g/m*3 8.9 C 0 km/h
2068 17-06-2008 05:45:04 8.8 C 7.14 g/m*3 8.8 C 0 km/h
2069 17-06-2008 05:57:04 8.9 C 7.18 g/m*3 8.9 C 0 km/h
2070 17-06-2008 06:09:04 8.9 C 7.18 g/m*3 8.9 C 0 km/h
2071 17-06-2008 06:21:04 8.9 C 7.27 g/m*3 8.9 C 0 km/h
2072 17-06-2008 06:33:04 9.1 C 7.19 g/m*3 9.1 C 0 km/h
2073 17-06-2008 06:45:04 9.2 C 7.23 g/m*3 9.2 C 0 km/h
2074 17-06-2008 06:57:04 9.3 C 7.28 g/m*3 9.3 C 0 km/h
2075 17-06-2008 07:09:03 9.3 C 7.28 g/m*3 9.3 C 0 km/h
Sensor: Nr:Datum:Temp:Abs-Feuchte:Windchill:Wind:
Aussen-T/F 2076 17-06-2008 07:21:03 9.5 C 7.37 g/m*3 9.5 C 0 km/h
2077 17-06-2008 07:33:03 9.6 C 7.42 g/m*3 9.6 C 0 km/h
2078 17-06-2008 07:45:02 9.9 C 7.47 g/m*3 9.9 C 0 km/h
2079 17-06-2008 07:57:03 10.2 C 7.33 g/m*3 10.2 C 0 km/h
2080 17-06-2008 08:09:02 10.7 C 7.46 g/m*3 10.7 C 0 km/h
2081 17-06-2008 08:21:02 11.3 C 7.45 g/m*3 11.3 C 0 km/h
2082 17-06-2008 08:33:02 11.5 C 7.44 g/m*3 11.5 C 0 km/h
2083 17-06-2008 08:45:01 11.9 C 7.52 g/m*3 11.9 C 0 km/h
2084 17-06-2008 08:57:01 12.4 C 7.65 g/m*3 12.4 C 0 km/h
2085 17-06-2008 09:09:01 12.7 C 7.68 g/m*3 12.7 C 0 km/h
2086 17-06-2008 09:21:02 13.6 C 7.53 g/m*3 13.6 C 0 km/h
2087 17-06-2008 09:33:01 14.6 C 7.38 g/m*3 14.6 C 0 km/h
2088 17-06-2008 09:45:02 15.6 C 7.18 g/m*3 15.6 C 0 km/h
2089 17-06-2008 09:57:02 16.2 C 7.03 g/m*3 16.2 C 0 km/h
2090 17-06-2008 10:09:01 16.8 C 7.01 g/m*3 16.8 C 0 km/h
2091 17-06-2008 10:21:02 17.4 C 7.11 g/m*3 17.4 C 0 km/h
2092 17-06-2008 10:33:02 18.4 C 7.08 g/m*3 18.4 C 0 km/h
2093 17-06-2008 10:45:02 18.7 C 6.88 g/m*3 18.7 C 0 km/h
2094 17-06-2008 10:57:02 19.1 C 6.88 g/m*3 19.1 C 0 km/h
2095 17-06-2008 11:09:01 19.2 C 6.76 g/m*3 19.2 C 0 km/h
2096 17-06-2008 11:21:02 20 C 7.09 g/m*3 20 C 0 km/h
2097 17-06-2008 11:33:02 20.5 C 6.94 g/m*3 20.5 C 0 km/h
2098 17-06-2008 11:45:02 21.6 C 6.83 g/m*3 21.6 C 0 km/h
2099 17-06-2008 11:57:02 21.9 C 6.56 g/m*3 21.9 C 0 km/h
2100 17-06-2008 12:09:02 21.3 C 6.52 g/m*3 21.3 C 0 km/h
Sensor: Nr:Datum:Temp:Abs-Feuchte:Windchill:Wind:
Aussen-T/F 2101 17-06-2008 12:21:02 20.9 C 6.37 g/m*3 20.9 C 0 km/h
2102 17-06-2008 12:33:03 20.1 C 6.26 g/m*3 20.1 C 0 km/h
2103 17-06-2008 12:45:03 20.2 C 5.77 g/m*3 20.2 C 0 km/h
2104 17-06-2008 12:57:03 20.1 C 6.95 g/m*3 20.1 C 0 km/h
2105 17-06-2008 13:09:02 20.2 C 7.34 g/m*3 20.2 C 0 km/h
2106 17-06-2008 13:21:02 20.4 C 7.43 g/m*3 20.4 C 0 km/h
2107 17-06-2008 13:33:02 21.3 C 7.08 g/m*3 21.3 C 0 km/h
2108 17-06-2008 13:45:01 22 C 5.24 g/m*3 22 C 0 km/h
2109 17-06-2008 13:57:01 23.2 C 4.99 g/m*3 23.2 C 0 km/h
2110 17-06-2008 14:09:02 23.2 C 4.57 g/m*3 23.2 C 0 km/h
2111 17-06-2008 14:21:02 23.8 C 5.38 g/m*3 23.8 C 0 km/h
2112 17-06-2008 14:33:02 24.1 C 5.47 g/m*3 24.1 C 0 km/h
2113 17-06-2008 14:45:02 24.5 C 4.7 g/m*3 24.5 C 0 km/h
2114 17-06-2008 14:57:02 24.9 C 4.81 g/m*3 24.9 C 0 km/h
2115 17-06-2008 15:09:02 25.1 C 4.86 g/m*3 25.1 C 0 km/h
2116 17-06-2008 15:21:02 25.2 C 4.66 g/m*3 25.2 C 0 km/h
2117 17-06-2008 15:33:02 26.6 C 5.03 g/m*3 26.6 C 0 km/h
2118 17-06-2008 15:45:02 27.1 C 5.18 g/m*3 27.1 C 0 km/h
2119 17-06-2008 15:57:02 25.8 C 4.82 g/m*3 25.8 C 0 km/h
2120 17-06-2008 16:09:02 25.4 C 4.71 g/m*3 25.4 C 0 km/h
2121 17-06-2008 16:21:02 25.7 C 4.79 g/m*3 25.7 C 0 km/h
2122 17-06-2008 16:33:03 26.9 C 5.12 g/m*3 26.9 C 0 km/h
2123 17-06-2008 16:45:02 28.8 C 5.68 g/m*3 28.8 C 0 km/h
2124 17-06-2008 16:57:02 29 C 5.74 g/m*3 29 C 0 km/h
2125 17-06-2008 17:09:02 28 C 5.44 g/m*3 28 C 0 km/h
Sensor: Nr:Datum:Temp:Abs-Feuchte:Windchill:Wind:
Aussen-T/F 2126 17-06-2008 17:21:02 25.7 C 4.79 g/m*3 25.7 C 0 km/h
2127 17-06-2008 17:33:02 25.4 C 5.89 g/m*3 25.4 C 0 km/h
2128 17-06-2008 17:45:02 25.2 C 6.29 g/m*3 25.2 C 0 km/h
2129 17-06-2008 17:57:02 24.9 C 5.95 g/m*3 24.9 C 0 km/h
2130 17-06-2008 18:09:02 26.7 C 5.06 g/m*3 26.7 C 0 km/h
2131 17-06-2008 18:21:02 28.5 C 5.59 g/m*3 28.5 C 0 km/h
2132 17-06-2008 18:33:02 27 C 5.15 g/m*3 27 C 0 km/h
2133 17-06-2008 18:45:02 25.5 C 6.39 g/m*3 25.5 C 0 km/h
2134 17-06-2008 18:57:02 24.3 C 6.64 g/m*3 24.3 C 0 km/h
2135 17-06-2008 19:09:02 23.4 C 6.73 g/m*3 23.4 C 0 km/h
2136 17-06-2008 19:21:03 23.1 C 6.82 g/m*3 23.1 C 0 km/h
2137 17-06-2008 19:33:02 22.5 C 7.19 g/m*3 22.5 C 0 km/h
2138 17-06-2008 19:45:02 21.9 C 7.14 g/m*3 21.9 C 0 km/h
2139 17-06-2008 19:57:03 21.5 C 6.98 g/m*3 21.5 C 0 km/h
2140 17-06-2008 20:09:01 21.2 C 7.23 g/m*3 21.2 C 0 km/h
2141 17-06-2008 20:21:01 20.8 C 7.06 g/m*3 20.8 C 0 km/h
2142 17-06-2008 20:33:02 20.5 C 6.76 g/m*3 20.5 C 0 km/h
2143 17-06-2008 20:45:02 20.2 C 6.12 g/m*3 20.2 C 0 km/h
2144 17-06-2008 20:57:02 20 C 6.22 g/m*3 20 C 0 km/h
2145 17-06-2008 21:09:02 19.8 C 6.49 g/m*3 19.8 C 0 km/h
2146 17-06-2008 21:21:02 19.4 C 6.34 g/m*3 19.4 C 0 km/h
2147 17-06-2008 21:33:02 19 C 6.36 g/m*3 19 C 0 km/h
2148 17-06-2008 21:45:02 18.7 C 6.4 g/m*3 18.7 C 0 km/h
2149 17-06-2008 21:57:02 18.2 C 6.68 g/m*3 18.2 C 0 km/h
2150 17-06-2008 22:09:02 17.7 C 6.79 g/m*3 17.7 C 0 km/h
Sensor: Nr:Datum:Temp:Abs-Feuchte:Windchill:Wind:
Aussen-T/F 2151 17-06-2008 22:21:02 17.8 C 6.98 g/m*3 17.8 C 0 km/h
2152 17-06-2008 22:34:02 17.4 C 6.82 g/m*3 17.4 C 0 km/h
2153 17-06-2008 22:46:02 17.2 C 7.03 g/m*3 17.2 C 0 km/h
2154 17-06-2008 22:58:02 17.2 C 7.18 g/m*3 17.2 C 0 km/h
2155 17-06-2008 23:10:02 17.3 C 7.22 g/m*3 17.3 C 0 km/h
2156 17-06-2008 23:22:02 17.2 C 7.47 g/m*3 17.2 C 0 km/h
2157 17-06-2008 23:34:02 17.1 C 7.42 g/m*3 17.1 C 0 km/h
2158 17-06-2008 23:46:02 16.7 C 7.39 g/m*3 16.7 C 0 km/h
2159 17-06-2008 23:58:02 16.5 C 7.72 g/m*3 16.5 C 0 km/h
2160 18-06-2008 00:10:03 16.3 C 7.91 g/m*3 16.3 C 0 km/h
2161 18-06-2008 00:22:03 16.3 C 8.05 g/m*3 16.3 C 0 km/h
2162 18-06-2008 00:34:03 16.4 C 8.1 g/m*3 16.4 C 0 km/h
2163 18-06-2008 00:46:03 16.6 C 8.05 g/m*3 16.6 C 0 km/h
2164 18-06-2008 00:58:03 16.7 C 8.1 g/m*3 16.7 C 0 km/h
2165 18-06-2008 01:10:03 16.2 C 8.27 g/m*3 16.2 C 0 km/h
2166 18-06-2008 01:22:03 16 C 8.45 g/m*3 16 C 0 km/h
2167 18-06-2008 01:34:03 15.7 C 8.3 g/m*3 15.7 C 0 km/h
2168 18-06-2008 01:46:03 15.5 C 8.2 g/m*3 15.5 C 0 km/h
2169 18-06-2008 01:58:03 15.4 C 8.41 g/m*3 15.4 C 0 km/h
2170 18-06-2008 02:10:03 15.6 C 8.51 g/m*3 15.6 C 0 km/h
2171 18-06-2008 02:22:03 15.3 C 8.49 g/m*3 15.3 C 0 km/h
2172 18-06-2008 02:34:03 15.2 C 8.57 g/m*3 15.2 C 0 km/h
2173 18-06-2008 02:46:03 15.1 C 8.64 g/m*3 15.1 C 0 km/h
2174 18-06-2008 02:58:03 15.1 C 8.77 g/m*3 15.1 C 0 km/h
2175 18-06-2008 03:10:03 15.1 C 8.77 g/m*3 15.1 C 0 km/h
Sensor: Nr:Datum:Temp:Abs-Feuchte:Windchill:Wind:
Aussen-T/F 2176 18-06-2008 03:22:03 15 C 8.59 g/m*3 15 C 0 km/h
2177 18-06-2008 03:34:03 14.7 C 8.81 g/m*3 14.7 C 0 km/h
2178 18-06-2008 03:46:03 14.4 C 8.78 g/m*3 14.4 C 0 km/h
2179 18-06-2008 03:58:03 14 C 8.56 g/m*3 14 C 0 km/h
2180 18-06-2008 04:10:04 13.8 C 8.7 g/m*3 13.8 C 0 km/h
2181 18-06-2008 04:22:04 13.6 C 8.83 g/m*3 13.6 C 0 km/h
2182 18-06-2008 04:34:04 13.4 C 8.6 g/m*3 13.4 C 0 km/h
2183 18-06-2008 04:46:04 13.2 C 8.84 g/m*3 13.2 C 0 km/h
2184 18-06-2008 04:58:04 13 C 8.85 g/m*3 13 C 0 km/h
2185 18-06-2008 05:10:04 12.8 C 8.85 g/m*3 12.8 C 0 km/h
2186 18-06-2008 05:22:04 12.6 C 8.85 g/m*3 12.6 C 0 km/h
2187 18-06-2008 05:34:04 12.5 C 8.91 g/m*3 12.5 C 0 km/h
2188 18-06-2008 05:46:04 12.4 C 8.74 g/m*3 12.4 C 0 km/h
2189 18-06-2008 05:58:04 12.3 C 8.8 g/m*3 12.3 C 0 km/h
2190 18-06-2008 06:10:04 12.3 C 8.8 g/m*3 12.3 C 0 km/h
2191 18-06-2008 06:22:04 12.4 C 8.85 g/m*3 12.4 C 0 km/h
2192 18-06-2008 06:34:04 12.5 C 8.91 g/m*3 12.5 C 0 km/h
2193 18-06-2008 06:46:04 12.5 C 8.91 g/m*3 12.5 C 0 km/h
2194 18-06-2008 06:58:04 12.5 C 8.8 g/m*3 12.5 C 0 km/h
2195 18-06-2008 07:10:03 12.6 C 8.85 g/m*3 12.6 C 0 km/h
2196 18-06-2008 07:22:02 12.8 C 8.96 g/m*3 12.8 C 0 km/h
2197 18-06-2008 07:34:02 12.8 C 8.96 g/m*3 12.8 C 0 km/h
2198 18-06-2008 07:46:02 13.1 C 9.01 g/m*3 13.1 C 0 km/h
2199 18-06-2008 07:58:02 13.4 C 9.18 g/m*3 13.4 C 0 km/h
2200 18-06-2008 08:10:01 13.8 C 9.17 g/m*3 13.8 C 0 km/h
Sensor: Nr:Datum:Temp:Abs-Feuchte:Windchill:Wind:
Aussen-T/F 2201 18-06-2008 08:22:01 14.1 C 9.1 g/m*3 14.1 C 0 km/h
2202 18-06-2008 08:34:02 14.5 C 9.08 g/m*3 14.5 C 0 km/h
2203 18-06-2008 08:46:02 14.9 C 9.18 g/m*3 14.9 C 0 km/h
2204 18-06-2008 08:58:02 15.4 C 9.07 g/m*3 15.4 C 0 km/h
2205 18-06-2008 09:10:02 16.1 C 9.05 g/m*3 16.1 C 0 km/h
2206 18-06-2008 09:22:02 16.7 C 8.81 g/m*3 16.7 C 0 km/h
2207 18-06-2008 09:34:02 17.4 C 8.6 g/m*3 17.4 C 0 km/h
2208 18-06-2008 09:46:02 18 C 8.45 g/m*3 18 C 0 km/h
2209 18-06-2008 09:58:03 18.7 C 8.49 g/m*3 18.7 C 0 km/h
2210 18-06-2008 10:10:01 18.9 C 7.61 g/m*3 18.9 C 0 km/h
2211 18-06-2008 10:22:02 19.7 C 7.3 g/m*3 19.7 C 0 km/h
2212 18-06-2008 10:34:02 20 C 6.39 g/m*3 20 C 0 km/h
2213 18-06-2008 10:46:02 20.5 C 6.58 g/m*3 20.5 C 0 km/h
2214 18-06-2008 10:58:02 21.4 C 6 g/m*3 21.4 C 0 km/h
2215 18-06-2008 11:10:02 21.9 C 5.79 g/m*3 21.9 C 0 km/h
2216 18-06-2008 11:22:02 22.1 C 4.88 g/m*3 22.1 C 0 km/h
2217 18-06-2008 11:34:02 23.3 C 5.02 g/m*3 23.3 C 0 km/h
2218 18-06-2008 11:46:02 23.4 C 4.42 g/m*3 23.4 C 0 km/h
2219 18-06-2008 11:58:02 23.6 C 4.68 g/m*3 23.6 C 0 km/h
2220 18-06-2008 12:10:01 23.7 C 4.92 g/m*3 23.7 C 0 km/h
2221 18-06-2008 12:22:01 24.3 C 4.65 g/m*3 24.3 C 0 km/h
2222 18-06-2008 12:34:02 25.3 C 4.68 g/m*3 25.3 C 0 km/h
2223 18-06-2008 12:46:02 25.3 C 4.68 g/m*3 25.3 C 0 km/h
2224 18-06-2008 12:58:02 24 C 4.57 g/m*3 24 C 0 km/h
2225 18-06-2008 13:10:02 25.4 C 4.71 g/m*3 25.4 C 0 km/h
Sensor: Nr:Datum:Temp:Abs-Feuchte:Windchill:Wind:
Aussen-T/F 2226 18-06-2008 13:22:02 27 C 5.15 g/m*3 27 C 0 km/h
2227 18-06-2008 13:34:03 26.3 C 4.95 g/m*3 26.3 C 0 km/h
2228 18-06-2008 13:46:01 26.1 C 4.9 g/m*3 26.1 C 0 km/h
2229 18-06-2008 13:58:01 26.6 C 5.03 g/m*3 26.6 C 0 km/h
2230 18-06-2008 14:10:02 26.1 C 4.9 g/m*3 26.1 C 0 km/h
2231 18-06-2008 14:22:02 25.6 C 4.76 g/m*3 25.6 C 0 km/h
2232 18-06-2008 14:34:02 26.4 C 4.98 g/m*3 26.4 C 0 km/h
2233 18-06-2008 14:46:02 27.2 C 5.2 g/m*3 27.2 C 0 km/h
2234 18-06-2008 14:58:02 26.8 C 5.09 g/m*3 26.8 C 0 km/h
2235 18-06-2008 15:10:02 27.4 C 5.26 g/m*3 27.4 C 0 km/h
2236 18-06-2008 15:22:02 27.2 C 5.2 g/m*3 27.2 C 0 km/h
2237 18-06-2008 15:34:02 27.6 C 5.32 g/m*3 27.6 C 0 km/h
2238 18-06-2008 15:46:02 26.8 C 5.09 g/m*3 26.8 C 0 km/h
2239 18-06-2008 15:58:02 27.3 C 5.23 g/m*3 27.3 C 0 km/h
2240 18-06-2008 16:10:02 27.7 C 5.35 g/m*3 27.7 C 0 km/h
2241 18-06-2008 16:22:03 28.4 C 5.56 g/m*3 28.4 C 0 km/h
2242 18-06-2008 16:34:02 28.2 C 5.5 g/m*3 28.2 C 0 km/h
2243 18-06-2008 16:46:02 27.8 C 5.38 g/m*3 27.8 C 0 km/h
2244 18-06-2008 16:58:02 27.3 C 5.23 g/m*3 27.3 C 0 km/h
2245 18-06-2008 17:10:02 26.4 C 4.98 g/m*3 26.4 C 0 km/h
2246 18-06-2008 17:22:02 27.9 C 5.41 g/m*3 27.9 C 0 km/h
2247 18-06-2008 17:34:02 27.6 C 5.32 g/m*3 27.6 C 0 km/h
2248 18-06-2008 17:46:03 26.4 C 5.23 g/m*3 26.4 C 0 km/h
2249 18-06-2008 17:58:03 27.9 C 5.41 g/m*3 27.9 C 0 km/h
2250 18-06-2008 18:10:02 27 C 5.15 g/m*3 27 C 0 km/h
Sensor: Nr:Datum:Temp:Abs-Feuchte:Windchill:Wind:
Aussen-T/F 2251 18-06-2008 18:22:02 26.9 C 5.12 g/m*3 26.9 C 0 km/h
2252 18-06-2008 18:34:02 27.2 C 5.2 g/m*3 27.2 C 0 km/h
2253 18-06-2008 18:46:02 27.6 C 5.32 g/m*3 27.6 C 0 km/h
2254 18-06-2008 18:58:02 27.3 C 5.23 g/m*3 27.3 C 0 km/h
2255 18-06-2008 19:10:02 27.1 C 5.18 g/m*3 27.1 C 0 km/h
2256 18-06-2008 19:22:02 26.1 C 5.14 g/m*3 26.1 C 0 km/h
2257 18-06-2008 19:34:02 25.9 C 5.81 g/m*3 25.9 C 0 km/h
2258 18-06-2008 19:46:01 26.3 C 6.19 g/m*3 26.3 C 0 km/h
2259 18-06-2008 19:58:01 27.4 C 5.53 g/m*3 27.4 C 0 km/h
2260 18-06-2008 20:10:01 26.5 C 6.01 g/m*3 26.5 C 0 km/h
2261 18-06-2008 20:22:02 25.8 C 6.26 g/m*3 25.8 C 0 km/h
2262 18-06-2008 20:34:01 24.4 C 6.23 g/m*3 24.4 C 0 km/h
2263 18-06-2008 20:46:02 23.5 C 6.56 g/m*3 23.5 C 0 km/h
2264 18-06-2008 20:58:02 22.7 C 6.47 g/m*3 22.7 C 0 km/h
2265 18-06-2008 21:10:02 22.6 C 6.83 g/m*3 22.6 C 0 km/h
2266 18-06-2008 21:22:01 22.2 C 6.87 g/m*3 22.2 C 0 km/h
2267 18-06-2008 21:34:02 21.5 C 6.98 g/m*3 21.5 C 0 km/h
2268 18-06-2008 21:46:02 21 C 6.78 g/m*3 21 C 0 km/h
2269 18-06-2008 21:58:02 20.7 C 7.2 g/m*3 20.7 C 0 km/h
2270 18-06-2008 22:11:03 20.1 C 6.95 g/m*3 20.1 C 0 km/h
2271 18-06-2008 22:23:03 20.2 C 6.99 g/m*3 20.2 C 0 km/h
2272 18-06-2008 22:35:03 20 C 6.91 g/m*3 20 C 0 km/h
2273 18-06-2008 22:47:03 20.1 C 6.61 g/m*3 20.1 C 0 km/h
2274 18-06-2008 22:59:03 20 C 6.57 g/m*3 20 C 0 km/h
2275 18-06-2008 23:11:03 19.9 C 6.7 g/m*3 19.9 C 0 km/h
Sensor: Nr:Datum:Temp:Abs-Feuchte:Windchill:Wind:
Aussen-T/F 2276 18-06-2008 23:23:03 19.8 C 7 g/m*3 19.8 C 0 km/h
2277 18-06-2008 23:35:03 19.5 C 7.05 g/m*3 19.5 C 0 km/h
2278 18-06-2008 23:47:03 19.1 C 7.05 g/m*3 19.1 C 0 km/h
2279 18-06-2008 23:59:04 18.8 C 7.25 g/m*3 18.8 C 0 km/h
2280 19-06-2008 00:11:04 18.6 C 7.16 g/m*3 18.6 C 0 km/h
2281 19-06-2008 00:23:04 18.5 C 7.12 g/m*3 18.5 C 0 km/h
2282 19-06-2008 00:35:04 18.3 C 7.35 g/m*3 18.3 C 0 km/h
2283 19-06-2008 00:47:04 18.2 C 7.15 g/m*3 18.2 C 0 km/h
2284 19-06-2008 00:59:04 17.9 C 7.33 g/m*3 17.9 C 0 km/h
2285 19-06-2008 01:11:04 17.6 C 7.35 g/m*3 17.6 C 0 km/h
2286 19-06-2008 01:23:04 17.5 C 7.31 g/m*3 17.5 C 0 km/h
2287 19-06-2008 01:35:04 17.5 C 7.6 g/m*3 17.5 C 0 km/h
2288 19-06-2008 01:47:04 16.9 C 7.77 g/m*3 16.9 C 0 km/h
2289 19-06-2008 01:59:04 17 C 7.38 g/m*3 17 C 0 km/h
2290 19-06-2008 02:11:04 16.9 C 7.48 g/m*3 16.9 C 0 km/h
2291 19-06-2008 02:23:04 17 C 7.38 g/m*3 17 C 0 km/h
2292 19-06-2008 02:35:04 16.8 C 7.72 g/m*3 16.8 C 0 km/h
2293 19-06-2008 02:47:04 16.5 C 7.86 g/m*3 16.5 C 0 km/h
2294 19-06-2008 02:59:04 16.5 C 7.86 g/m*3 16.5 C 0 km/h
2295 19-06-2008 03:11:04 16.3 C 7.91 g/m*3 16.3 C 0 km/h
2296 19-06-2008 03:23:04 16.2 C 7.86 g/m*3 16.2 C 0 km/h
2297 19-06-2008 03:35:04 16.2 C 7.72 g/m*3 16.2 C 0 km/h
2298 19-06-2008 03:47:04 16.3 C 7.63 g/m*3 16.3 C 0 km/h
2299 19-06-2008 03:59:05 15.9 C 8.26 g/m*3 15.9 C 0 km/h
2300 19-06-2008 04:11:05 15.6 C 8.38 g/m*3 15.6 C 0 km/h
Sensor: Nr:Datum:Temp:Abs-Feuchte:Windchill:Wind:
Aussen-T/F 2301 19-06-2008 04:23:05 15.7 C 8.43 g/m*3 15.7 C 0 km/h
2302 19-06-2008 04:35:05 15.6 C 8.38 g/m*3 15.6 C 0 km/h
2303 19-06-2008 04:47:05 15.7 C 8.16 g/m*3 15.7 C 0 km/h
2304 19-06-2008 04:59:05 16 C 7.63 g/m*3 16 C 0 km/h
2305 19-06-2008 05:11:05 16 C 7.77 g/m*3 16 C 0 km/h
2306 19-06-2008 05:23:05 16 C 7.9 g/m*3 16 C 0 km/h
2307 19-06-2008 05:35:05 16 C 7.9 g/m*3 16 C 0 km/h
2308 19-06-2008 05:47:05 15.6 C 8.11 g/m*3 15.6 C 0 km/h
2309 19-06-2008 05:59:05 15.5 C 8.2 g/m*3 15.5 C 0 km/h
2310 19-06-2008 06:11:05 15.6 C 8.25 g/m*3 15.6 C 0 km/h
2311 19-06-2008 06:23:05 15.8 C 8.35 g/m*3 15.8 C 0 km/h
2312 19-06-2008 06:35:05 15.8 C 8.21 g/m*3 15.8 C 0 km/h
2313 19-06-2008 06:47:05 15.9 C 8.26 g/m*3 15.9 C 0 km/h
2314 19-06-2008 06:59:05 15.9 C 8.4 g/m*3 15.9 C 0 km/h
2315 19-06-2008 07:11:02 16 C 8.31 g/m*3 16 C 0 km/h
2316 19-06-2008 07:23:02 16.2 C 8.41 g/m*3 16.2 C 0 km/h
2317 19-06-2008 07:35:02 16.3 C 8.46 g/m*3 16.3 C 0 km/h
2318 19-06-2008 07:47:02 16.5 C 8.57 g/m*3 16.5 C 0 km/h
2319 19-06-2008 07:59:02 16.7 C 8.67 g/m*3 16.7 C 0 km/h
2320 19-06-2008 08:11:02 17.6 C 8.55 g/m*3 17.6 C 0 km/h
2321 19-06-2008 08:23:01 17.8 C 8.35 g/m*3 17.8 C 0 km/h
2322 19-06-2008 08:35:02 18.2 C 8.39 g/m*3 18.2 C 0 km/h
2323 19-06-2008 08:47:02 18.8 C 8.54 g/m*3 18.8 C 0 km/h
2324 19-06-2008 08:59:02 19 C 7.99 g/m*3 19 C 0 km/h
2325 19-06-2008 09:11:02 18.7 C 7.2 g/m*3 18.7 C 0 km/h
Sensor: Nr:Datum:Temp:Abs-Feuchte:Windchill:Wind:
Aussen-T/F 2326 19-06-2008 09:23:02 18.5 C 7.12 g/m*3 18.5 C 0 km/h
2327 19-06-2008 09:35:02 19 C 6.84 g/m*3 19 C 0 km/h
2328 19-06-2008 09:47:02 18.8 C 6.93 g/m*3 18.8 C 0 km/h
2329 19-06-2008 09:59:03 19.2 C 7.09 g/m*3 19.2 C 0 km/h
2330 19-06-2008 10:11:01 19.5 C 6.88 g/m*3 19.5 C 0 km/h
2331 19-06-2008 10:23:02 19.8 C 7.17 g/m*3 19.8 C 0 km/h
2332 19-06-2008 10:35:02 20.5 C 6.94 g/m*3 20.5 C 0 km/h
2333 19-06-2008 10:47:02 21.2 C 6.86 g/m*3 21.2 C 0 km/h
2334 19-06-2008 10:59:02 21.5 C 6.79 g/m*3 21.5 C 0 km/h
2335 19-06-2008 11:11:02 22.1 C 6.25 g/m*3 22.1 C 0 km/h
2336 19-06-2008 11:23:02 22.9 C 6.54 g/m*3 22.9 C 0 km/h
2337 19-06-2008 11:35:02 23.2 C 6.03 g/m*3 23.2 C 0 km/h
2338 19-06-2008 11:47:02 23.6 C 5.74 g/m*3 23.6 C 0 km/h
2339 19-06-2008 11:59:02 23.9 C 5.62 g/m*3 23.9 C 0 km/h
2340 19-06-2008 12:11:02 25.1 C 5.09 g/m*3 25.1 C 0 km/h
2341 19-06-2008 12:23:03 23.8 C 5.38 g/m*3 23.8 C 0 km/h
2342 19-06-2008 12:35:02 23.7 C 5.56 g/m*3 23.7 C 0 km/h
2343 19-06-2008 12:47:02 23.9 C 5.84 g/m*3 23.9 C 0 km/h
2344 19-06-2008 12:59:02 24.5 C 5.6 g/m*3 24.5 C 0 km/h
2345 19-06-2008 13:11:01 24.5 C 5.6 g/m*3 24.5 C 0 km/h
2346 19-06-2008 13:23:02 26.2 C 5.17 g/m*3 26.2 C 0 km/h
2347 19-06-2008 13:35:02 25.9 C 5.57 g/m*3 25.9 C 0 km/h
2348 19-06-2008 13:47:02 25.7 C 5.75 g/m*3 25.7 C 0 km/h
2349 19-06-2008 13:59:02 25.8 C 5.54 g/m*3 25.8 C 0 km/h
2350 19-06-2008 14:11:02 25.8 C 5.54 g/m*3 25.8 C 0 km/h
Sensor: Nr:Datum:Temp:Abs-Feuchte:Windchill:Wind:
Aussen-T/F 2351 19-06-2008 14:23:02 25.6 C 5.48 g/m*3 25.6 C 0 km/h
2352 19-06-2008 14:35:03 25.3 C 5.15 g/m*3 25.3 C 0 km/h
2353 19-06-2008 14:47:02 25.1 C 5.09 g/m*3 25.1 C 0 km/h
2354 19-06-2008 14:59:02 25.7 C 5.51 g/m*3 25.7 C 0 km/h
2355 19-06-2008 15:11:02 25.7 C 5.75 g/m*3 25.7 C 0 km/h
2356 19-06-2008 15:23:02 25.9 C 6.05 g/m*3 25.9 C 0 km/h
2357 19-06-2008 15:35:01 26.1 C 5.88 g/m*3 26.1 C 0 km/h
2358 19-06-2008 15:47:02 26.7 C 5.82 g/m*3 26.7 C 0 km/h
2359 19-06-2008 15:59:02 26.1 C 5.88 g/m*3 26.1 C 0 km/h
2360 19-06-2008 16:11:02 25.2 C 6.05 g/m*3 25.2 C 0 km/h
2361 19-06-2008 16:23:02 26.4 C 6.22 g/m*3 26.4 C 0 km/h
2362 19-06-2008 16:35:02 26.5 C 6.26 g/m*3 26.5 C 0 km/h
2363 19-06-2008 16:47:02 26.4 C 6.22 g/m*3 26.4 C 0 km/h
2364 19-06-2008 16:59:02 26.1 C 6.12 g/m*3 26.1 C 0 km/h
2365 19-06-2008 17:11:03 26.5 C 6.26 g/m*3 26.5 C 0 km/h
2366 19-06-2008 17:23:02 26.3 C 6.44 g/m*3 26.3 C 0 km/h
2367 19-06-2008 17:35:02 25.9 C 6.78 g/m*3 25.9 C 0 km/h
2368 19-06-2008 17:47:02 26.1 C 7.1 g/m*3 26.1 C 0 km/h
2369 19-06-2008 17:59:02 25.7 C 7.18 g/m*3 25.7 C 0 km/h
2370 19-06-2008 18:11:02 24.8 C 7.06 g/m*3 24.8 C 0 km/h
2371 19-06-2008 18:23:02 24.7 C 7.02 g/m*3 24.7 C 0 km/h
2372 19-06-2008 18:35:02 24.6 C 7.2 g/m*3 24.6 C 0 km/h
2373 19-06-2008 18:47:02 25.6 C 7.14 g/m*3 25.6 C 0 km/h
2374 19-06-2008 18:59:02 26.3 C 7.18 g/m*3 26.3 C 0 km/h
2375 19-06-2008 19:11:01 25.7 C 7.18 g/m*3 25.7 C 0 km/h
Sensor: Nr:Datum:Temp:Abs-Feuchte:Windchill:Wind:
Aussen-T/F 2376 19-06-2008 19:23:01 24.2 C 7.26 g/m*3 24.2 C 0 km/h
2377 19-06-2008 19:35:02 23.9 C 7.79 g/m*3 23.9 C 0 km/h
2378 19-06-2008 19:47:01 23.6 C 7.66 g/m*3 23.6 C 0 km/h
2379 19-06-2008 19:59:01 23.3 C 7.74 g/m*3 23.3 C 0 km/h
2380 19-06-2008 20:11:02 23.2 C 7.69 g/m*3 23.2 C 0 km/h
2381 19-06-2008 20:23:01 23 C 7.81 g/m*3 23 C 0 km/h
2382 19-06-2008 20:35:01 22.6 C 8.04 g/m*3 22.6 C 0 km/h
2383 19-06-2008 20:47:03 22.3 C 8.1 g/m*3 22.3 C 0 km/h
2384 19-06-2008 20:59:03 21.9 C 8.3 g/m*3 21.9 C 0 km/h
2385 19-06-2008 21:11:02 21.9 C 8.3 g/m*3 21.9 C 0 km/h
2386 19-06-2008 21:23:02 21.6 C 8.35 g/m*3 21.6 C 0 km/h
2387 19-06-2008 21:35:03 21.6 C 8.35 g/m*3 21.6 C 0 km/h
2388 19-06-2008 21:47:02 21.4 C 8.25 g/m*3 21.4 C 0 km/h
2389 19-06-2008 21:59:02 21.5 C 8.49 g/m*3 21.5 C 0 km/h
2390 19-06-2008 22:11:02 21.4 C 8.44 g/m*3 21.4 C 0 km/h
2391 19-06-2008 22:23:02 18.9 C 11.83 g/m*3 18.9 C 0 km/h
2392 19-06-2008 22:35:02 17.8 C 12.45 g/m*3 17.8 C 0 km/h
2393 19-06-2008 22:47:02 17.6 C 12.75 g/m*3 17.6 C 0 km/h
2394 19-06-2008 22:59:02 17.5 C 12.82 g/m*3 17.5 C 0 km/h
2395 19-06-2008 23:11:02 17.4 C 12.89 g/m*3 17.4 C 0 km/h
2396 19-06-2008 23:23:02 17.9 C 13.44 g/m*3 17.9 C 0 km/h
2397 19-06-2008 23:35:02 17.5 C 13.12 g/m*3 17.5 C 0 km/h
2398 19-06-2008 23:47:02 17.4 C 13.04 g/m*3 17.4 C 0 km/h
2399 19-06-2008 23:59:02 16.8 C 12.58 g/m*3 16.8 C 0 km/h
2400 20-06-2008 00:11:02 16.8 C 12.58 g/m*3 16.8 C 0 km/h
Sensor: Nr:Datum:Temp:Abs-Feuchte:Windchill:Wind:
Aussen-T/F 2401 20-06-2008 00:23:02 16.1 C 11.79 g/m*3 16.1 C 0 km/h
2402 20-06-2008 00:35:02 15.5 C 11.37 g/m*3 15.5 C 0 km/h
2403 20-06-2008 00:47:02 15.4 C 11.56 g/m*3 15.4 C 0 km/h
2404 20-06-2008 00:59:02 15.6 C 11.84 g/m*3 15.6 C 0 km/h
2405 20-06-2008 01:11:02 15.4 C 11.69 g/m*3 15.4 C 0 km/h
2406 20-06-2008 01:23:01 15.2 C 11.55 g/m*3 15.2 C 0 km/h
2407 20-06-2008 01:35:02 15 C 11.41 g/m*3 15 C 0 km/h
2408 20-06-2008 01:47:03 14.9 C 11.34 g/m*3 14.9 C 0 km/h
2409 20-06-2008 01:59:03 14.5 C 10.94 g/m*3 14.5 C 0 km/h
2410 20-06-2008 02:11:02 14.1 C 10.44 g/m*3 14.1 C 0 km/h
2411 20-06-2008 02:23:02 13.7 C 10.07 g/m*3 13.7 C 0 km/h
2412 20-06-2008 02:35:03 13.6 C 9.65 g/m*3 13.6 C 0 km/h
2413 20-06-2008 02:47:02 13.2 C 9.53 g/m*3 13.2 C 0 km/h
2414 20-06-2008 02:59:02 13 C 9.53 g/m*3 13 C 0 km/h
2415 20-06-2008 03:11:02 12.8 C 9.63 g/m*3 12.8 C 0 km/h
2416 20-06-2008 03:23:02 12.7 C 9.57 g/m*3 12.7 C 0 km/h
2417 20-06-2008 03:35:02 12.6 C 9.4 g/m*3 12.6 C 0 km/h
2418 20-06-2008 03:47:02 12.5 C 9.46 g/m*3 12.5 C 0 km/h
2419 20-06-2008 03:59:02 12.4 C 9.4 g/m*3 12.4 C 0 km/h
2420 20-06-2008 04:11:01 12.2 C 9.17 g/m*3 12.2 C 0 km/h
2421 20-06-2008 04:23:01 12 C 8.95 g/m*3 12 C 0 km/h
2422 20-06-2008 04:35:02 11.8 C 8.84 g/m*3 11.8 C 0 km/h
2423 20-06-2008 04:47:01 11.6 C 8.73 g/m*3 11.6 C 0 km/h
2424 20-06-2008 04:59:01 11.5 C 8.68 g/m*3 11.5 C 0 km/h
2425 20-06-2008 05:11:02 11.4 C 8.52 g/m*3 11.4 C 0 km/h
Sensor: Nr:Datum:Temp:Abs-Feuchte:Windchill:Wind:
Aussen-T/F 2426 20-06-2008 05:23:01 11.4 C 8.62 g/m*3 11.4 C 0 km/h
2427 20-06-2008 05:35:01 11.3 C 8.57 g/m*3 11.3 C 0 km/h
2428 20-06-2008 05:47:02 11.5 C 8.78 g/m*3 11.5 C 0 km/h
2429 20-06-2008 05:59:02 11.6 C 8.73 g/m*3 11.6 C 0 km/h
2430 20-06-2008 06:11:01 11.9 C 8.79 g/m*3 11.9 C 0 km/h
2431 20-06-2008 06:23:01 11.9 C 8.58 g/m*3 11.9 C 0 km/h
2432 20-06-2008 06:35:02 12 C 8.53 g/m*3 12 C 0 km/h
2433 20-06-2008 06:47:02 11.9 C 8.58 g/m*3 11.9 C 0 km/h
2434 20-06-2008 06:59:02 11.9 C 8.47 g/m*3 11.9 C 0 km/h
2435 20-06-2008 07:11:01 12.1 C 8.47 g/m*3 12.1 C 0 km/h
2436 20-06-2008 07:23:01 12.7 C 8.57 g/m*3 12.7 C 0 km/h
2437 20-06-2008 07:35:02 13.2 C 8.15 g/m*3 13.2 C 0 km/h
2438 20-06-2008 07:47:02 13.5 C 8.07 g/m*3 13.5 C 0 km/h
2439 20-06-2008 07:59:02 13.7 C 8.17 g/m*3 13.7 C 0 km/h
2440 20-06-2008 08:11:01 14.1 C 8.25 g/m*3 14.1 C 0 km/h
2441 20-06-2008 08:23:02 14.5 C 8.33 g/m*3 14.5 C 0 km/h
2442 20-06-2008 08:35:02 14.9 C 8.41 g/m*3 14.9 C 0 km/h
2443 20-06-2008 08:47:01 15.3 C 8.23 g/m*3 15.3 C 0 km/h
2444 20-06-2008 08:59:01 15.4 C 7.88 g/m*3 15.4 C 0 km/h
2445 20-06-2008 09:11:01 15.8 C 7.94 g/m*3 15.8 C 0 km/h
2446 20-06-2008 09:23:02 16.1 C 7.81 g/m*3 16.1 C 0 km/h
2447 20-06-2008 09:35:01 16.5 C 7.72 g/m*3 16.5 C 0 km/h
2448 20-06-2008 09:47:01 16.8 C 7.29 g/m*3 16.8 C 0 km/h
2449 20-06-2008 09:59:01 17.2 C 7.32 g/m*3 17.2 C 0 km/h
2450 20-06-2008 10:11:01 17.5 C 7.01 g/m*3 17.5 C 0 km/h
Sensor: Nr:Datum:Temp:Abs-Feuchte:Windchill:Wind:
Aussen-T/F 2451 20-06-2008 10:23:01 17.2 C 7.03 g/m*3 17.2 C 0 km/h
2452 20-06-2008 10:35:02 18.1 C 6.95 g/m*3 18.1 C 0 km/h
2453 20-06-2008 10:47:02 18.4 C 7.24 g/m*3 18.4 C 0 km/h
2454 20-06-2008 10:59:02 18.9 C 6.64 g/m*3 18.9 C 0 km/h
2455 20-06-2008 11:11:01 18.5 C 6.65 g/m*3 18.5 C 0 km/h
2456 20-06-2008 11:23:01 18.9 C 7.13 g/m*3 18.9 C 0 km/h
2457 20-06-2008 11:35:02 19.5 C 6.88 g/m*3 19.5 C 0 km/h
2458 20-06-2008 11:47:03 19.9 C 6.87 g/m*3 19.9 C 0 km/h
2459 20-06-2008 11:59:03 20.3 C 6.86 g/m*3 20.3 C 0 km/h
2460 20-06-2008 12:11:02 21.5 C 6.6 g/m*3 21.5 C 0 km/h
2461 20-06-2008 12:23:01 21.9 C 6.56 g/m*3 21.9 C 0 km/h
2462 20-06-2008 12:35:01 22.5 C 6.59 g/m*3 22.5 C 0 km/h
2463 20-06-2008 12:47:01 24 C 6.31 g/m*3 24 C 0 km/h
2464 20-06-2008 12:59:01 23.3 C 6.27 g/m*3 23.3 C 0 km/h
2465 20-06-2008 13:11:02 23.3 C 6.27 g/m*3 23.3 C 0 km/h
2466 20-06-2008 13:23:01 23.7 C 6.2 g/m*3 23.7 C 0 km/h
2467 20-06-2008 13:35:01 22.9 C 6.54 g/m*3 22.9 C 0 km/h
2468 20-06-2008 13:47:01 22.7 C 6.87 g/m*3 22.7 C 0 km/h
2469 20-06-2008 13:59:01 23.3 C 6.9 g/m*3 23.3 C 0 km/h
2470 20-06-2008 14:11:02 23.5 C 6.77 g/m*3 23.5 C 0 km/h
2471 20-06-2008 14:23:02 23.4 C 6.94 g/m*3 23.4 C 0 km/h
2472 20-06-2008 14:35:01 23.6 C 7.02 g/m*3 23.6 C 0 km/h
2473 20-06-2008 14:47:01 23.5 C 6.98 g/m*3 23.5 C 0 km/h
2474 20-06-2008 14:59:01 22.7 C 7.27 g/m*3 22.7 C 0 km/h
2475 20-06-2008 15:11:01 22.7 C 7.07 g/m*3 22.7 C 0 km/h
Sensor: Nr:Datum:Temp:Abs-Feuchte:Windchill:Wind:
Aussen-T/F 2476 20-06-2008 15:23:02 22.8 C 7.32 g/m*3 22.8 C 0 km/h
2477 20-06-2008 15:35:01 22.9 C 7.15 g/m*3 22.9 C 0 km/h
2478 20-06-2008 15:47:01 22.7 C 7.07 g/m*3 22.7 C 0 km/h
2479 20-06-2008 15:59:01 23 C 6.78 g/m*3 23 C 0 km/h
2480 20-06-2008 16:11:01 23.9 C 7.14 g/m*3 23.9 C 0 km/h
2481 20-06-2008 16:23:02 23.4 C 6.73 g/m*3 23.4 C 0 km/h
2482 20-06-2008 16:35:01 23.9 C 7.14 g/m*3 23.9 C 0 km/h
2483 20-06-2008 16:47:01 24.2 C 6.6 g/m*3 24.2 C 0 km/h
2484 20-06-2008 16:59:01 23.2 C 6.65 g/m*3 23.2 C 0 km/h
2485 20-06-2008 17:11:01 24.3 C 6.64 g/m*3 24.3 C 0 km/h
2486 20-06-2008 17:23:02 24.9 C 6.41 g/m*3 24.9 C 0 km/h
2487 20-06-2008 17:35:02 24.3 C 6.42 g/m*3 24.3 C 0 km/h
2488 20-06-2008 17:47:01 23.5 C 6.77 g/m*3 23.5 C 0 km/h
2489 20-06-2008 17:59:02 23.3 C 6.69 g/m*3 23.3 C 0 km/h
2490 20-06-2008 18:11:01 23.1 C 6.61 g/m*3 23.1 C 0 km/h
2491 20-06-2008 18:23:01 23.4 C 6.73 g/m*3 23.4 C 0 km/h
2492 20-06-2008 18:35:02 23.3 C 6.69 g/m*3 23.3 C 0 km/h
2493 20-06-2008 18:47:02 23.7 C 7.06 g/m*3 23.7 C 0 km/h
2494 20-06-2008 18:59:03 23.3 C 7.11 g/m*3 23.3 C 0 km/h
2495 20-06-2008 19:11:01 23 C 7.19 g/m*3 23 C 0 km/h
2496 20-06-2008 19:23:02 22.9 C 7.36 g/m*3 22.9 C 0 km/h
2497 20-06-2008 19:35:02 22.6 C 7.63 g/m*3 22.6 C 0 km/h
2498 20-06-2008 19:47:02 22.1 C 7.61 g/m*3 22.1 C 0 km/h
2499 20-06-2008 19:59:02 21.9 C 7.91 g/m*3 21.9 C 0 km/h
2500 20-06-2008 20:11:01 21.9 C 8.3 g/m*3 21.9 C 0 km/h
Sensor: Nr:Datum:Temp:Abs-Feuchte:Windchill:Wind:
Aussen-T/F 2501 20-06-2008 20:23:01 21.7 C 8.01 g/m*3 21.7 C 0 km/h
2502 20-06-2008 20:35:02 21.2 C 7.6 g/m*3 21.2 C 0 km/h
2503 20-06-2008 20:47:02 21 C 7.69 g/m*3 21 C 0 km/h
2504 20-06-2008 20:59:02 20.8 C 7.79 g/m*3 20.8 C 0 km/h
2505 20-06-2008 21:11:01 20.6 C 8.05 g/m*3 20.6 C 0 km/h
2506 20-06-2008 21:23:01 20.3 C 7.91 g/m*3 20.3 C 0 km/h
2507 20-06-2008 21:35:02 20.1 C 7.65 g/m*3 20.1 C 0 km/h
2508 20-06-2008 21:47:16 20 C 7.6 g/m*3 20 C 0 km/h
2509 20-06-2008 21:59:16 19.9 C 7.9 g/m*3 19.9 C 0 km/h
2510 20-06-2008 22:11:16 19.7 C 7.98 g/m*3 19.7 C 0 km/h
2511 20-06-2008 22:23:16 19.7 C 8.32 g/m*3 19.7 C 0 km/h
2512 20-06-2008 22:35:16 19.5 C 7.89 g/m*3 19.5 C 0 km/h
2513 20-06-2008 22:47:16 19.4 C 8.34 g/m*3 19.4 C 0 km/h
2514 20-06-2008 22:59:16 19.3 C 7.8 g/m*3 19.3 C 0 km/h
2515 20-06-2008 23:11:17 19.1 C 7.87 g/m*3 19.1 C 0 km/h
2516 20-06-2008 23:23:02 19.1 C 8.2 g/m*3 19.1 C 0 km/h
2517 20-06-2008 23:35:01 19.1 C 8.03 g/m*3 19.1 C 0 km/h
2518 20-06-2008 23:47:01 18.9 C 8.26 g/m*3 18.9 C 0 km/h
2519 20-06-2008 23:59:01 19.1 C 8.2 g/m*3 19.1 C 0 km/h
2520 21-06-2008 00:11:01 19 C 7.82 g/m*3 19 C 0 km/h
2521 21-06-2008 00:23:01 19 C 7.33 g/m*3 19 C 0 km/h
2522 21-06-2008 00:35:01 18.9 C 7.29 g/m*3 18.9 C 0 km/h
2523 21-06-2008 00:47:01 18.9 C 7.29 g/m*3 18.9 C 0 km/h
2524 21-06-2008 00:59:01 18.6 C 7.64 g/m*3 18.6 C 0 km/h
2525 21-06-2008 01:11:01 18.5 C 7.59 g/m*3 18.5 C 0 km/h
Sensor: Nr:Datum:Temp:Abs-Feuchte:Windchill:Wind:
Aussen-T/F 2526 21-06-2008 01:23:02 18.3 C 7.51 g/m*3 18.3 C 0 km/h
2527 21-06-2008 01:35:01 18.3 C 7.35 g/m*3 18.3 C 0 km/h
2528 21-06-2008 01:47:01 18.3 C 7.35 g/m*3 18.3 C 0 km/h
2529 21-06-2008 01:59:01 18.2 C 7.31 g/m*3 18.2 C 0 km/h
2530 21-06-2008 02:11:01 18.1 C 7.73 g/m*3 18.1 C 0 km/h
2531 21-06-2008 02:23:02 17.8 C 7.74 g/m*3 17.8 C 0 km/h
2532 21-06-2008 02:35:01 17.9 C 8.09 g/m*3 17.9 C 0 km/h
2533 21-06-2008 02:47:01 17.9 C 7.94 g/m*3 17.9 C 0 km/h
2534 21-06-2008 02:59:01 17.9 C 8.09 g/m*3 17.9 C 0 km/h
2535 21-06-2008 03:11:01 17.7 C 7.85 g/m*3 17.7 C 0 km/h
2536 21-06-2008 03:23:01 17.6 C 7.95 g/m*3 17.6 C 0 km/h
2537 21-06-2008 03:35:02 17.5 C 8.05 g/m*3 17.5 C 0 km/h
2538 21-06-2008 03:47:02 17.5 C 8.2 g/m*3 17.5 C 0 km/h
2539 21-06-2008 03:59:02 17.2 C 8.2 g/m*3 17.2 C 0 km/h
2540 21-06-2008 04:11:01 16.6 C 8.62 g/m*3 16.6 C 0 km/h
2541 21-06-2008 04:23:01 16.5 C 8.57 g/m*3 16.5 C 0 km/h
2542 21-06-2008 04:35:02 16.8 C 8.72 g/m*3 16.8 C 0 km/h
2543 21-06-2008 04:47:01 16.9 C 8.63 g/m*3 16.9 C 0 km/h
2544 21-06-2008 04:59:01 16.9 C 8.49 g/m*3 16.9 C 0 km/h
2545 21-06-2008 05:11:02 16.9 C 8.49 g/m*3 16.9 C 0 km/h
2546 21-06-2008 05:23:01 16.9 C 8.49 g/m*3 16.9 C 0 km/h
2547 21-06-2008 05:35:01 16.9 C 8.49 g/m*3 16.9 C 0 km/h
2548 21-06-2008 05:47:02 16.9 C 8.49 g/m*3 16.9 C 0 km/h
2549 21-06-2008 05:59:02 16.8 C 8.44 g/m*3 16.8 C 0 km/h
2550 21-06-2008 06:11:01 16.7 C 8.24 g/m*3 16.7 C 0 km/h
Sensor: Nr:Datum:Temp:Abs-Feuchte:Windchill:Wind:
Aussen-T/F 2551 21-06-2008 06:23:01 16.4 C 8.37 g/m*3 16.4 C 0 km/h
2552 21-06-2008 06:35:02 16.4 C 8.65 g/m*3 16.4 C 0 km/h
2553 21-06-2008 06:47:02 16.2 C 8.83 g/m*3 16.2 C 0 km/h
2554 21-06-2008 06:59:02 16.3 C 9.02 g/m*3 16.3 C 0 km/h
2555 21-06-2008 07:11:01 16.4 C 9.07 g/m*3 16.4 C 0 km/h
2556 21-06-2008 07:23:01 16.5 C 8.99 g/m*3 16.5 C 0 km/h
2557 21-06-2008 07:35:02 16.5 C 8.99 g/m*3 16.5 C 0 km/h
2558 21-06-2008 07:47:02 16.3 C 9.02 g/m*3 16.3 C 0 km/h
2559 21-06-2008 07:59:02 16.5 C 9.27 g/m*3 16.5 C 0 km/h
2560 21-06-2008 08:11:02 16.6 C 9.32 g/m*3 16.6 C 0 km/h
2561 21-06-2008 08:23:01 16.6 C 9.18 g/m*3 16.6 C 0 km/h
2562 21-06-2008 08:35:01 16.9 C 9.35 g/m*3 16.9 C 0 km/h
2563 21-06-2008 08:47:01 17.1 C 9.46 g/m*3 17.1 C 0 km/h
2564 21-06-2008 08:59:01 17.7 C 9.51 g/m*3 17.7 C 0 km/h
2565 21-06-2008 09:11:02 18.3 C 9.38 g/m*3 18.3 C 0 km/h
2566 21-06-2008 09:23:01 19 C 9.13 g/m*3 19 C 0 km/h
2567 21-06-2008 09:35:01 19 C 9.13 g/m*3 19 C 0 km/h
2568 21-06-2008 09:47:01 19.6 C 9.28 g/m*3 19.6 C 0 km/h
2569 21-06-2008 09:59:01 20.7 C 9.18 g/m*3 20.7 C 0 km/h
2570 21-06-2008 10:11:02 21.4 C 8.81 g/m*3 21.4 C 0 km/h
2571 21-06-2008 10:23:01 22 C 8.54 g/m*3 22 C 0 km/h
2572 21-06-2008 10:35:01 22.3 C 8.69 g/m*3 22.3 C 0 km/h
2573 21-06-2008 10:47:01 22 C 8.93 g/m*3 22 C 0 km/h
2574 21-06-2008 10:59:01 22.4 C 8.94 g/m*3 22.4 C 0 km/h
2575 21-06-2008 11:11:01 22.5 C 9.19 g/m*3 22.5 C 0 km/h
Sensor: Nr:Datum:Temp:Abs-Feuchte:Windchill:Wind:
Aussen-T/F 2576 21-06-2008 11:23:02 23.1 C 9.1 g/m*3 23.1 C 0 km/h
2577 21-06-2008 11:35:01 24.2 C 9.02 g/m*3 24.2 C 0 km/h
2578 21-06-2008 11:47:01 25 C 8.75 g/m*3 25 C 0 km/h
2579 21-06-2008 11:59:01 25.6 C 8.81 g/m*3 25.6 C 0 km/h
2580 21-06-2008 12:11:01 25.3 C 9.13 g/m*3 25.3 C 0 km/h
2581 21-06-2008 12:23:01 24.9 C 9.16 g/m*3 24.9 C 0 km/h
2582 21-06-2008 12:35:02 25.2 C 9.08 g/m*3 25.2 C 0 km/h
2583 21-06-2008 12:47:02 25.6 C 9.05 g/m*3 25.6 C 0 km/h
2584 21-06-2008 12:59:02 24.5 C 8.95 g/m*3 24.5 C 0 km/h
2585 21-06-2008 13:11:02 24.3 C 9.29 g/m*3 24.3 C 0 km/h
2586 21-06-2008 13:23:01 25.5 C 9.47 g/m*3 25.5 C 0 km/h
2587 21-06-2008 13:35:01 26.6 C 8.81 g/m*3 26.6 C 0 km/h
2588 21-06-2008 13:47:02 28.1 C 8.2 g/m*3 28.1 C 0 km/h
2589 21-06-2008 13:59:02 28.4 C 8.34 g/m*3 28.4 C 0 km/h
2590 21-06-2008 14:11:01 27.9 C 8.65 g/m*3 27.9 C 0 km/h
2591 21-06-2008 14:23:01 27.3 C 8.63 g/m*3 27.3 C 0 km/h
2592 21-06-2008 14:35:01 27.2 C 8.85 g/m*3 27.2 C 0 km/h
2593 21-06-2008 14:47:01 28.3 C 9.12 g/m*3 28.3 C 0 km/h
2594 21-06-2008 14:59:01 28.7 C 9.04 g/m*3 28.7 C 0 km/h
2595 21-06-2008 15:11:01 29.6 C 9.2 g/m*3 29.6 C 0 km/h
2596 21-06-2008 15:23:02 30.4 C 8.99 g/m*3 30.4 C 0 km/h
2597 21-06-2008 15:35:02 30.7 C 8.19 g/m*3 30.7 C 0 km/h
2598 21-06-2008 15:47:02 30.7 C 8.19 g/m*3 30.7 C 0 km/h
2599 21-06-2008 15:59:02 31.2 C 8.09 g/m*3 31.2 C 0 km/h
2600 21-06-2008 16:11:01 30.8 C 8.23 g/m*3 30.8 C 0 km/h
Sensor: Nr:Datum:Temp:Abs-Feuchte:Windchill:Wind:
Aussen-T/F 2601 21-06-2008 16:23:01 30.7 C 7.87 g/m*3 30.7 C 0 km/h
2602 21-06-2008 16:35:02 31.6 C 8.26 g/m*3 31.6 C 0 km/h
2603 21-06-2008 16:47:01 32.1 C 7.47 g/m*3 32.1 C 0 km/h
2604 21-06-2008 16:59:01 32.5 C 7.28 g/m*3 32.5 C 0 km/h
2605 21-06-2008 17:11:02 32.4 C 7.24 g/m*3 32.4 C 0 km/h
2606 21-06-2008 17:23:01 32.6 C 6.97 g/m*3 32.6 C 0 km/h
2607 21-06-2008 17:35:01 33 C 7.12 g/m*3 33 C 0 km/h
2608 21-06-2008 17:47:01 32.8 C 7.04 g/m*3 32.8 C 0 km/h
2609 21-06-2008 17:59:01 32.4 C 6.9 g/m*3 32.4 C 0 km/h
2610 21-06-2008 18:11:02 31.4 C 6.87 g/m*3 31.4 C 0 km/h
2611 21-06-2008 18:23:02 31.5 C 6.9 g/m*3 31.5 C 0 km/h
2612 21-06-2008 18:35:01 31.2 C 6.79 g/m*3 31.2 C 0 km/h
2613 21-06-2008 18:47:01 31 C 6.72 g/m*3 31 C 0 km/h
2614 21-06-2008 18:59:01 30.8 C 7.28 g/m*3 30.8 C 0 km/h
2615 21-06-2008 19:11:01 30.7 C 7.24 g/m*3 30.7 C 0 km/h
2616 21-06-2008 19:23:02 30.7 C 7.56 g/m*3 30.7 C 0 km/h
2617 21-06-2008 19:35:02 30.4 C 7.75 g/m*3 30.4 C 0 km/h
2618 21-06-2008 19:47:01 30.4 C 8.06 g/m*3 30.4 C 0 km/h
2619 21-06-2008 19:59:01 30.4 C 8.06 g/m*3 30.4 C 0 km/h
2620 21-06-2008 20:11:01 30.4 C 8.37 g/m*3 30.4 C 0 km/h
2621 21-06-2008 20:23:02 30.1 C 9.15 g/m*3 30.1 C 0 km/h
2622 21-06-2008 20:35:02 29.7 C 9.25 g/m*3 29.7 C 0 km/h
2623 21-06-2008 20:47:02 29.2 C 9 g/m*3 29.2 C 0 km/h
2624 21-06-2008 20:59:02 28.3 C 9.12 g/m*3 28.3 C 0 km/h
2625 21-06-2008 21:11:02 27.2 C 9.63 g/m*3 27.2 C 0 km/h
Sensor: Nr:Datum:Temp:Abs-Feuchte:Windchill:Wind:
Aussen-T/F 2626 21-06-2008 21:23:01 26.3 C 9.9 g/m*3 26.3 C 0 km/h
2627 21-06-2008 21:35:01 25.6 C 9.52 g/m*3 25.6 C 0 km/h
2628 21-06-2008 21:47:01 24.5 C 9.62 g/m*3 24.5 C 0 km/h
2629 21-06-2008 21:59:01 24.1 C 9.63 g/m*3 24.1 C 0 km/h
2630 21-06-2008 22:11:02 23.5 C 9.73 g/m*3 23.5 C 0 km/h
2631 21-06-2008 22:23:01 23.3 C 9.83 g/m*3 23.3 C 0 km/h
2632 21-06-2008 22:35:01 23.1 C 9.92 g/m*3 23.1 C 0 km/h
2633 21-06-2008 22:47:01 22.7 C 10.1 g/m*3 22.7 C 0 km/h
2634 21-06-2008 22:59:01 22.7 C 10.3 g/m*3 22.7 C 0 km/h
2635 21-06-2008 23:11:02 22.2 C 10.41 g/m*3 22.2 C 0 km/h
2636 21-06-2008 23:24:02 22.2 C 10.41 g/m*3 22.2 C 0 km/h
2637 21-06-2008 23:36:02 22.1 C 10.54 g/m*3 22.1 C 0 km/h
2638 21-06-2008 23:48:03 22 C 10.48 g/m*3 22 C 0 km/h
2639 22-06-2008 00:00:03 22 C 10.48 g/m*3 22 C 0 km/h
2640 22-06-2008 00:12:03 21.7 C 10.68 g/m*3 21.7 C 0 km/h
2641 22-06-2008 00:24:03 21.5 C 10.56 g/m*3 21.5 C 0 km/h
2642 22-06-2008 00:36:03 21.4 C 10.69 g/m*3 21.4 C 0 km/h
2643 22-06-2008 00:48:03 21.3 C 10.81 g/m*3 21.3 C 0 km/h
2644 22-06-2008 01:00:03 21 C 10.62 g/m*3 21 C 0 km/h
2645 22-06-2008 01:12:03 20.7 C 10.8 g/m*3 20.7 C 0 km/h
2646 22-06-2008 01:24:03 20.6 C 10.92 g/m*3 20.6 C 0 km/h
2647 22-06-2008 01:36:03 20.2 C 10.84 g/m*3 20.2 C 0 km/h
2648 22-06-2008 01:48:03 20 C 10.89 g/m*3 20 C 0 km/h
2649 22-06-2008 02:00:03 19.8 C 10.93 g/m*3 19.8 C 0 km/h
2650 22-06-2008 02:12:03 19.6 C 10.97 g/m*3 19.6 C 0 km/h
Sensor: Nr:Datum:Temp:Abs-Feuchte:Windchill:Wind:
Aussen-T/F 2651 22-06-2008 02:24:03 19.4 C 11.01 g/m*3 19.4 C 0 km/h
2652 22-06-2008 02:36:03 19.2 C 11.05 g/m*3 19.2 C 0 km/h
2653 22-06-2008 02:48:03 19.1 C 11.15 g/m*3 19.1 C 0 km/h
2654 22-06-2008 03:00:03 19 C 11.08 g/m*3 19 C 0 km/h
2655 22-06-2008 03:12:03 18.7 C 11.05 g/m*3 18.7 C 0 km/h
2656 22-06-2008 03:24:03 18.5 C 11.08 g/m*3 18.5 C 0 km/h
2657 22-06-2008 03:36:04 18.3 C 10.94 g/m*3 18.3 C 0 km/h
2658 22-06-2008 03:48:04 18.1 C 10.97 g/m*3 18.1 C 0 km/h
2659 22-06-2008 04:00:04 17.9 C 10.99 g/m*3 17.9 C 0 km/h
2660 22-06-2008 04:12:04 17.8 C 10.93 g/m*3 17.8 C 0 km/h
2661 22-06-2008 04:24:04 17.7 C 11.01 g/m*3 17.7 C 0 km/h
2662 22-06-2008 04:36:04 17.6 C 10.95 g/m*3 17.6 C 0 km/h
2663 22-06-2008 04:48:04 17.5 C 10.88 g/m*3 17.5 C 0 km/h
2664 22-06-2008 05:00:04 17.3 C 10.9 g/m*3 17.3 C 0 km/h
2665 22-06-2008 05:12:04 17.2 C 11.13 g/m*3 17.2 C 0 km/h
2666 22-06-2008 05:24:04 17 C 11 g/m*3 17 C 0 km/h
2667 22-06-2008 05:36:04 16.9 C 11.08 g/m*3 16.9 C 0 km/h
2668 22-06-2008 05:48:04 16.7 C 11.08 g/m*3 16.7 C 0 km/h
2669 22-06-2008 06:00:04 16.7 C 11.08 g/m*3 16.7 C 0 km/h
2670 22-06-2008 06:12:02 16.9 C 11.22 g/m*3 16.9 C 0 km/h
2671 22-06-2008 06:24:02 16.8 C 11.29 g/m*3 16.8 C 0 km/h
2672 22-06-2008 06:36:03 17 C 11.29 g/m*3 17 C 0 km/h
2673 22-06-2008 06:48:02 17.1 C 11.21 g/m*3 17.1 C 0 km/h
2674 22-06-2008 07:00:02 17.3 C 11.34 g/m*3 17.3 C 0 km/h
2675 22-06-2008 07:12:02 17.3 C 11.34 g/m*3 17.3 C 0 km/h
Sensor: Nr:Datum:Temp:Abs-Feuchte:Windchill:Wind:
Aussen-T/F 2676 22-06-2008 07:24:02 17.5 C 11.48 g/m*3 17.5 C 0 km/h
2677 22-06-2008 07:36:01 17.7 C 11.62 g/m*3 17.7 C 0 km/h
2678 22-06-2008 07:48:02 17.9 C 11.6 g/m*3 17.9 C 0 km/h
2679 22-06-2008 08:00:02 18.1 C 11.43 g/m*3 18.1 C 0 km/h
2680 22-06-2008 08:12:02 18.4 C 11.64 g/m*3 18.4 C 0 km/h
2681 22-06-2008 08:24:02 18.9 C 11.83 g/m*3 18.9 C 0 km/h
2682 22-06-2008 08:36:02 19.5 C 11.92 g/m*3 19.5 C 0 km/h
2683 22-06-2008 08:48:01 20.2 C 11.54 g/m*3 20.2 C 0 km/h
2684 22-06-2008 09:00:01 20.9 C 11.66 g/m*3 20.9 C 0 km/h
2685 22-06-2008 09:12:01 21.8 C 12.09 g/m*3 21.8 C 0 km/h
2686 22-06-2008 09:24:01 22.8 C 11.99 g/m*3 22.8 C 0 km/h
2687 22-06-2008 09:36:02 23.4 C 11.99 g/m*3 23.4 C 0 km/h
2688 22-06-2008 09:48:02 24.4 C 11.79 g/m*3 24.4 C 0 km/h
2689 22-06-2008 10:00:02 25.1 C 11.57 g/m*3 25.1 C 0 km/h
2690 22-06-2008 10:12:02 26.1 C 11.51 g/m*3 26.1 C 0 km/h
2691 22-06-2008 10:24:02 26.7 C 11.39 g/m*3 26.7 C 0 km/h
2692 22-06-2008 10:36:02 27.3 C 11.51 g/m*3 27.3 C 0 km/h
2693 22-06-2008 10:48:02 27.3 C 11.51 g/m*3 27.3 C 0 km/h
2694 22-06-2008 11:00:02 28 C 11.69 g/m*3 28 C 0 km/h
2695 22-06-2008 11:12:02 28.7 C 12.15 g/m*3 28.7 C 0 km/h
2696 22-06-2008 11:24:01 29.3 C 12.26 g/m*3 29.3 C 0 km/h
2697 22-06-2008 11:36:02 29.5 C 11.22 g/m*3 29.5 C 0 km/h
2698 22-06-2008 11:48:03 29.5 C 10.92 g/m*3 29.5 C 0 km/h
2699 22-06-2008 12:00:03 29.6 C 10.98 g/m*3 29.6 C 0 km/h
2700 22-06-2008 12:12:02 29.9 C 10.56 g/m*3 29.9 C 0 km/h
Sensor: Nr:Datum:Temp:Abs-Feuchte:Windchill:Wind:
Aussen-T/F 2701 22-06-2008 12:24:02 29.7 C 10.74 g/m*3 29.7 C 0 km/h
2702 22-06-2008 12:36:03 30.1 C 10.37 g/m*3 30.1 C 0 km/h
2703 22-06-2008 12:48:02 29.9 C 10.86 g/m*3 29.9 C 0 km/h
2704 22-06-2008 13:00:02 29.7 C 11.04 g/m*3 29.7 C 0 km/h
2705 22-06-2008 13:12:02 29.2 C 11.03 g/m*3 29.2 C 0 km/h
2706 22-06-2008 13:24:02 29.2 C 11.32 g/m*3 29.2 C 0 km/h
2707 22-06-2008 13:36:02 30 C 11.52 g/m*3 30 C 0 km/h
2708 22-06-2008 13:48:02 29.8 C 11.7 g/m*3 29.8 C 0 km/h
2709 22-06-2008 14:00:02 29.1 C 11.26 g/m*3 29.1 C 0 km/h
2710 22-06-2008 14:12:02 29 C 11.49 g/m*3 29 C 0 km/h
2711 22-06-2008 14:24:02 29.5 C 11.22 g/m*3 29.5 C 0 km/h
2712 22-06-2008 14:36:01 29.1 C 10.4 g/m*3 29.1 C 0 km/h
2713 22-06-2008 14:48:01 28.8 C 10.23 g/m*3 28.8 C 0 km/h
2714 22-06-2008 15:00:01 28.3 C 9.95 g/m*3 28.3 C 0 km/h
2715 22-06-2008 15:12:02 28.7 C 9.89 g/m*3 28.7 C 0 km/h
2716 22-06-2008 15:24:02 30 C 10.01 g/m*3 30 C 0 km/h
2717 22-06-2008 15:36:01 30.5 C 9.97 g/m*3 30.5 C 0 km/h
2718 22-06-2008 15:48:01 31 C 9.92 g/m*3 31 C 0 km/h
2719 22-06-2008 16:00:01 31.5 C 9.2 g/m*3 31.5 C 0 km/h
2720 22-06-2008 16:12:02 31.5 C 9.2 g/m*3 31.5 C 0 km/h
2721 22-06-2008 16:24:02 31.5 C 8.55 g/m*3 31.5 C 0 km/h
2722 22-06-2008 16:36:01 31.9 C 8.39 g/m*3 31.9 C 0 km/h
2723 22-06-2008 16:48:01 31.9 C 7.72 g/m*3 31.9 C 0 km/h
2724 22-06-2008 17:00:01 32.1 C 7.47 g/m*3 32.1 C 0 km/h
2725 22-06-2008 17:12:02 32.3 C 6.86 g/m*3 32.3 C 0 km/h
Sensor: Nr:Datum:Temp:Abs-Feuchte:Windchill:Wind:
Aussen-T/F 2726 22-06-2008 17:24:02 32.3 C 6.86 g/m*3 32.3 C 0 km/h
2727 22-06-2008 17:36:01 32.1 C 7.13 g/m*3 32.1 C 0 km/h
2728 22-06-2008 17:48:02 32.3 C 7.2 g/m*3 32.3 C 0 km/h
2729 22-06-2008 18:00:02 32.1 C 7.47 g/m*3 32.1 C 0 km/h
2730 22-06-2008 18:12:01 30.9 C 7.96 g/m*3 30.9 C 0 km/h
2731 22-06-2008 18:24:02 30.5 C 8.41 g/m*3 30.5 C 0 km/h
2732 22-06-2008 18:36:02 30.2 C 8.89 g/m*3 30.2 C 0 km/h
2733 22-06-2008 18:48:02 30 C 8.79 g/m*3 30 C 0 km/h
2734 22-06-2008 19:00:02 29.4 C 8.81 g/m*3 29.4 C 0 km/h
2735 22-06-2008 19:12:02 28.3 C 9.68 g/m*3 28.3 C 0 km/h
2736 22-06-2008 19:24:02 28.4 C 9.73 g/m*3 28.4 C 0 km/h
2737 22-06-2008 19:36:02 28.2 C 9.9 g/m*3 28.2 C 0 km/h
2738 22-06-2008 19:48:02 27.9 C 10.28 g/m*3 27.9 C 0 km/h
2739 22-06-2008 20:00:02 27.9 C 10.28 g/m*3 27.9 C 0 km/h
2740 22-06-2008 20:12:01 28.3 C 9.95 g/m*3 28.3 C 0 km/h
2741 22-06-2008 20:24:01 27.5 C 10.05 g/m*3 27.5 C 0 km/h
2742 22-06-2008 20:36:01 27.3 C 9.94 g/m*3 27.3 C 0 km/h
2743 22-06-2008 20:48:01 26.9 C 10.75 g/m*3 26.9 C 0 km/h
2744 22-06-2008 21:00:01 24.2 C 13.86 g/m*3 24.2 C 0 km/h
2745 22-06-2008 21:12:01 23 C 14.39 g/m*3 23 C 0 km/h
2746 22-06-2008 21:24:02 23.5 C 14.17 g/m*3 23.5 C 0 km/h
2747 22-06-2008 21:36:02 23.4 C 13.88 g/m*3 23.4 C 0 km/h
2748 22-06-2008 21:48:02 23.5 C 13.53 g/m*3 23.5 C 0 km/h
2749 22-06-2008 22:00:02 23.5 C 13.53 g/m*3 23.5 C 0 km/h
2750 22-06-2008 22:12:02 23.4 C 13.46 g/m*3 23.4 C 0 km/h
Sensor: Nr:Datum:Temp:Abs-Feuchte:Windchill:Wind:
Aussen-T/F 2751 22-06-2008 22:24:02 23.4 C 13.25 g/m*3 23.4 C 0 km/h
2752 22-06-2008 22:36:02 23.4 C 13.46 g/m*3 23.4 C 0 km/h
2753 22-06-2008 22:49:04 23.1 C 13.64 g/m*3 23.1 C 0 km/h
2754 22-06-2008 23:01:04 22.7 C 13.94 g/m*3 22.7 C 0 km/h
2755 22-06-2008 23:13:04 21.9 C 14.86 g/m*3 21.9 C 0 km/h
2756 22-06-2008 23:25:04 21 C 15.2 g/m*3 21 C 0 km/h
2757 22-06-2008 23:37:04 20.5 C 14.95 g/m*3 20.5 C 0 km/h
2758 22-06-2008 23:49:04 20.4 C 14.68 g/m*3 20.4 C 0 km/h
2759 23-06-2008 00:01:04 20.3 C 14.6 g/m*3 20.3 C 0 km/h
2760 23-06-2008 00:13:04 20.1 C 14.08 g/m*3 20.1 C 0 km/h
2761 23-06-2008 00:25:04 20.1 C 13.73 g/m*3 20.1 C 0 km/h
2762 23-06-2008 00:37:04 19.8 C 13.84 g/m*3 19.8 C 0 km/h
2763 23-06-2008 00:49:04 19.8 C 13.84 g/m*3 19.8 C 0 km/h
2764 23-06-2008 01:01:05 19.9 C 13.74 g/m*3 19.9 C 0 km/h
2765 23-06-2008 01:13:05 20 C 13.65 g/m*3 20 C 0 km/h
2766 23-06-2008 01:25:05 20.1 C 13.73 g/m*3 20.1 C 0 km/h
2767 23-06-2008 01:37:05 20.3 C 13.72 g/m*3 20.3 C 0 km/h
2768 23-06-2008 01:49:05 20.5 C 13.88 g/m*3 20.5 C 0 km/h
2769 23-06-2008 02:01:05 20.4 C 13.98 g/m*3 20.4 C 0 km/h
2770 23-06-2008 02:13:05 20.3 C 13.89 g/m*3 20.3 C 0 km/h
2771 23-06-2008 02:25:05 20.4 C 13.98 g/m*3 20.4 C 0 km/h
2772 23-06-2008 02:37:05 20.3 C 13.89 g/m*3 20.3 C 0 km/h
2773 23-06-2008 02:49:05 20.4 C 13.98 g/m*3 20.4 C 0 km/h
2774 23-06-2008 03:01:05 20.3 C 13.72 g/m*3 20.3 C 0 km/h
2775 23-06-2008 03:13:05 20 C 12.96 g/m*3 20 C 0 km/h
Sensor: Nr:Datum:Temp:Abs-Feuchte:Windchill:Wind:
Aussen-T/F 2776 23-06-2008 03:25:05 19.6 C 13 g/m*3 19.6 C 0 km/h
2777 23-06-2008 03:37:05 19.6 C 13 g/m*3 19.6 C 0 km/h
2778 23-06-2008 03:49:05 19.6 C 13 g/m*3 19.6 C 0 km/h
2779 23-06-2008 04:01:05 19.7 C 13.25 g/m*3 19.7 C 0 km/h
2780 23-06-2008 04:13:05 19.7 C 12.91 g/m*3 19.7 C 0 km/h
2781 23-06-2008 04:25:05 18.8 C 10.95 g/m*3 18.8 C 0 km/h
2782 23-06-2008 04:37:05 18.1 C 10.66 g/m*3 18.1 C 0 km/h
2783 23-06-2008 04:49:05 17.8 C 10.47 g/m*3 17.8 C 0 km/h
2784 23-06-2008 05:01:05 17.3 C 10.16 g/m*3 17.3 C 0 km/h
2785 23-06-2008 05:13:06 17 C 9.69 g/m*3 17 C 0 km/h
2786 23-06-2008 05:25:06 16.7 C 8.53 g/m*3 16.7 C 0 km/h
2787 23-06-2008 05:37:06 16.2 C 8.55 g/m*3 16.2 C 0 km/h
2788 23-06-2008 05:49:06 16.4 C 8.79 g/m*3 16.4 C 0 km/h
2789 23-06-2008 06:01:06 16.4 C 8.65 g/m*3 16.4 C 0 km/h
2790 23-06-2008 06:13:06 16.3 C 8.46 g/m*3 16.3 C 0 km/h
2791 23-06-2008 06:25:06 16 C 8.58 g/m*3 16 C 0 km/h
2792 23-06-2008 06:37:06 15.8 C 8.48 g/m*3 15.8 C 0 km/h
2793 23-06-2008 06:49:06 15.8 C 8.21 g/m*3 15.8 C 0 km/h
2794 23-06-2008 07:01:06 15.7 C 7.76 g/m*3 15.7 C 0 km/h
2795 23-06-2008 07:13:06 15.6 C 7.58 g/m*3 15.6 C 0 km/h
2796 23-06-2008 07:25:06 15.7 C 7.23 g/m*3 15.7 C 0 km/h
2797 23-06-2008 07:37:06 15.7 C 6.82 g/m*3 15.7 C 0 km/h
2798 23-06-2008 07:49:06 15.7 C 6.56 g/m*3 15.7 C 0 km/h
2799 23-06-2008 08:01:06 15.8 C 6.6 g/m*3 15.8 C 0 km/h
2800 23-06-2008 08:13:06 16 C 5.72 g/m*3 16 C 0 km/h
Sensor: Nr:Datum:Temp:Abs-Feuchte:Windchill:Wind:
Aussen-T/F 2801 23-06-2008 08:25:06 16.2 C 5.65 g/m*3 16.2 C 0 km/h
2802 23-06-2008 08:37:06 16.2 C 5.65 g/m*3 16.2 C 0 km/h
2803 23-06-2008 08:49:06 16.4 C 5.72 g/m*3 16.4 C 0 km/h
2804 23-06-2008 09:01:03 16.6 C 6.07 g/m*3 16.6 C 0 km/h
2805 23-06-2008 09:13:03 16.9 C 6.18 g/m*3 16.9 C 0 km/h
2806 23-06-2008 09:25:03 17.2 C 6.15 g/m*3 17.2 C 0 km/h
2807 23-06-2008 09:37:03 17.5 C 6.11 g/m*3 17.5 C 0 km/h
2808 23-06-2008 09:49:02 17.7 C 6.04 g/m*3 17.7 C 0 km/h
2809 23-06-2008 10:01:02 17.9 C 6.11 g/m*3 17.9 C 0 km/h
2810 23-06-2008 10:13:02 18.6 C 6.05 g/m*3 18.6 C 0 km/h
2811 23-06-2008 10:25:02 18.7 C 6.08 g/m*3 18.7 C 0 km/h
2812 23-06-2008 10:37:01 19.6 C 6.25 g/m*3 19.6 C 0 km/h
2813 23-06-2008 10:49:01 19.7 C 6.11 g/m*3 19.7 C 0 km/h
2814 23-06-2008 11:01:02 20.1 C 6.08 g/m*3 20.1 C 0 km/h
2815 23-06-2008 11:13:02 20.6 C 6.26 g/m*3 20.6 C 0 km/h
2816 23-06-2008 11:25:01 21.2 C 6.12 g/m*3 21.2 C 0 km/h
2817 23-06-2008 11:37:02 21.3 C 5.78 g/m*3 21.3 C 0 km/h
2818 23-06-2008 11:49:02 21.9 C 6.18 g/m*3 21.9 C 0 km/h
2819 23-06-2008 12:01:02 22.2 C 5.69 g/m*3 22.2 C 0 km/h
2820 23-06-2008 12:13:02 22.9 C 5.72 g/m*3 22.9 C 0 km/h
2821 23-06-2008 12:25:02 24.7 C 5.66 g/m*3 24.7 C 0 km/h
2822 23-06-2008 12:37:02 24.8 C 5.69 g/m*3 24.8 C 0 km/h
2823 23-06-2008 12:49:02 26.2 C 5.42 g/m*3 26.2 C 0 km/h
2824 23-06-2008 13:01:01 26 C 5.11 g/m*3 26 C 0 km/h
2825 23-06-2008 13:13:01 26.5 C 5.01 g/m*3 26.5 C 0 km/h
Sensor: Nr:Datum:Temp:Abs-Feuchte:Windchill:Wind:
Aussen-T/F 2826 23-06-2008 13:25:02 28 C 5.44 g/m*3 28 C 0 km/h
2827 23-06-2008 13:37:01 27.7 C 5.35 g/m*3 27.7 C 0 km/h
2828 23-06-2008 13:49:02 27.9 C 5.41 g/m*3 27.9 C 0 km/h
2829 23-06-2008 14:01:01 26.6 C 5.03 g/m*3 26.6 C 0 km/h
2830 23-06-2008 14:13:01 26.9 C 5.12 g/m*3 26.9 C 0 km/h
2831 23-06-2008 14:25:02 26.7 C 5.06 g/m*3 26.7 C 0 km/h
2832 23-06-2008 14:37:02 27.4 C 5.53 g/m*3 27.4 C 0 km/h
2833 23-06-2008 14:49:02 28.7 C 5.65 g/m*3 28.7 C 0 km/h
2834 23-06-2008 15:01:02 29.1 C 5.78 g/m*3 29.1 C 0 km/h
2835 23-06-2008 15:13:02 30.2 C 6.13 g/m*3 30.2 C 0 km/h
2836 23-06-2008 15:25:02 29.6 C 5.94 g/m*3 29.6 C 0 km/h
2837 23-06-2008 15:37:02 28.9 C 5.71 g/m*3 28.9 C 0 km/h
2838 23-06-2008 15:49:02 29 C 5.74 g/m*3 29 C 0 km/h
2839 23-06-2008 16:01:02 29 C 5.74 g/m*3 29 C 0 km/h
2840 23-06-2008 16:13:02 30.6 C 6.26 g/m*3 30.6 C 0 km/h
2841 23-06-2008 16:25:01 31.3 C 6.5 g/m*3 31.3 C 0 km/h
2842 23-06-2008 16:37:02 30.8 C 6.33 g/m*3 30.8 C 0 km/h
2843 23-06-2008 16:49:02 30.3 C 6.16 g/m*3 30.3 C 0 km/h
2844 23-06-2008 17:01:01 31 C 6.4 g/m*3 31 C 0 km/h
2845 23-06-2008 17:13:01 30.3 C 6.16 g/m*3 30.3 C 0 km/h
2846 23-06-2008 17:25:01 31.2 C 6.47 g/m*3 31.2 C 0 km/h
2847 23-06-2008 17:37:02 30.7 C 6.3 g/m*3 30.7 C 0 km/h
2848 23-06-2008 17:49:02 30.9 C 6.37 g/m*3 30.9 C 0 km/h
2849 23-06-2008 18:01:02 30.4 C 6.2 g/m*3 30.4 C 0 km/h
2850 23-06-2008 18:13:02 30.6 C 6.26 g/m*3 30.6 C 0 km/h
Sensor: Nr:Datum:Temp:Abs-Feuchte:Windchill:Wind:
Aussen-T/F 2851 23-06-2008 18:25:02 31.2 C 6.47 g/m*3 31.2 C 0 km/h
2852 23-06-2008 18:37:02 29.8 C 6 g/m*3 29.8 C 0 km/h
2853 23-06-2008 18:49:04 30.1 C 6.1 g/m*3 30.1 C 0 km/h
2854 23-06-2008 19:01:02 30.7 C 6.3 g/m*3 30.7 C 0 km/h
2855 23-06-2008 19:13:02 29.5 C 5.9 g/m*3 29.5 C 0 km/h
2856 23-06-2008 19:25:02 29 C 5.74 g/m*3 29 C 0 km/h
2857 23-06-2008 19:37:02 26.6 C 5.03 g/m*3 26.6 C 0 km/h
2858 23-06-2008 19:49:02 26.3 C 4.95 g/m*3 26.3 C 0 km/h
2859 23-06-2008 20:01:01 25.9 C 5.33 g/m*3 25.9 C 0 km/h
2860 23-06-2008 20:13:01 25.2 C 5.35 g/m*3 25.2 C 0 km/h
2861 23-06-2008 20:25:01 25.2 C 5.59 g/m*3 25.2 C 0 km/h
2862 23-06-2008 20:37:02 24.6 C 5.63 g/m*3 24.6 C 0 km/h
2863 23-06-2008 20:49:02 24.6 C 5.63 g/m*3 24.6 C 0 km/h
2864 23-06-2008 21:01:02 24.2 C 5.5 g/m*3 24.2 C 0 km/h
2865 23-06-2008 21:13:02 23.9 C 5.84 g/m*3 23.9 C 0 km/h
2866 23-06-2008 21:25:02 23.4 C 6.1 g/m*3 23.4 C 0 km/h
2867 23-06-2008 21:37:02 22.9 C 6.13 g/m*3 22.9 C 0 km/h
2868 23-06-2008 21:49:02 22 C 6.02 g/m*3 22 C 0 km/h
2869 23-06-2008 22:01:02 21.2 C 6.3 g/m*3 21.2 C 0 km/h
2870 23-06-2008 22:13:02 20.8 C 6.34 g/m*3 20.8 C 0 km/h
2871 23-06-2008 22:25:02 20.7 C 6.3 g/m*3 20.7 C 0 km/h
2872 23-06-2008 22:38:03 20.4 C 6.19 g/m*3 20.4 C 0 km/h
2873 23-06-2008 22:50:03 20 C 6.39 g/m*3 20 C 0 km/h
2874 23-06-2008 23:02:03 19.7 C 6.62 g/m*3 19.7 C 0 km/h
2875 23-06-2008 23:14:03 19.7 C 6.62 g/m*3 19.7 C 0 km/h
Sensor: Nr:Datum:Temp:Abs-Feuchte:Windchill:Wind:
Aussen-T/F 2876 23-06-2008 23:26:03 19.9 C 6.7 g/m*3 19.9 C 0 km/h
2877 23-06-2008 23:38:03 19.9 C 6.7 g/m*3 19.9 C 0 km/h
2878 23-06-2008 23:50:03 19.7 C 6.96 g/m*3 19.7 C 0 km/h
2879 24-06-2008 00:02:03 19.7 C 7.13 g/m*3 19.7 C 0 km/h
2880 24-06-2008 00:14:03 19 C 7.17 g/m*3 19 C 0 km/h
2881 24-06-2008 00:26:03 19.3 C 7.3 g/m*3 19.3 C 0 km/h
2882 24-06-2008 00:38:03 19.3 C 7.3 g/m*3 19.3 C 0 km/h
2883 24-06-2008 00:50:03 19.3 C 7.3 g/m*3 19.3 C 0 km/h
2884 24-06-2008 01:02:03 19.2 C 7.26 g/m*3 19.2 C 0 km/h
2885 24-06-2008 01:14:03 18.9 C 7.45 g/m*3 18.9 C 0 km/h
2886 24-06-2008 01:26:03 18.7 C 7.36 g/m*3 18.7 C 0 km/h
2887 24-06-2008 01:38:04 18.8 C 7.41 g/m*3 18.8 C 0 km/h
2888 24-06-2008 01:50:04 18.7 C 7.36 g/m*3 18.7 C 0 km/h
2889 24-06-2008 02:02:04 18.3 C 7.51 g/m*3 18.3 C 0 km/h
2890 24-06-2008 02:14:04 18.1 C 7.42 g/m*3 18.1 C 0 km/h
2891 24-06-2008 02:26:04 17.8 C 7.44 g/m*3 17.8 C 0 km/h
2892 24-06-2008 02:38:04 17.5 C 7.45 g/m*3 17.5 C 0 km/h
2893 24-06-2008 02:50:04 17.1 C 7.42 g/m*3 17.1 C 0 km/h
2894 24-06-2008 03:02:04 16.9 C 7.48 g/m*3 16.9 C 0 km/h
2895 24-06-2008 03:14:04 16.6 C 7.49 g/m*3 16.6 C 0 km/h
2896 24-06-2008 03:26:04 16.2 C 7.58 g/m*3 16.2 C 0 km/h
2897 24-06-2008 03:38:04 16.1 C 7.68 g/m*3 16.1 C 0 km/h
2898 24-06-2008 03:50:04 15.8 C 7.67 g/m*3 15.8 C 0 km/h
2899 24-06-2008 04:02:04 15.7 C 7.76 g/m*3 15.7 C 0 km/h
2900 24-06-2008 04:14:04 15.5 C 7.8 g/m*3 15.5 C 0 km/h
Sensor: Nr:Datum:Temp:Abs-Feuchte:Windchill:Wind:
Aussen-T/F 2901 24-06-2008 04:26:04 15.4 C 7.75 g/m*3 15.4 C 0 km/h
2902 24-06-2008 04:38:04 15.2 C 7.79 g/m*3 15.2 C 0 km/h
2903 24-06-2008 04:50:04 15.1 C 7.87 g/m*3 15.1 C 0 km/h
2904 24-06-2008 05:02:04 15 C 7.95 g/m*3 15 C 0 km/h
2905 24-06-2008 05:14:04 14.8 C 7.98 g/m*3 14.8 C 0 km/h
2906 24-06-2008 05:26:04 14.7 C 7.93 g/m*3 14.7 C 0 km/h
2907 24-06-2008 05:38:04 14.6 C 8.13 g/m*3 14.6 C 0 km/h
2908 24-06-2008 05:50:05 14.4 C 8.03 g/m*3 14.4 C 0 km/h
2909 24-06-2008 06:02:05 14.7 C 8.18 g/m*3 14.7 C 0 km/h
2910 24-06-2008 06:14:05 14.7 C 8.31 g/m*3 14.7 C 0 km/h
2911 24-06-2008 06:26:05 15 C 8.21 g/m*3 15 C 0 km/h
2912 24-06-2008 06:38:05 15.1 C 8.26 g/m*3 15.1 C 0 km/h
2913 24-06-2008 06:50:05 15.2 C 8.44 g/m*3 15.2 C 0 km/h
2914 24-06-2008 07:02:03 15.4 C 8.41 g/m*3 15.4 C 0 km/h
2915 24-06-2008 07:14:03 15.5 C 8.59 g/m*3 15.5 C 0 km/h
2916 24-06-2008 07:26:02 15.7 C 8.43 g/m*3 15.7 C 0 km/h
2917 24-06-2008 07:38:02 15.7 C 8.43 g/m*3 15.7 C 0 km/h
2918 24-06-2008 07:50:01 15.9 C 8.53 g/m*3 15.9 C 0 km/h
2919 24-06-2008 08:02:02 16.1 C 8.36 g/m*3 16.1 C 0 km/h
2920 24-06-2008 08:14:02 16.5 C 8.43 g/m*3 16.5 C 0 km/h
2921 24-06-2008 08:26:01 16.8 C 8.58 g/m*3 16.8 C 0 km/h
2922 24-06-2008 08:38:01 16.8 C 8.44 g/m*3 16.8 C 0 km/h
2923 24-06-2008 08:50:02 17.7 C 8.15 g/m*3 17.7 C 0 km/h
2924 24-06-2008 09:02:03 18 C 7.99 g/m*3 18 C 0 km/h
2925 24-06-2008 09:14:03 18.4 C 7.86 g/m*3 18.4 C 0 km/h
Sensor: Nr:Datum:Temp:Abs-Feuchte:Windchill:Wind:
Aussen-T/F 2926 24-06-2008 09:26:03 19 C 7.82 g/m*3 19 C 0 km/h
2927 24-06-2008 09:38:02 19.6 C 7.6 g/m*3 19.6 C 0 km/h
2928 24-06-2008 09:50:02 20.1 C 7.3 g/m*3 20.1 C 0 km/h
2929 24-06-2008 10:02:01 20.3 C 7.39 g/m*3 20.3 C 0 km/h
2930 24-06-2008 10:14:01 20.8 C 7.42 g/m*3 20.8 C 0 km/h
2931 24-06-2008 10:26:02 21.8 C 7.67 g/m*3 21.8 C 0 km/h
2932 24-06-2008 10:38:02 22.8 C 7.32 g/m*3 22.8 C 0 km/h
2933 24-06-2008 10:50:02 23.3 C 7.11 g/m*3 23.3 C 0 km/h
2934 24-06-2008 11:02:02 23.4 C 6.94 g/m*3 23.4 C 0 km/h
2935 24-06-2008 11:14:02 23.3 C 6.9 g/m*3 23.3 C 0 km/h
2936 24-06-2008 11:26:02 24.4 C 6.9 g/m*3 24.4 C 0 km/h
2937 24-06-2008 11:38:02 25 C 6.91 g/m*3 25 C 0 km/h
2938 24-06-2008 11:50:01 25.6 C 6.9 g/m*3 25.6 C 0 km/h
2939 24-06-2008 12:02:01 26.5 C 6.76 g/m*3 26.5 C 0 km/h
2940 24-06-2008 12:14:01 27.3 C 6.54 g/m*3 27.3 C 0 km/h
2941 24-06-2008 12:26:02 27.9 C 5.95 g/m*3 27.9 C 0 km/h
2942 24-06-2008 12:38:01 27.7 C 5.62 g/m*3 27.7 C 0 km/h
2943 24-06-2008 12:50:01 28.9 C 5.71 g/m*3 28.9 C 0 km/h
2944 24-06-2008 13:02:02 29.7 C 5.97 g/m*3 29.7 C 0 km/h
2945 24-06-2008 13:14:02 29.9 C 6.03 g/m*3 29.9 C 0 km/h
2946 24-06-2008 13:26:02 30.4 C 6.2 g/m*3 30.4 C 0 km/h
2947 24-06-2008 13:38:01 30.7 C 6.3 g/m*3 30.7 C 0 km/h
2948 24-06-2008 13:50:01 30.4 C 6.2 g/m*3 30.4 C 0 km/h
2949 24-06-2008 14:02:02 30.4 C 6.2 g/m*3 30.4 C 0 km/h
2950 24-06-2008 14:14:02 29.3 C 5.84 g/m*3 29.3 C 0 km/h
Sensor: Nr:Datum:Temp:Abs-Feuchte:Windchill:Wind:
Aussen-T/F 2951 24-06-2008 14:26:02 29.2 C 6.39 g/m*3 29.2 C 0 km/h
2952 24-06-2008 14:38:01 29.1 C 6.35 g/m*3 29.1 C 0 km/h
2953 24-06-2008 14:50:01 29.7 C 6.86 g/m*3 29.7 C 0 km/h
2954 24-06-2008 15:02:02 29.4 C 6.75 g/m*3 29.4 C 0 km/h
2955 24-06-2008 15:14:02 29.8 C 6.9 g/m*3 29.8 C 0 km/h
2956 24-06-2008 15:26:02 30.6 C 6.58 g/m*3 30.6 C 0 km/h
2957 24-06-2008 15:38:01 30.6 C 6.26 g/m*3 30.6 C 0 km/h
2958 24-06-2008 15:50:01 30.9 C 6.68 g/m*3 30.9 C 0 km/h
2959 24-06-2008 16:02:02 31.2 C 6.47 g/m*3 31.2 C 0 km/h
2960 24-06-2008 16:14:02 31 C 6.4 g/m*3 31 C 0 km/h
2961 24-06-2008 16:26:01 31.2 C 6.47 g/m*3 31.2 C 0 km/h
2962 24-06-2008 16:38:02 31.5 C 6.57 g/m*3 31.5 C 0 km/h
2963 24-06-2008 16:50:03 31.4 C 6.54 g/m*3 31.4 C 0 km/h
2964 24-06-2008 17:02:02 32.5 C 6.93 g/m*3 32.5 C 0 km/h
2965 24-06-2008 17:14:02 32.2 C 6.82 g/m*3 32.2 C 0 km/h
2966 24-06-2008 17:26:02 32.1 C 6.79 g/m*3 32.1 C 0 km/h
2967 24-06-2008 17:38:03 32.9 C 7.08 g/m*3 32.9 C 0 km/h
2968 24-06-2008 17:50:02 33.1 C 7.16 g/m*3 33.1 C 0 km/h
2969 24-06-2008 18:02:02 33.5 C 7.31 g/m*3 33.5 C 0 km/h
2970 24-06-2008 18:14:02 33.3 C 7.23 g/m*3 33.3 C 0 km/h
2971 24-06-2008 18:26:02 33.2 C 7.2 g/m*3 33.2 C 0 km/h
2972 24-06-2008 18:38:02 33.3 C 7.23 g/m*3 33.3 C 0 km/h
2973 24-06-2008 18:50:02 33.5 C 7.31 g/m*3 33.5 C 0 km/h
2974 24-06-2008 19:02:01 33.2 C 7.2 g/m*3 33.2 C 0 km/h
2975 24-06-2008 19:14:01 32.9 C 7.08 g/m*3 32.9 C 0 km/h
Sensor: Nr:Datum:Temp:Abs-Feuchte:Windchill:Wind:
Aussen-T/F 2976 24-06-2008 19:26:01 32.8 C 7.04 g/m*3 32.8 C 0 km/h
2977 24-06-2008 19:38:02 32.1 C 7.13 g/m*3 32.1 C 0 km/h
2978 24-06-2008 19:50:03 31.3 C 8.46 g/m*3 31.3 C 0 km/h
2979 24-06-2008 20:02:02 30.8 C 8.86 g/m*3 30.8 C 0 km/h
2980 24-06-2008 20:14:02 30.6 C 8.77 g/m*3 30.6 C 0 km/h
2981 24-06-2008 20:26:02 30.3 C 9.25 g/m*3 30.3 C 0 km/h
2982 24-06-2008 20:38:02 29.5 C 9.44 g/m*3 29.5 C 0 km/h
2983 24-06-2008 20:50:02 28.8 C 9.66 g/m*3 28.8 C 0 km/h
2984 24-06-2008 21:02:02 28 C 9.52 g/m*3 28 C 0 km/h
2985 24-06-2008 21:14:02 27.3 C 9.42 g/m*3 27.3 C 0 km/h
2986 24-06-2008 21:26:01 26.6 C 9.31 g/m*3 26.6 C 0 km/h
2987 24-06-2008 21:38:02 25.9 C 9.2 g/m*3 25.9 C 0 km/h
2988 24-06-2008 21:50:02 25.6 C 9.28 g/m*3 25.6 C 0 km/h
2989 24-06-2008 22:02:01 25.1 C 9.03 g/m*3 25.1 C 0 km/h
2990 24-06-2008 22:14:01 24.8 C 9.33 g/m*3 24.8 C 0 km/h
2991 24-06-2008 22:27:02 24.5 C 9.18 g/m*3 24.5 C 0 km/h
2992 24-06-2008 22:39:02 24.1 C 8.97 g/m*3 24.1 C 0 km/h
2993 24-06-2008 22:51:02 24.1 C 8.97 g/m*3 24.1 C 0 km/h
2994 24-06-2008 23:03:02 23.9 C 9.3 g/m*3 23.9 C 0 km/h
2995 24-06-2008 23:15:02 23.9 C 9.09 g/m*3 23.9 C 0 km/h
2996 24-06-2008 23:27:02 23.9 C 9.09 g/m*3 23.9 C 0 km/h
2997 24-06-2008 23:39:02 23.8 C 9.03 g/m*3 23.8 C 0 km/h
2998 24-06-2008 23:51:02 23.5 C 9.09 g/m*3 23.5 C 0 km/h
2999 25-06-2008 00:03:02 23.4 C 9.04 g/m*3 23.4 C 0 km/h
3000 25-06-2008 00:15:02 23.4 C 9.25 g/m*3 23.4 C 0 km/h
Sensor: Nr:Datum:Temp:Abs-Feuchte:Windchill:Wind:
Aussen-T/F 3001 25-06-2008 00:27:02 23.5 C 9.31 g/m*3 23.5 C 0 km/h
3002 25-06-2008 00:39:02 23.3 C 9.41 g/m*3 23.3 C 0 km/h
3003 25-06-2008 00:51:02 23.1 C 9.72 g/m*3 23.1 C 0 km/h
3004 25-06-2008 01:03:02 22.9 C 9.61 g/m*3 22.9 C 0 km/h
3005 25-06-2008 01:15:02 22.9 C 10.01 g/m*3 22.9 C 0 km/h
3006 25-06-2008 01:27:02 22.9 C 9.81 g/m*3 22.9 C 0 km/h
3007 25-06-2008 01:39:02 22.8 C 9.75 g/m*3 22.8 C 0 km/h
3008 25-06-2008 01:51:02 22.7 C 9.9 g/m*3 22.7 C 0 km/h
3009 25-06-2008 02:03:03 22.3 C 9.68 g/m*3 22.3 C 0 km/h
3010 25-06-2008 02:15:03 22 C 9.9 g/m*3 22 C 0 km/h
3011 25-06-2008 02:27:03 21.9 C 10.23 g/m*3 21.9 C 0 km/h
3012 25-06-2008 02:39:03 21.9 C 10.23 g/m*3 21.9 C 0 km/h
3013 25-06-2008 02:51:03 21.7 C 10.3 g/m*3 21.7 C 0 km/h
3014 25-06-2008 03:03:03 21.5 C 10.18 g/m*3 21.5 C 0 km/h
3015 25-06-2008 03:15:03 21.3 C 10.62 g/m*3 21.3 C 0 km/h
3016 25-06-2008 03:27:03 21.2 C 10.75 g/m*3 21.2 C 0 km/h
3017 25-06-2008 03:39:03 21.2 C 10.75 g/m*3 21.2 C 0 km/h
3018 25-06-2008 03:51:03 21.3 C 10.62 g/m*3 21.3 C 0 km/h
3019 25-06-2008 04:03:03 21.4 C 10.69 g/m*3 21.4 C 0 km/h
3020 25-06-2008 04:15:03 21.3 C 10.81 g/m*3 21.3 C 0 km/h
3021 25-06-2008 04:27:03 21.2 C 11.12 g/m*3 21.2 C 0 km/h
3022 25-06-2008 04:39:03 19.7 C 12.23 g/m*3 19.7 C 0 km/h
3023 25-06-2008 04:51:03 19.8 C 12.81 g/m*3 19.8 C 0 km/h
3024 25-06-2008 05:03:03 19.8 C 12.64 g/m*3 19.8 C 0 km/h
3025 25-06-2008 05:15:03 20 C 12.62 g/m*3 20 C 0 km/h
Sensor: Nr:Datum:Temp:Abs-Feuchte:Windchill:Wind:
Aussen-T/F 3026 25-06-2008 05:27:03 19.9 C 12.37 g/m*3 19.9 C 0 km/h
3027 25-06-2008 05:39:03 20 C 12.27 g/m*3 20 C 0 km/h
3028 25-06-2008 05:51:03 20.1 C 11.99 g/m*3 20.1 C 0 km/h
3029 25-06-2008 06:03:04 20.3 C 11.96 g/m*3 20.3 C 0 km/h
3030 25-06-2008 06:15:04 20.4 C 11.85 g/m*3 20.4 C 0 km/h
3031 25-06-2008 06:27:04 20.3 C 11.96 g/m*3 20.3 C 0 km/h
3032 25-06-2008 06:39:04 20.4 C 12.03 g/m*3 20.4 C 0 km/h
3033 25-06-2008 06:51:04 20.5 C 12.1 g/m*3 20.5 C 0 km/h
3034 25-06-2008 07:03:02 20.9 C 12.02 g/m*3 20.9 C 0 km/h
3035 25-06-2008 07:15:01 21.1 C 11.79 g/m*3 21.1 C 0 km/h
3036 25-06-2008 07:27:01 21.5 C 11.88 g/m*3 21.5 C 0 km/h
3037 25-06-2008 07:39:01 21.8 C 11.9 g/m*3 21.8 C 0 km/h
3038 25-06-2008 07:51:02 22 C 11.84 g/m*3 22 C 0 km/h
3039 25-06-2008 08:03:02 21.6 C 11.95 g/m*3 21.6 C 0 km/h
3040 25-06-2008 08:15:02 21.7 C 11.83 g/m*3 21.7 C 0 km/h
3041 25-06-2008 08:27:02 22.1 C 11.71 g/m*3 22.1 C 0 km/h
3042 25-06-2008 08:39:03 22.7 C 12.12 g/m*3 22.7 C 0 km/h
3043 25-06-2008 08:51:03 23.5 C 11.63 g/m*3 23.5 C 0 km/h
3044 25-06-2008 09:03:03 24 C 11.75 g/m*3 24 C 0 km/h
3045 25-06-2008 09:15:02 24.5 C 11.64 g/m*3 24.5 C 0 km/h
3046 25-06-2008 09:27:02 24.8 C 11.38 g/m*3 24.8 C 0 km/h
3047 25-06-2008 09:39:02 25.1 C 11.57 g/m*3 25.1 C 0 km/h
3048 25-06-2008 09:51:02 25.8 C 11.56 g/m*3 25.8 C 0 km/h
3049 25-06-2008 10:03:01 26.5 C 11.51 g/m*3 26.5 C 0 km/h
3050 25-06-2008 10:15:02 25 C 11.05 g/m*3 25 C 0 km/h
Sensor: Nr:Datum:Temp:Abs-Feuchte:Windchill:Wind:
Aussen-T/F 3051 25-06-2008 10:27:02 25 C 10.82 g/m*3 25 C 0 km/h
3052 25-06-2008 10:39:02 25.6 C 10.71 g/m*3 25.6 C 0 km/h
3053 25-06-2008 10:51:02 27.5 C 10.58 g/m*3 27.5 C 0 km/h
3054 25-06-2008 11:03:02 27.8 C 10.76 g/m*3 27.8 C 0 km/h
3055 25-06-2008 11:15:02 27.9 C 10.82 g/m*3 27.9 C 0 km/h
3056 25-06-2008 11:27:02 26.3 C 11.39 g/m*3 26.3 C 0 km/h
3057 25-06-2008 11:39:02 26.1 C 11.75 g/m*3 26.1 C 0 km/h
3058 25-06-2008 11:51:02 25.6 C 12.38 g/m*3 25.6 C 0 km/h
3059 25-06-2008 12:03:02 24.2 C 13.64 g/m*3 24.2 C 0 km/h
3060 25-06-2008 12:15:03 22.7 C 14.14 g/m*3 22.7 C 0 km/h
3061 25-06-2008 12:27:03 22.6 C 13.46 g/m*3 22.6 C 0 km/h
3062 25-06-2008 12:39:02 21.9 C 14.28 g/m*3 21.9 C 0 km/h
3063 25-06-2008 12:51:02 21.2 C 15.38 g/m*3 21.2 C 0 km/h
3064 25-06-2008 13:03:01 21 C 15.57 g/m*3 21 C 0 km/h
3065 25-06-2008 13:15:02 21.6 C 16.31 g/m*3 21.6 C 0 km/h
3066 25-06-2008 13:27:02 21.4 C 15.94 g/m*3 21.4 C 0 km/h
3067 25-06-2008 13:39:02 21.6 C 16.12 g/m*3 21.6 C 0 km/h
3068 25-06-2008 13:51:02 22.1 C 16.01 g/m*3 22.1 C 0 km/h
3069 25-06-2008 14:03:02 22.1 C 16.01 g/m*3 22.1 C 0 km/h
3070 25-06-2008 14:15:02 21.9 C 15.82 g/m*3 21.9 C 0 km/h
3071 25-06-2008 14:27:02 22.1 C 16.01 g/m*3 22.1 C 0 km/h
3072 25-06-2008 14:39:03 21.4 C 15.56 g/m*3 21.4 C 0 km/h
3073 25-06-2008 14:51:02 21.3 C 15.84 g/m*3 21.3 C 0 km/h
3074 25-06-2008 15:03:02 21 C 15.57 g/m*3 21 C 0 km/h
3075 25-06-2008 15:15:02 21.1 C 16.03 g/m*3 21.1 C 0 km/h
Sensor: Nr:Datum:Temp:Abs-Feuchte:Windchill:Wind:
Aussen-T/F 3076 25-06-2008 15:27:02 21.6 C 16.5 g/m*3 21.6 C 0 km/h
3077 25-06-2008 15:39:02 22.1 C 16.4 g/m*3 22.1 C 0 km/h
3078 25-06-2008 15:51:02 23.4 C 17.03 g/m*3 23.4 C 0 km/h
3079 25-06-2008 16:03:02 23.4 C 15.98 g/m*3 23.4 C 0 km/h
3080 25-06-2008 16:15:02 23.8 C 16.35 g/m*3 23.8 C 0 km/h
3081 25-06-2008 16:27:02 22.4 C 15.89 g/m*3 22.4 C 0 km/h
3082 25-06-2008 16:39:02 22.1 C 16.4 g/m*3 22.1 C 0 km/h
3083 25-06-2008 16:51:02 22.2 C 16.49 g/m*3 22.2 C 0 km/h
3084 25-06-2008 17:03:02 22.3 C 16.39 g/m*3 22.3 C 0 km/h
3085 25-06-2008 17:15:02 22.5 C 16.58 g/m*3 22.5 C 0 km/h
3086 25-06-2008 17:27:02 23.3 C 15.89 g/m*3 23.3 C 0 km/h
3087 25-06-2008 17:39:02 24.5 C 15.67 g/m*3 24.5 C 0 km/h
3088 25-06-2008 17:51:02 25.8 C 15.65 g/m*3 25.8 C 0 km/h
3089 25-06-2008 18:03:02 26.5 C 14.27 g/m*3 26.5 C 0 km/h
3090 25-06-2008 18:15:02 26.9 C 12.8 g/m*3 26.9 C 0 km/h
3091 25-06-2008 18:27:02 27.3 C 12.04 g/m*3 27.3 C 0 km/h
3092 25-06-2008 18:39:02 27.4 C 11.84 g/m*3 27.4 C 0 km/h
3093 25-06-2008 18:51:01 27.4 C 11.31 g/m*3 27.4 C 0 km/h
3094 25-06-2008 19:03:01 26.9 C 10.75 g/m*3 26.9 C 0 km/h
3095 25-06-2008 19:15:02 25.3 C 10.77 g/m*3 25.3 C 0 km/h
3096 25-06-2008 19:27:02 25.4 C 10.59 g/m*3 25.4 C 0 km/h
3097 25-06-2008 19:39:02 25 C 11.05 g/m*3 25 C 0 km/h
3098 25-06-2008 19:51:03 25.2 C 10.94 g/m*3 25.2 C 0 km/h
3099 25-06-2008 20:03:02 25.4 C 10.83 g/m*3 25.4 C 0 km/h
3100 25-06-2008 20:15:01 25.1 C 9.95 g/m*3 25.1 C 0 km/h
Sensor: Nr:Datum:Temp:Abs-Feuchte:Windchill:Wind:
Aussen-T/F 3101 25-06-2008 20:27:01 24.7 C 10.41 g/m*3 24.7 C 0 km/h
3102 25-06-2008 20:39:02 24.3 C 9.74 g/m*3 24.3 C 0 km/h
3103 25-06-2008 20:51:02 23.6 C 10.42 g/m*3 23.6 C 0 km/h
3104 25-06-2008 21:03:01 23 C 11.1 g/m*3 23 C 0 km/h
3105 25-06-2008 21:15:01 22.5 C 10.99 g/m*3 22.5 C 0 km/h
3106 25-06-2008 21:27:01 22 C 10.09 g/m*3 22 C 0 km/h
3107 25-06-2008 21:39:02 21.6 C 10.05 g/m*3 21.6 C 0 km/h
3108 25-06-2008 21:51:02 21 C 10.44 g/m*3 21 C 0 km/h
3109 25-06-2008 22:03:02 20.9 C 9.29 g/m*3 20.9 C 0 km/h
3110 25-06-2008 22:15:01 20.6 C 9.31 g/m*3 20.6 C 0 km/h
3111 25-06-2008 22:27:01 20.4 C 8.31 g/m*3 20.4 C 0 km/h
3112 25-06-2008 22:39:02 19.8 C 8.54 g/m*3 19.8 C 0 km/h
3113 25-06-2008 22:51:03 19.5 C 7.89 g/m*3 19.5 C 0 km/h
3114 25-06-2008 23:03:02 19.3 C 7.63 g/m*3 19.3 C 0 km/h
3115 25-06-2008 23:16:02 19 C 7.82 g/m*3 19 C 0 km/h
3116 25-06-2008 23:28:02 18.6 C 7.96 g/m*3 18.6 C 0 km/h
3117 25-06-2008 23:40:02 18.3 C 7.97 g/m*3 18.3 C 0 km/h
3118 25-06-2008 23:52:02 18 C 7.99 g/m*3 18 C 0 km/h
3119 26-06-2008 00:04:02 17.8 C 8.35 g/m*3 17.8 C 0 km/h
3120 26-06-2008 00:16:02 17.7 C 8.3 g/m*3 17.7 C 0 km/h
3121 26-06-2008 00:28:02 17.4 C 8.45 g/m*3 17.4 C 0 km/h
3122 26-06-2008 00:40:03 17.3 C 8.1 g/m*3 17.3 C 0 km/h
3123 26-06-2008 00:52:03 17.2 C 8.35 g/m*3 17.2 C 0 km/h
3124 26-06-2008 01:04:03 17 C 8.39 g/m*3 17 C 0 km/h
3125 26-06-2008 01:16:03 16.6 C 8.76 g/m*3 16.6 C 0 km/h
Sensor: Nr:Datum:Temp:Abs-Feuchte:Windchill:Wind:
Aussen-T/F 3126 26-06-2008 01:28:03 16.3 C 9.02 g/m*3 16.3 C 0 km/h
3127 26-06-2008 01:40:03 15.8 C 9.29 g/m*3 15.8 C 0 km/h
3128 26-06-2008 01:52:03 15.4 C 9.2 g/m*3 15.4 C 0 km/h
3129 26-06-2008 02:04:03 15.1 C 9.16 g/m*3 15.1 C 0 km/h
3130 26-06-2008 02:16:03 15 C 9.23 g/m*3 15 C 0 km/h
3131 26-06-2008 02:28:03 14.8 C 9.25 g/m*3 14.8 C 0 km/h
3132 26-06-2008 02:40:03 14.7 C 9.32 g/m*3 14.7 C 0 km/h
3133 26-06-2008 02:52:03 14.4 C 9.39 g/m*3 14.4 C 0 km/h
3134 26-06-2008 03:04:03 14.1 C 9.34 g/m*3 14.1 C 0 km/h
3135 26-06-2008 03:16:03 13.9 C 9.47 g/m*3 13.9 C 0 km/h
3136 26-06-2008 03:28:03 13.8 C 9.53 g/m*3 13.8 C 0 km/h
3137 26-06-2008 03:40:03 13.8 C 9.41 g/m*3 13.8 C 0 km/h
3138 26-06-2008 03:52:03 13.7 C 9.35 g/m*3 13.7 C 0 km/h
3139 26-06-2008 04:04:03 13.4 C 9.3 g/m*3 13.4 C 0 km/h
3140 26-06-2008 04:16:03 13.2 C 9.3 g/m*3 13.2 C 0 km/h
3141 26-06-2008 04:28:04 12.9 C 9.24 g/m*3 12.9 C 0 km/h
3142 26-06-2008 04:40:04 12.8 C 9.3 g/m*3 12.8 C 0 km/h
3143 26-06-2008 04:52:04 12.6 C 9.29 g/m*3 12.6 C 0 km/h
3144 26-06-2008 05:04:04 12.5 C 9.35 g/m*3 12.5 C 0 km/h
3145 26-06-2008 05:16:04 12.2 C 9.17 g/m*3 12.2 C 0 km/h
3146 26-06-2008 05:28:04 11.9 C 9.21 g/m*3 11.9 C 0 km/h
3147 26-06-2008 05:40:04 11.7 C 9.1 g/m*3 11.7 C 0 km/h
3148 26-06-2008 05:52:04 11.7 C 9.1 g/m*3 11.7 C 0 km/h
3149 26-06-2008 06:04:04 11.8 C 9.26 g/m*3 11.8 C 0 km/h
3150 26-06-2008 06:16:04 11.9 C 9.32 g/m*3 11.9 C 0 km/h
Sensor: Nr:Datum:Temp:Abs-Feuchte:Windchill:Wind:
Aussen-T/F 3151 26-06-2008 06:28:04 11.9 C 9.21 g/m*3 11.9 C 0 km/h
3152 26-06-2008 06:40:04 12 C 9.17 g/m*3 12 C 0 km/h
3153 26-06-2008 06:52:04 12.1 C 9.22 g/m*3 12.1 C 0 km/h
3154 26-06-2008 07:04:04 12.2 C 9.28 g/m*3 12.2 C 0 km/h
3155 26-06-2008 07:16:02 12.5 C 9.35 g/m*3 12.5 C 0 km/h
3156 26-06-2008 07:28:02 12.9 C 9.35 g/m*3 12.9 C 0 km/h
3157 26-06-2008 07:40:03 13.1 C 9.24 g/m*3 13.1 C 0 km/h
3158 26-06-2008 07:52:03 13.4 C 9.3 g/m*3 13.4 C 0 km/h
3159 26-06-2008 08:04:02 13.5 C 9.36 g/m*3 13.5 C 0 km/h
3160 26-06-2008 08:16:03 13.9 C 9.47 g/m*3 13.9 C 0 km/h
3161 26-06-2008 08:28:03 14.3 C 9.21 g/m*3 14.3 C 0 km/h
3162 26-06-2008 08:40:03 14.7 C 8.94 g/m*3 14.7 C 0 km/h
3163 26-06-2008 08:52:02 15 C 8.59 g/m*3 15 C 0 km/h
3164 26-06-2008 09:04:03 15.5 C 8.33 g/m*3 15.5 C 0 km/h
3165 26-06-2008 09:16:02 16 C 8.31 g/m*3 16 C 0 km/h
3166 26-06-2008 09:28:02 16.3 C 8.05 g/m*3 16.3 C 0 km/h
3167 26-06-2008 09:40:02 16.8 C 8.29 g/m*3 16.8 C 0 km/h
3168 26-06-2008 09:52:02 17.2 C 7.91 g/m*3 17.2 C 0 km/h
3169 26-06-2008 10:04:02 17.8 C 8.04 g/m*3 17.8 C 0 km/h
3170 26-06-2008 10:16:02 18.1 C 6.95 g/m*3 18.1 C 0 km/h
3171 26-06-2008 10:28:03 18.5 C 7.28 g/m*3 18.5 C 0 km/h
3172 26-06-2008 10:40:02 18.8 C 6.6 g/m*3 18.8 C 0 km/h
3173 26-06-2008 10:52:02 19.6 C 6.92 g/m*3 19.6 C 0 km/h
3174 26-06-2008 11:04:03 20.3 C 6.51 g/m*3 20.3 C 0 km/h
3175 26-06-2008 11:16:03 20.7 C 6.66 g/m*3 20.7 C 0 km/h
Sensor: Nr:Datum:Temp:Abs-Feuchte:Windchill:Wind:
Aussen-T/F 3176 26-06-2008 11:28:04 21.1 C 6.45 g/m*3 21.1 C 0 km/h
3177 26-06-2008 11:40:02 21.6 C 6.26 g/m*3 21.6 C 0 km/h
3178 26-06-2008 11:52:02 22.1 C 6.05 g/m*3 22.1 C 0 km/h
3179 26-06-2008 12:04:02 22.4 C 6.16 g/m*3 22.4 C 0 km/h
3180 26-06-2008 12:16:02 23.4 C 6.31 g/m*3 23.4 C 0 km/h
3181 26-06-2008 12:28:03 23.6 C 5.74 g/m*3 23.6 C 0 km/h
3182 26-06-2008 12:40:02 24.5 C 5.6 g/m*3 24.5 C 0 km/h
3183 26-06-2008 12:52:02 24.5 C 5.82 g/m*3 24.5 C 0 km/h
3184 26-06-2008 13:04:03 24.2 C 5.72 g/m*3 24.2 C 0 km/h
3185 26-06-2008 13:16:03 25.8 C 5.78 g/m*3 25.8 C 0 km/h
3186 26-06-2008 13:28:03 26.1 C 5.14 g/m*3 26.1 C 0 km/h
3187 26-06-2008 13:40:02 27.2 C 5.2 g/m*3 27.2 C 0 km/h
3188 26-06-2008 13:52:02 26.9 C 5.12 g/m*3 26.9 C 0 km/h
3189 26-06-2008 14:04:02 26.3 C 4.95 g/m*3 26.3 C 0 km/h
3190 26-06-2008 14:16:02 25.7 C 5.03 g/m*3 25.7 C 0 km/h
3191 26-06-2008 14:28:02 26.2 C 5.42 g/m*3 26.2 C 0 km/h
3192 26-06-2008 14:40:02 26.1 C 5.14 g/m*3 26.1 C 0 km/h
3193 26-06-2008 14:52:01 26.9 C 5.37 g/m*3 26.9 C 0 km/h
3194 26-06-2008 15:04:01 27.1 C 5.18 g/m*3 27.1 C 0 km/h
3195 26-06-2008 15:16:02 27.6 C 5.32 g/m*3 27.6 C 0 km/h
3196 26-06-2008 15:28:02 27 C 5.15 g/m*3 27 C 0 km/h
3197 26-06-2008 15:40:01 28 C 5.44 g/m*3 28 C 0 km/h
3198 26-06-2008 15:52:02 28 C 5.44 g/m*3 28 C 0 km/h
3199 26-06-2008 16:04:01 28.6 C 5.62 g/m*3 28.6 C 0 km/h
3200 26-06-2008 16:16:02 28.7 C 5.65 g/m*3 28.7 C 0 km/h
Sensor: Nr:Datum:Temp:Abs-Feuchte:Windchill:Wind:
Aussen-T/F 3201 26-06-2008 16:28:02 28.4 C 5.56 g/m*3 28.4 C 0 km/h
3202 26-06-2008 16:40:02 28.6 C 5.62 g/m*3 28.6 C 0 km/h
3203 26-06-2008 16:52:02 29.1 C 5.78 g/m*3 29.1 C 0 km/h
3204 26-06-2008 17:04:03 28.8 C 5.68 g/m*3 28.8 C 0 km/h
3205 26-06-2008 17:16:03 29.6 C 5.94 g/m*3 29.6 C 0 km/h
3206 26-06-2008 17:28:03 29.4 C 5.87 g/m*3 29.4 C 0 km/h
3207 26-06-2008 17:40:02 28.4 C 5.84 g/m*3 28.4 C 0 km/h
3208 26-06-2008 17:52:01 29.4 C 5.87 g/m*3 29.4 C 0 km/h
3209 26-06-2008 18:04:02 28.7 C 5.65 g/m*3 28.7 C 0 km/h
3210 26-06-2008 18:16:01 29 C 5.74 g/m*3 29 C 0 km/h
3211 26-06-2008 18:28:01 28.2 C 6.05 g/m*3 28.2 C 0 km/h
3212 26-06-2008 18:40:01 28.6 C 5.9 g/m*3 28.6 C 0 km/h
3213 26-06-2008 18:52:01 27.8 C 5.92 g/m*3 27.8 C 0 km/h
3214 26-06-2008 19:04:02 28.6 C 5.9 g/m*3 28.6 C 0 km/h
3215 26-06-2008 19:16:02 28.3 C 5.81 g/m*3 28.3 C 0 km/h
3216 26-06-2008 19:28:02 27.8 C 5.65 g/m*3 27.8 C 0 km/h
3217 26-06-2008 19:40:01 27.2 C 5.46 g/m*3 27.2 C 0 km/h
3218 26-06-2008 19:52:01 26.8 C 5.85 g/m*3 26.8 C 0 km/h
3219 26-06-2008 20:04:02 27.2 C 5.99 g/m*3 27.2 C 0 km/h
3220 26-06-2008 20:16:02 26.9 C 5.89 g/m*3 26.9 C 0 km/h
3221 26-06-2008 20:28:02 26.7 C 6.33 g/m*3 26.7 C 0 km/h
3222 26-06-2008 20:40:01 26.6 C 6.54 g/m*3 26.6 C 0 km/h
3223 26-06-2008 20:52:01 25.4 C 6.36 g/m*3 25.4 C 0 km/h
3224 26-06-2008 21:04:02 24.4 C 6.23 g/m*3 24.4 C 0 km/h
3225 26-06-2008 21:16:02 23.7 C 6.63 g/m*3 23.7 C 0 km/h
Sensor: Nr:Datum:Temp:Abs-Feuchte:Windchill:Wind:
Aussen-T/F 3226 26-06-2008 21:28:02 23 C 6.58 g/m*3 23 C 0 km/h
3227 26-06-2008 21:40:01 22.5 C 6.99 g/m*3 22.5 C 0 km/h
3228 26-06-2008 21:52:01 22.1 C 7.22 g/m*3 22.1 C 0 km/h
3229 26-06-2008 22:04:02 21.3 C 7.08 g/m*3 21.3 C 0 km/h